<?xml version="1.0"?>
<gpx xmlns="http://www.topografix.com/GPX/1/1" xmlns:xsi="http://www.w3.org/2001/XMLSchema-instance" xmlns:wptx1="http://www.garmin.com/xmlschemas/WaypointExtension/v1" xmlns:gpxtrx="http://www.garmin.com/xmlschemas/GpxExtensions/v3" xmlns:gpxtpx="http://www.garmin.com/xmlschemas/TrackPointExtension/v1" xmlns:gpxx="http://www.garmin.com/xmlschemas/GpxExtensions/v3" xmlns:trp="http://www.garmin.com/xmlschemas/TripExtensions/v1" xmlns:adv="http://www.garmin.com/xmlschemas/AdventuresExtensions/v1" xmlns:prs="http://www.garmin.com/xmlschemas/PressureExtension/v1" creator="Garmin Desktop App" version="1.1" xsi:schemaLocation="http://www.topografix.com/GPX/1/1 http://www.topografix.com/GPX/1/1/gpx.xsd http://www.garmin.com/xmlschemas/WaypointExtension/v1 http://www8.garmin.com/xmlschemas/WaypointExtensionv1.xsd http://www.garmin.com/xmlschemas/TrackPointExtension/v1 http://www.garmin.com/xmlschemas/TrackPointExtensionv1.xsd http://www.garmin.com/xmlschemas/GpxExtensions/v3 http://www8.garmin.com/xmlschemas/GpxExtensionsv3.xsd http://www.garmin.com/xmlschemas/ActivityExtension/v1 http://www8.garmin.com/xmlschemas/ActivityExtensionv1.xsd http://www.garmin.com/xmlschemas/AdventuresExtensions/v1 http://www8.garmin.com/xmlschemas/AdventuresExtensionv1.xsd http://www.garmin.com/xmlschemas/PressureExtension/v1 http://www.garmin.com/xmlschemas/PressureExtensionv1.xsd http://www.garmin.com/xmlschemas/TripExtensions/v1 http://www.garmin.com/xmlschemas/TripExtensionsv1.xsd">

  <metadata>
    <link href="http://www.garmin.com">
      <text>Garmin International</text>
    </link>
    <time>2013-03-24T15:34:14Z</time>
    <bounds maxlat="47.474717767909169" maxlon="11.473615262657404" minlat="47.444332698360085" minlon="11.42621174454689"/>
  </metadata>

  <trk>
    <name>Torscharte 2013.03.24 001</name>
    <extensions>
      <gpxx:TrackExtension>
        <gpxx:DisplayColor>Red</gpxx:DisplayColor>
      </gpxx:TrackExtension>
    </extensions>
    <trkseg>
      <trkpt lat="47.471735486760736" lon="11.467861253768206">
        <ele>965.301025390625</ele>
        <time>2013-03-24T07:58:58Z</time>
      </trkpt>
      <trkpt lat="47.471727775409818" lon="11.468040458858013">
        <ele>964.8203125</ele>
        <time>2013-03-24T07:59:07Z</time>
      </trkpt>
      <trkpt lat="47.471723584458232" lon="11.467999890446663">
        <ele>964.339599609375</ele>
        <time>2013-03-24T07:59:12Z</time>
      </trkpt>
      <trkpt lat="47.471724422648549" lon="11.46794943138957">
        <ele>965.78173828125</ele>
        <time>2013-03-24T07:59:20Z</time>
      </trkpt>
      <trkpt lat="47.471706485375762" lon="11.467871982604265">
        <ele>963.37841796875</ele>
        <time>2013-03-24T07:59:32Z</time>
      </trkpt>
      <trkpt lat="47.47171369381249" lon="11.467882208526134">
        <ele>959.533203125</ele>
        <time>2013-03-24T07:59:38Z</time>
      </trkpt>
      <trkpt lat="47.47171469964087" lon="11.4678805321455">
        <ele>959.533203125</ele>
        <time>2013-03-24T07:59:39Z</time>
      </trkpt>
      <trkpt lat="47.471716878935695" lon="11.467880113050342">
        <ele>956.16845703125</ele>
        <time>2013-03-24T07:59:45Z</time>
      </trkpt>
      <trkpt lat="47.471715034916997" lon="11.467884974554181">
        <ele>953.284423828125</ele>
        <time>2013-03-24T07:59:52Z</time>
      </trkpt>
      <trkpt lat="47.471715789288282" lon="11.467885058373213">
        <ele>950.400634765625</ele>
        <time>2013-03-24T07:59:59Z</time>
      </trkpt>
      <trkpt lat="47.471716208383441" lon="11.467883130535483">
        <ele>948.95849609375</ele>
        <time>2013-03-24T08:00:03Z</time>
      </trkpt>
      <trkpt lat="47.471718974411488" lon="11.46788296289742">
        <ele>945.593994140625</ele>
        <time>2013-03-24T08:00:21Z</time>
      </trkpt>
      <trkpt lat="47.471730541437864" lon="11.467873910441995">
        <ele>946.07470703125</ele>
        <time>2013-03-24T08:00:28Z</time>
      </trkpt>
      <trkpt lat="47.471707994118333" lon="11.467901822179556">
        <ele>944.152099609375</ele>
        <time>2013-03-24T08:00:52Z</time>
      </trkpt>
      <trkpt lat="47.471730206161737" lon="11.467932583764195">
        <ele>943.190673828125</ele>
        <time>2013-03-24T08:01:06Z</time>
      </trkpt>
      <trkpt lat="47.471725260838866" lon="11.467911629006267">
        <ele>942.2294921875</ele>
        <time>2013-03-24T08:03:14Z</time>
      </trkpt>
      <trkpt lat="47.471648901700974" lon="11.467913556843996">
        <ele>941.26806640625</ele>
        <time>2013-03-24T08:03:21Z</time>
      </trkpt>
      <trkpt lat="47.471379758790135" lon="11.46806862205267">
        <ele>939.825927734375</ele>
        <time>2013-03-24T08:03:41Z</time>
      </trkpt>
      <trkpt lat="47.471129475161433" lon="11.468201391398907">
        <ele>939.34521484375</ele>
        <time>2013-03-24T08:03:59Z</time>
      </trkpt>
      <trkpt lat="47.470887070521712" lon="11.46839895285666">
        <ele>939.825927734375</ele>
        <time>2013-03-24T08:04:18Z</time>
      </trkpt>
      <trkpt lat="47.470805682241917" lon="11.468421835452318">
        <ele>939.825927734375</ele>
        <time>2013-03-24T08:04:27Z</time>
      </trkpt>
      <trkpt lat="47.470761761069298" lon="11.468419823795557">
        <ele>940.306884765625</ele>
        <time>2013-03-24T08:04:34Z</time>
      </trkpt>
      <trkpt lat="47.47060258872807" lon="11.468361401930451">
        <ele>939.825927734375</ele>
        <time>2013-03-24T08:04:45Z</time>
      </trkpt>
      <trkpt lat="47.470436291769147" lon="11.468262327834964">
        <ele>940.787353515625</ele>
        <time>2013-03-24T08:04:58Z</time>
      </trkpt>
      <trkpt lat="47.470360519364476" lon="11.468240451067686">
        <ele>940.787353515625</ele>
        <time>2013-03-24T08:05:08Z</time>
      </trkpt>
      <trkpt lat="47.470362866297364" lon="11.468293089419603">
        <ele>940.787353515625</ele>
        <time>2013-03-24T08:05:19Z</time>
      </trkpt>
      <trkpt lat="47.47036655433476" lon="11.468298872932792">
        <ele>941.26806640625</ele>
        <time>2013-03-24T08:05:37Z</time>
      </trkpt>
      <trkpt lat="47.470397567376494" lon="11.468291077762842">
        <ele>940.787353515625</ele>
        <time>2013-03-24T08:05:41Z</time>
      </trkpt>
      <trkpt lat="47.470592111349106" lon="11.468350505456328">
        <ele>939.825927734375</ele>
        <time>2013-03-24T08:05:55Z</time>
      </trkpt>
      <trkpt lat="47.470825547352433" lon="11.468415297567844">
        <ele>939.34521484375</ele>
        <time>2013-03-24T08:06:10Z</time>
      </trkpt>
      <trkpt lat="47.471048925071955" lon="11.468281941488385">
        <ele>938.86474609375</ele>
        <time>2013-03-24T08:06:27Z</time>
      </trkpt>
      <trkpt lat="47.471273560076952" lon="11.46809846162796">
        <ele>939.34521484375</ele>
        <time>2013-03-24T08:06:45Z</time>
      </trkpt>
      <trkpt lat="47.471298789605498" lon="11.468094354495406">
        <ele>939.34521484375</ele>
        <time>2013-03-24T08:06:47Z</time>
      </trkpt>
      <trkpt lat="47.471322258934379" lon="11.468150597065687">
        <ele>939.34521484375</ele>
        <time>2013-03-24T08:06:52Z</time>
      </trkpt>
      <trkpt lat="47.471134923398495" lon="11.46852258592844">
        <ele>938.86474609375</ele>
        <time>2013-03-24T08:07:13Z</time>
      </trkpt>
      <trkpt lat="47.470962088555098" lon="11.468785107135773">
        <ele>938.384033203125</ele>
        <time>2013-03-24T08:07:30Z</time>
      </trkpt>
      <trkpt lat="47.470747428014874" lon="11.468983590602875">
        <ele>937.9033203125</ele>
        <time>2013-03-24T08:07:48Z</time>
      </trkpt>
      <trkpt lat="47.470512231811881" lon="11.469170087948442">
        <ele>937.9033203125</ele>
        <time>2013-03-24T08:08:07Z</time>
      </trkpt>
      <trkpt lat="47.470297571271658" lon="11.469431603327394">
        <ele>938.384033203125</ele>
        <time>2013-03-24T08:08:26Z</time>
      </trkpt>
      <trkpt lat="47.470125574618578" lon="11.469790348783135">
        <ele>938.384033203125</ele>
        <time>2013-03-24T08:08:47Z</time>
      </trkpt>
      <trkpt lat="47.470064302906394" lon="11.469993693754077">
        <ele>938.384033203125</ele>
        <time>2013-03-24T08:09:00Z</time>
      </trkpt>
      <trkpt lat="47.470050388947129" lon="11.469997549429536">
        <ele>938.384033203125</ele>
        <time>2013-03-24T08:09:09Z</time>
      </trkpt>
      <trkpt lat="47.47002306394279" lon="11.47007055580616">
        <ele>938.86474609375</ele>
        <time>2013-03-24T08:10:18Z</time>
      </trkpt>
      <trkpt lat="47.469989536330104" lon="11.470143813639879">
        <ele>938.86474609375</ele>
        <time>2013-03-24T08:10:23Z</time>
      </trkpt>
      <trkpt lat="47.469885349273682" lon="11.470223944634199">
        <ele>939.34521484375</ele>
        <time>2013-03-24T08:10:33Z</time>
      </trkpt>
      <trkpt lat="47.469686781987548" lon="11.470509180799127">
        <ele>939.34521484375</ele>
        <time>2013-03-24T08:10:54Z</time>
      </trkpt>
      <trkpt lat="47.469514198601246" lon="11.470744209364057">
        <ele>939.825927734375</ele>
        <time>2013-03-24T08:11:13Z</time>
      </trkpt>
      <trkpt lat="47.469382183626294" lon="11.470967922359705">
        <ele>940.306884765625</ele>
        <time>2013-03-24T08:11:30Z</time>
      </trkpt>
      <trkpt lat="47.469278834760189" lon="11.471254667267203">
        <ele>940.306884765625</ele>
        <time>2013-03-24T08:11:48Z</time>
      </trkpt>
      <trkpt lat="47.469192836433649" lon="11.471644090488553">
        <ele>940.306884765625</ele>
        <time>2013-03-24T08:12:11Z</time>
      </trkpt>
      <trkpt lat="47.469112453982234" lon="11.471755066886544">
        <ele>940.787353515625</ele>
        <time>2013-03-24T08:12:22Z</time>
      </trkpt>
      <trkpt lat="47.469004495069385" lon="11.47191708907485">
        <ele>942.2294921875</ele>
        <time>2013-03-24T08:12:36Z</time>
      </trkpt>
      <trkpt lat="47.468913802877069" lon="11.472099479287863">
        <ele>943.67138671875</ele>
        <time>2013-03-24T08:12:51Z</time>
      </trkpt>
      <trkpt lat="47.46879905462265" lon="11.472272565588355">
        <ele>945.593994140625</ele>
        <time>2013-03-24T08:13:07Z</time>
      </trkpt>
      <trkpt lat="47.468700064346194" lon="11.472433833405375">
        <ele>947.5166015625</ele>
        <time>2013-03-24T08:13:21Z</time>
      </trkpt>
      <trkpt lat="47.468618676066399" lon="11.472575655207038">
        <ele>948.477783203125</ele>
        <time>2013-03-24T08:13:34Z</time>
      </trkpt>
      <trkpt lat="47.468526056036353" lon="11.472752345725894">
        <ele>950.881103515625</ele>
        <time>2013-03-24T08:13:49Z</time>
      </trkpt>
      <trkpt lat="47.468426646664739" lon="11.472933227196336">
        <ele>952.322998046875</ele>
        <time>2013-03-24T08:14:04Z</time>
      </trkpt>
      <trkpt lat="47.468287339434028" lon="11.473105391487479">
        <ele>953.76513671875</ele>
        <time>2013-03-24T08:14:21Z</time>
      </trkpt>
      <trkpt lat="47.46819069609046" lon="11.473278645426035">
        <ele>955.20703125</ele>
        <time>2013-03-24T08:14:36Z</time>
      </trkpt>
      <trkpt lat="47.468084413558245" lon="11.473508393391967">
        <ele>957.1298828125</ele>
        <time>2013-03-24T08:14:54Z</time>
      </trkpt>
      <trkpt lat="47.467990703880787" lon="11.473615262657404">
        <ele>959.052490234375</ele>
        <time>2013-03-24T08:15:07Z</time>
      </trkpt>
      <trkpt lat="47.467950554564595" lon="11.473611826077104">
        <ele>959.533203125</ele>
        <time>2013-03-24T08:15:11Z</time>
      </trkpt>
      <trkpt lat="47.467845361679792" lon="11.473501939326525">
        <ele>960.97509765625</ele>
        <time>2013-03-24T08:15:24Z</time>
      </trkpt>
      <trkpt lat="47.467823065817356" lon="11.473328350111842">
        <ele>961.9365234375</ele>
        <time>2013-03-24T08:15:37Z</time>
      </trkpt>
      <trkpt lat="47.467824071645737" lon="11.473085526376963">
        <ele>963.85888671875</ele>
        <time>2013-03-24T08:15:53Z</time>
      </trkpt>
      <trkpt lat="47.467829184606671" lon="11.472881259396672">
        <ele>964.8203125</ele>
        <time>2013-03-24T08:16:07Z</time>
      </trkpt>
      <trkpt lat="47.467845780774951" lon="11.47266031242907">
        <ele>966.742919921875</ele>
        <time>2013-03-24T08:16:22Z</time>
      </trkpt>
      <trkpt lat="47.467879476025701" lon="11.472468534484506">
        <ele>968.184814453125</ele>
        <time>2013-03-24T08:16:36Z</time>
      </trkpt>
      <trkpt lat="47.467906298115849" lon="11.472284886986017">
        <ele>970.107421875</ele>
        <time>2013-03-24T08:16:50Z</time>
      </trkpt>
      <trkpt lat="47.467918703332543" lon="11.47209252230823">
        <ele>971.54931640625</ele>
        <time>2013-03-24T08:17:04Z</time>
      </trkpt>
      <trkpt lat="47.467951728031039" lon="11.471900157630444">
        <ele>973.472412109375</ele>
        <time>2013-03-24T08:17:18Z</time>
      </trkpt>
      <trkpt lat="47.467983746901155" lon="11.471694130450487">
        <ele>973.952880859375</ele>
        <time>2013-03-24T08:17:33Z</time>
      </trkpt>
      <trkpt lat="47.467977376654744" lon="11.471532108262181">
        <ele>976.356201171875</ele>
        <time>2013-03-24T08:17:45Z</time>
      </trkpt>
      <trkpt lat="47.467966144904494" lon="11.471396069973707">
        <ele>976.8369140625</ele>
        <time>2013-03-24T08:17:55Z</time>
      </trkpt>
      <trkpt lat="47.467939825728536" lon="11.471217283979058">
        <ele>978.27880859375</ele>
        <time>2013-03-24T08:18:08Z</time>
      </trkpt>
      <trkpt lat="47.467942759394646" lon="11.471034809947014">
        <ele>979.720703125</ele>
        <time>2013-03-24T08:18:21Z</time>
      </trkpt>
      <trkpt lat="47.467937646433711" lon="11.470893071964383">
        <ele>980.68212890625</ele>
        <time>2013-03-24T08:18:31Z</time>
      </trkpt>
      <trkpt lat="47.467904454097152" lon="11.470685955137014">
        <ele>982.1240234375</ele>
        <time>2013-03-24T08:18:45Z</time>
      </trkpt>
      <trkpt lat="47.467884421348572" lon="11.470509935170412">
        <ele>983.085205078125</ele>
        <time>2013-03-24T08:18:57Z</time>
      </trkpt>
      <trkpt lat="47.467900263145566" lon="11.470318743959069">
        <ele>984.046630859375</ele>
        <time>2013-03-24T08:19:10Z</time>
      </trkpt>
      <trkpt lat="47.467951476573944" lon="11.470034681260586">
        <ele>985.96923828125</ele>
        <time>2013-03-24T08:19:30Z</time>
      </trkpt>
      <trkpt lat="47.467953152954578" lon="11.469932170584798">
        <ele>986.930419921875</ele>
        <time>2013-03-24T08:19:39Z</time>
      </trkpt>
      <trkpt lat="47.467951392754912" lon="11.469801915809512">
        <ele>988.372802734375</ele>
        <time>2013-03-24T08:19:49Z</time>
      </trkpt>
      <trkpt lat="47.467925241217017" lon="11.469619190320373">
        <ele>988.853515625</ele>
        <time>2013-03-24T08:20:02Z</time>
      </trkpt>
      <trkpt lat="47.467968827113509" lon="11.469441996887326">
        <ele>989.814697265625</ele>
        <time>2013-03-24T08:20:14Z</time>
      </trkpt>
      <trkpt lat="47.46806463226676" lon="11.469288691878319">
        <ele>990.77587890625</ele>
        <time>2013-03-24T08:20:27Z</time>
      </trkpt>
      <trkpt lat="47.468144847080112" lon="11.469136727973819">
        <ele>992.69873046875</ele>
        <time>2013-03-24T08:20:39Z</time>
      </trkpt>
      <trkpt lat="47.46819019317627" lon="11.468959534540772">
        <ele>994.140625</ele>
        <time>2013-03-24T08:20:51Z</time>
      </trkpt>
      <trkpt lat="47.468203101307154" lon="11.468738839030266">
        <ele>996.063232421875</ele>
        <time>2013-03-24T08:21:06Z</time>
      </trkpt>
      <trkpt lat="47.468183655291796" lon="11.468533566221595">
        <ele>997.505126953125</ele>
        <time>2013-03-24T08:21:20Z</time>
      </trkpt>
      <trkpt lat="47.468141242861748" lon="11.468312116339803">
        <ele>998.46630859375</ele>
        <time>2013-03-24T08:21:35Z</time>
      </trkpt>
      <trkpt lat="47.468127747997642" lon="11.468081614002585">
        <ele>999.427734375</ele>
        <time>2013-03-24T08:21:50Z</time>
      </trkpt>
      <trkpt lat="47.468108218163252" lon="11.467914814129472">
        <ele>1000.38916015625</ele>
        <time>2013-03-24T08:22:01Z</time>
      </trkpt>
      <trkpt lat="47.468066979199648" lon="11.467697722837329">
        <ele>1001.8310546875</ele>
        <time>2013-03-24T08:22:17Z</time>
      </trkpt>
      <trkpt lat="47.46798399835825" lon="11.467469483613968">
        <ele>1003.753662109375</ele>
        <time>2013-03-24T08:22:34Z</time>
      </trkpt>
      <trkpt lat="47.467859527096152" lon="11.467345682904124">
        <ele>1003.753662109375</ele>
        <time>2013-03-24T08:22:47Z</time>
      </trkpt>
      <trkpt lat="47.467764308676124" lon="11.467269407585263">
        <ele>1004.234619140625</ele>
        <time>2013-03-24T08:22:58Z</time>
      </trkpt>
      <trkpt lat="47.467645201832056" lon="11.467240154743195">
        <ele>1004.234619140625</ele>
        <time>2013-03-24T08:23:09Z</time>
      </trkpt>
      <trkpt lat="47.467541014775634" lon="11.467200592160225">
        <ele>1004.715087890625</ele>
        <time>2013-03-24T08:23:19Z</time>
      </trkpt>
      <trkpt lat="47.467422662302852" lon="11.46711434237659">
        <ele>1005.676513671875</ele>
        <time>2013-03-24T08:23:32Z</time>
      </trkpt>
      <trkpt lat="47.467270027846098" lon="11.466982997953892">
        <ele>1005.676513671875</ele>
        <time>2013-03-24T08:23:48Z</time>
      </trkpt>
      <trkpt lat="47.467212192714214" lon="11.466786945238709">
        <ele>1006.6376953125</ele>
        <time>2013-03-24T08:24:01Z</time>
      </trkpt>
      <trkpt lat="47.467146310955286" lon="11.466652080416679">
        <ele>1006.6376953125</ele>
        <time>2013-03-24T08:24:11Z</time>
      </trkpt>
      <trkpt lat="47.466973643749952" lon="11.466582678258419">
        <ele>1007.59912109375</ele>
        <time>2013-03-24T08:24:26Z</time>
      </trkpt>
      <trkpt lat="47.4668347556144" lon="11.466622995212674">
        <ele>1007.59912109375</ele>
        <time>2013-03-24T08:24:38Z</time>
      </trkpt>
      <trkpt lat="47.466681031510234" lon="11.466643363237381">
        <ele>1008.079833984375</ele>
        <time>2013-03-24T08:24:50Z</time>
      </trkpt>
      <trkpt lat="47.466538706794381" lon="11.466633975505829">
        <ele>1008.079833984375</ele>
        <time>2013-03-24T08:25:01Z</time>
      </trkpt>
      <trkpt lat="47.466417504474521" lon="11.46657002158463">
        <ele>1008.560302734375</ele>
        <time>2013-03-24T08:25:14Z</time>
      </trkpt>
      <trkpt lat="47.466323208063841" lon="11.466475808992982">
        <ele>1009.521728515625</ele>
        <time>2013-03-24T08:25:27Z</time>
      </trkpt>
      <trkpt lat="47.46629579924047" lon="11.46632912568748">
        <ele>1010.48291015625</ele>
        <time>2013-03-24T08:25:40Z</time>
      </trkpt>
      <trkpt lat="47.46627283282578" lon="11.466119326651096">
        <ele>1012.405517578125</ele>
        <time>2013-03-24T08:25:56Z</time>
      </trkpt>
      <trkpt lat="47.466256404295564" lon="11.465936182066798">
        <ele>1012.88623046875</ele>
        <time>2013-03-24T08:26:08Z</time>
      </trkpt>
      <trkpt lat="47.466246681287885" lon="11.465896116569638">
        <ele>1013.847412109375</ele>
        <time>2013-03-24T08:26:11Z</time>
      </trkpt>
      <trkpt lat="47.466119192540646" lon="11.465815650299191">
        <ele>1013.847412109375</ele>
        <time>2013-03-24T08:26:23Z</time>
      </trkpt>
      <trkpt lat="47.465953985229135" lon="11.465882118791342">
        <ele>1014.808837890625</ele>
        <time>2013-03-24T08:26:38Z</time>
      </trkpt>
      <trkpt lat="47.465774025768042" lon="11.465960992500186">
        <ele>1013.847412109375</ele>
        <time>2013-03-24T08:26:53Z</time>
      </trkpt>
      <trkpt lat="47.465611416846514" lon="11.466015139594674">
        <ele>1013.366943359375</ele>
        <time>2013-03-24T08:27:06Z</time>
      </trkpt>
      <trkpt lat="47.465458866208792" lon="11.46603743545711">
        <ele>1014.328125</ele>
        <time>2013-03-24T08:27:19Z</time>
      </trkpt>
      <trkpt lat="47.465287121012807" lon="11.465970380231738">
        <ele>1014.808837890625</ele>
        <time>2013-03-24T08:27:35Z</time>
      </trkpt>
      <trkpt lat="47.4651147890836" lon="11.465877089649439">
        <ele>1014.808837890625</ele>
        <time>2013-03-24T08:27:52Z</time>
      </trkpt>
      <trkpt lat="47.464989982545376" lon="11.465765526518226">
        <ele>1015.770263671875</ele>
        <time>2013-03-24T08:28:05Z</time>
      </trkpt>
      <trkpt lat="47.464861571788788" lon="11.465658070519567">
        <ele>1015.770263671875</ele>
        <time>2013-03-24T08:28:19Z</time>
      </trkpt>
      <trkpt lat="47.464762413874269" lon="11.465632589533925">
        <ele>1016.250732421875</ele>
        <time>2013-03-24T08:28:28Z</time>
      </trkpt>
      <trkpt lat="47.464663255959749" lon="11.465575844049454">
        <ele>1016.250732421875</ele>
        <time>2013-03-24T08:28:39Z</time>
      </trkpt>
      <trkpt lat="47.464538030326366" lon="11.465543154627085">
        <ele>1016.7314453125</ele>
        <time>2013-03-24T08:28:50Z</time>
      </trkpt>
      <trkpt lat="47.46442386880517" lon="11.465496635064483">
        <ele>1016.7314453125</ele>
        <time>2013-03-24T08:29:01Z</time>
      </trkpt>
      <trkpt lat="47.464293781667948" lon="11.465471824631095">
        <ele>1017.212158203125</ele>
        <time>2013-03-24T08:29:13Z</time>
      </trkpt>
      <trkpt lat="47.464154222980142" lon="11.465488923713565">
        <ele>1017.212158203125</ele>
        <time>2013-03-24T08:29:24Z</time>
      </trkpt>
      <trkpt lat="47.463992452248931" lon="11.465523624792695">
        <ele>1017.212158203125</ele>
        <time>2013-03-24T08:29:36Z</time>
      </trkpt>
      <trkpt lat="47.463848954066634" lon="11.46558154374361">
        <ele>1017.692626953125</ele>
        <time>2013-03-24T08:29:47Z</time>
      </trkpt>
      <trkpt lat="47.463674442842603" lon="11.465516248717904">
        <ele>1017.692626953125</ele>
        <time>2013-03-24T08:30:02Z</time>
      </trkpt>
      <trkpt lat="47.463613841682673" lon="11.465441817417741">
        <ele>1018.654052734375</ele>
        <time>2013-03-24T08:30:12Z</time>
      </trkpt>
      <trkpt lat="47.463459363207221" lon="11.465362356975675">
        <ele>1019.134765625</ele>
        <time>2013-03-24T08:30:27Z</time>
      </trkpt>
      <trkpt lat="47.463319636881351" lon="11.465275352820754">
        <ele>1018.654052734375</ele>
        <time>2013-03-24T08:30:40Z</time>
      </trkpt>
      <trkpt lat="47.463230788707733" lon="11.46511634811759">
        <ele>1019.615478515625</ele>
        <time>2013-03-24T08:30:52Z</time>
      </trkpt>
      <trkpt lat="47.463097684085369" lon="11.465018028393388">
        <ele>1020.09619140625</ele>
        <time>2013-03-24T08:31:05Z</time>
      </trkpt>
      <trkpt lat="47.462958544492722" lon="11.464981818571687">
        <ele>1021.0576171875</ele>
        <time>2013-03-24T08:31:17Z</time>
      </trkpt>
      <trkpt lat="47.462845304980874" lon="11.464900933206081">
        <ele>1021.5380859375</ele>
        <time>2013-03-24T08:31:30Z</time>
      </trkpt>
      <trkpt lat="47.462732065469027" lon="11.464855251833797">
        <ele>1022.49951171875</ele>
        <time>2013-03-24T08:31:41Z</time>
      </trkpt>
      <trkpt lat="47.462509190663695" lon="11.464816946536303">
        <ele>1023.94140625</ele>
        <time>2013-03-24T08:32:00Z</time>
      </trkpt>
      <trkpt lat="47.462369715794921" lon="11.464823065325618">
        <ele>1024.422119140625</ele>
        <time>2013-03-24T08:32:13Z</time>
      </trkpt>
      <trkpt lat="47.462206771597266" lon="11.464867908507586">
        <ele>1025.38330078125</ele>
        <time>2013-03-24T08:32:27Z</time>
      </trkpt>
      <trkpt lat="47.462043575942516" lon="11.464915769174695">
        <ele>1026.3447265625</ele>
        <time>2013-03-24T08:32:42Z</time>
      </trkpt>
      <trkpt lat="47.46186981908977" lon="11.464948374778032">
        <ele>1027.78662109375</ele>
        <time>2013-03-24T08:32:58Z</time>
      </trkpt>
      <trkpt lat="47.461738558486104" lon="11.46496195346117">
        <ele>1028.748046875</ele>
        <time>2013-03-24T08:33:11Z</time>
      </trkpt>
      <trkpt lat="47.461595647037029" lon="11.464954074472189">
        <ele>1029.709228515625</ele>
        <time>2013-03-24T08:33:25Z</time>
      </trkpt>
      <trkpt lat="47.461507972329855" lon="11.464953487738967">
        <ele>1030.18994140625</ele>
        <time>2013-03-24T08:33:35Z</time>
      </trkpt>
      <trkpt lat="47.461337819695473" lon="11.464901771396399">
        <ele>1032.112548828125</ele>
        <time>2013-03-24T08:33:52Z</time>
      </trkpt>
      <trkpt lat="47.461177138611674" lon="11.464835470542312">
        <ele>1033.07373046875</ele>
        <time>2013-03-24T08:34:09Z</time>
      </trkpt>
      <trkpt lat="47.461023833602667" lon="11.464752489700913">
        <ele>1033.554443359375</ele>
        <time>2013-03-24T08:34:25Z</time>
      </trkpt>
      <trkpt lat="47.46088083833456" lon="11.464636819437146">
        <ele>1034.99658203125</ele>
        <time>2013-03-24T08:34:42Z</time>
      </trkpt>
      <trkpt lat="47.46078017167747" lon="11.464531794190407">
        <ele>1035.47705078125</ele>
        <time>2013-03-24T08:34:55Z</time>
      </trkpt>
      <trkpt lat="47.460657209157944" lon="11.464357450604439">
        <ele>1036.438720703125</ele>
        <time>2013-03-24T08:35:12Z</time>
      </trkpt>
      <trkpt lat="47.460566433146596" lon="11.464163828641176">
        <ele>1038.361328125</ele>
        <time>2013-03-24T08:35:28Z</time>
      </trkpt>
      <trkpt lat="47.460474148392677" lon="11.463948916643858">
        <ele>1038.842041015625</ele>
        <time>2013-03-24T08:35:45Z</time>
      </trkpt>
      <trkpt lat="47.460387060418725" lon="11.463769963011146">
        <ele>1039.322509765625</ele>
        <time>2013-03-24T08:35:59Z</time>
      </trkpt>
      <trkpt lat="47.460255548357964" lon="11.46368664689362">
        <ele>1040.764404296875</ele>
        <time>2013-03-24T08:36:13Z</time>
      </trkpt>
      <trkpt lat="47.460107859224081" lon="11.463647084310651">
        <ele>1042.687255859375</ele>
        <time>2013-03-24T08:36:29Z</time>
      </trkpt>
      <trkpt lat="47.459999984130263" lon="11.46353661082685">
        <ele>1043.6484375</ele>
        <time>2013-03-24T08:36:43Z</time>
      </trkpt>
      <trkpt lat="47.459896970540285" lon="11.46335237659514">
        <ele>1044.129150390625</ele>
        <time>2013-03-24T08:36:59Z</time>
      </trkpt>
      <trkpt lat="47.459786413237453" lon="11.46318381652236">
        <ele>1044.609619140625</ele>
        <time>2013-03-24T08:37:14Z</time>
      </trkpt>
      <trkpt lat="47.459647273644805" lon="11.463105361908674">
        <ele>1045.571044921875</ele>
        <time>2013-03-24T08:37:28Z</time>
      </trkpt>
      <trkpt lat="47.459495309740305" lon="11.463156323879957">
        <ele>1046.0517578125</ele>
        <time>2013-03-24T08:37:42Z</time>
      </trkpt>
      <trkpt lat="47.45935826562345" lon="11.463268725201488">
        <ele>1047.012939453125</ele>
        <time>2013-03-24T08:37:57Z</time>
      </trkpt>
      <trkpt lat="47.45924049988389" lon="11.46345010958612">
        <ele>1047.49365234375</ele>
        <time>2013-03-24T08:38:13Z</time>
      </trkpt>
      <trkpt lat="47.459123153239489" lon="11.463621938601136">
        <ele>1048.454833984375</ele>
        <time>2013-03-24T08:38:29Z</time>
      </trkpt>
      <trkpt lat="47.458972195163369" lon="11.463746912777424">
        <ele>1048.935546875</ele>
        <time>2013-03-24T08:38:44Z</time>
      </trkpt>
      <trkpt lat="47.458787960931659" lon="11.463832575827837">
        <ele>1049.89697265625</ele>
        <time>2013-03-24T08:39:01Z</time>
      </trkpt>
      <trkpt lat="47.458612779155374" lon="11.463835090398788">
        <ele>1050.377685546875</ele>
        <time>2013-03-24T08:39:17Z</time>
      </trkpt>
      <trkpt lat="47.458486715331674" lon="11.463789576664567">
        <ele>1050.858154296875</ele>
        <time>2013-03-24T08:39:30Z</time>
      </trkpt>
      <trkpt lat="47.458375236019492" lon="11.463659070432186">
        <ele>1051.3388671875</ele>
        <time>2013-03-24T08:39:45Z</time>
      </trkpt>
      <trkpt lat="47.458293009549379" lon="11.463530072942376">
        <ele>1051.819580078125</ele>
        <time>2013-03-24T08:39:57Z</time>
      </trkpt>
      <trkpt lat="47.458176333457232" lon="11.463463772088289">
        <ele>1052.30029296875</ele>
        <time>2013-03-24T08:40:09Z</time>
      </trkpt>
      <trkpt lat="47.458046078681946" lon="11.463522110134363">
        <ele>1052.30029296875</ele>
        <time>2013-03-24T08:40:22Z</time>
      </trkpt>
      <trkpt lat="47.457927642390132" lon="11.463588075712323">
        <ele>1053.742431640625</ele>
        <time>2013-03-24T08:40:35Z</time>
      </trkpt>
      <trkpt lat="47.457814067602158" lon="11.463673571124673">
        <ele>1055.184326171875</ele>
        <time>2013-03-24T08:40:48Z</time>
      </trkpt>
      <trkpt lat="47.457693200558424" lon="11.463728724047542">
        <ele>1056.626220703125</ele>
        <time>2013-03-24T08:41:00Z</time>
      </trkpt>
      <trkpt lat="47.457554396241903" lon="11.463728556409478">
        <ele>1057.587646484375</ele>
        <time>2013-03-24T08:41:14Z</time>
      </trkpt>
      <trkpt lat="47.457449790090322" lon="11.463780188933015">
        <ele>1059.51025390625</ele>
        <time>2013-03-24T08:41:25Z</time>
      </trkpt>
      <trkpt lat="47.457318613305688" lon="11.463838694617152">
        <ele>1059.99072265625</ele>
        <time>2013-03-24T08:41:39Z</time>
      </trkpt>
      <trkpt lat="47.457231860607862" lon="11.463858056813478">
        <ele>1060.9521484375</ele>
        <time>2013-03-24T08:41:48Z</time>
      </trkpt>
      <trkpt lat="47.4571384023875" lon="11.463894853368402">
        <ele>1061.91357421875</ele>
        <time>2013-03-24T08:41:58Z</time>
      </trkpt>
      <trkpt lat="47.457033125683665" lon="11.463953442871571">
        <ele>1063.35546875</ele>
        <time>2013-03-24T08:42:09Z</time>
      </trkpt>
      <trkpt lat="47.456909660249949" lon="11.463992418721318">
        <ele>1064.316650390625</ele>
        <time>2013-03-24T08:42:23Z</time>
      </trkpt>
      <trkpt lat="47.45674554258585" lon="11.464016726240516">
        <ele>1065.7587890625</ele>
        <time>2013-03-24T08:42:41Z</time>
      </trkpt>
      <trkpt lat="47.456682929769158" lon="11.463937601074576">
        <ele>1066.719970703125</ele>
        <time>2013-03-24T08:42:51Z</time>
      </trkpt>
      <trkpt lat="47.456704638898373" lon="11.463841712102294">
        <ele>1067.68115234375</ele>
        <time>2013-03-24T08:42:58Z</time>
      </trkpt>
      <trkpt lat="47.456815280020237" lon="11.463684132322669">
        <ele>1068.642822265625</ele>
        <time>2013-03-24T08:43:13Z</time>
      </trkpt>
      <trkpt lat="47.456920640543103" lon="11.463565276935697">
        <ele>1069.604248046875</ele>
        <time>2013-03-24T08:43:26Z</time>
      </trkpt>
      <trkpt lat="47.456978978589177" lon="11.463420353829861">
        <ele>1070.084716796875</ele>
        <time>2013-03-24T08:43:37Z</time>
      </trkpt>
      <trkpt lat="47.457040753215551" lon="11.463265959173441">
        <ele>1070.5654296875</ele>
        <time>2013-03-24T08:43:49Z</time>
      </trkpt>
      <trkpt lat="47.457117028534412" lon="11.463126819580793">
        <ele>1071.046142578125</ele>
        <time>2013-03-24T08:44:01Z</time>
      </trkpt>
      <trkpt lat="47.457232614979148" lon="11.462899334728718">
        <ele>1072.488037109375</ele>
        <time>2013-03-24T08:44:19Z</time>
      </trkpt>
      <trkpt lat="47.457340657711029" lon="11.462689619511366">
        <ele>1073.449462890625</ele>
        <time>2013-03-24T08:44:36Z</time>
      </trkpt>
      <trkpt lat="47.456936482340097" lon="11.462589874863625">
        <ele>1083.062255859375</ele>
        <time>2013-03-24T09:31:55Z</time>
      </trkpt>
      <trkpt lat="47.45692290365696" lon="11.462698671966791">
        <ele>1081.620361328125</ele>
        <time>2013-03-24T09:32:04Z</time>
      </trkpt>
      <trkpt lat="47.456864481791854" lon="11.462814174592495">
        <ele>1081.620361328125</ele>
        <time>2013-03-24T09:32:14Z</time>
      </trkpt>
      <trkpt lat="47.456885604187846" lon="11.462796991690993">
        <ele>1081.620361328125</ele>
        <time>2013-03-24T09:32:21Z</time>
      </trkpt>
      <trkpt lat="47.456891471520066" lon="11.462812665849924">
        <ele>1081.620361328125</ele>
        <time>2013-03-24T09:32:30Z</time>
      </trkpt>
      <trkpt lat="47.456863643601537" lon="11.462823729962111">
        <ele>1081.620361328125</ele>
        <time>2013-03-24T09:32:33Z</time>
      </trkpt>
      <trkpt lat="47.456691563129425" lon="11.462863627821207">
        <ele>1083.062255859375</ele>
        <time>2013-03-24T09:32:48Z</time>
      </trkpt>
      <trkpt lat="47.4566048104316" lon="11.462876619771123">
        <ele>1083.54296875</ele>
        <time>2013-03-24T09:32:56Z</time>
      </trkpt>
      <trkpt lat="47.456508921459317" lon="11.462904028594494">
        <ele>1084.504638671875</ele>
        <time>2013-03-24T09:33:05Z</time>
      </trkpt>
      <trkpt lat="47.456382857635617" lon="11.462949961423874">
        <ele>1084.9853515625</ele>
        <time>2013-03-24T09:33:17Z</time>
      </trkpt>
      <trkpt lat="47.456217063590884" lon="11.462975274771452">
        <ele>1086.42724609375</ele>
        <time>2013-03-24T09:33:32Z</time>
      </trkpt>
      <trkpt lat="47.456089574843645" lon="11.462985333055258">
        <ele>1087.388427734375</ele>
        <time>2013-03-24T09:33:44Z</time>
      </trkpt>
      <trkpt lat="47.455945406109095" lon="11.462980723008513">
        <ele>1088.349853515625</ele>
        <time>2013-03-24T09:33:58Z</time>
      </trkpt>
      <trkpt lat="47.455800902098417" lon="11.462967479601502">
        <ele>1089.791748046875</ele>
        <time>2013-03-24T09:34:12Z</time>
      </trkpt>
      <trkpt lat="47.455694368109107" lon="11.4629693236202">
        <ele>1090.7529296875</ele>
        <time>2013-03-24T09:34:23Z</time>
      </trkpt>
      <trkpt lat="47.455553133040667" lon="11.462950380519032">
        <ele>1092.195068359375</ele>
        <time>2013-03-24T09:34:37Z</time>
      </trkpt>
      <trkpt lat="47.455421704798937" lon="11.462937137112021">
        <ele>1093.15625</ele>
        <time>2013-03-24T09:34:50Z</time>
      </trkpt>
      <trkpt lat="47.455260185524821" lon="11.462920540943742">
        <ele>1094.59814453125</ele>
        <time>2013-03-24T09:35:06Z</time>
      </trkpt>
      <trkpt lat="47.45510914362967" lon="11.46287402138114">
        <ele>1096.040283203125</ele>
        <time>2013-03-24T09:35:21Z</time>
      </trkpt>
      <trkpt lat="47.4549918808043" lon="11.46281342022121">
        <ele>1097.482177734375</ele>
        <time>2013-03-24T09:35:33Z</time>
      </trkpt>
      <trkpt lat="47.454840000718832" lon="11.462764553725719">
        <ele>1098.924072265625</ele>
        <time>2013-03-24T09:35:48Z</time>
      </trkpt>
      <trkpt lat="47.454727850854397" lon="11.462725242599845">
        <ele>1099.40478515625</ele>
        <time>2013-03-24T09:35:59Z</time>
      </trkpt>
      <trkpt lat="47.45456482283771" lon="11.462667156010866">
        <ele>1100.846923828125</ele>
        <time>2013-03-24T09:36:15Z</time>
      </trkpt>
      <trkpt lat="47.454457450658083" lon="11.462598256766796">
        <ele>1101.808349609375</ele>
        <time>2013-03-24T09:36:27Z</time>
      </trkpt>
      <trkpt lat="47.454313281923532" lon="11.462475629523396">
        <ele>1103.250244140625</ele>
        <time>2013-03-24T09:36:43Z</time>
      </trkpt>
      <trkpt lat="47.454188475385308" lon="11.462366497144103">
        <ele>1103.250244140625</ele>
        <time>2013-03-24T09:36:57Z</time>
      </trkpt>
      <trkpt lat="47.454062914475799" lon="11.462242025882006">
        <ele>1104.692138671875</ele>
        <time>2013-03-24T09:37:12Z</time>
      </trkpt>
      <trkpt lat="47.454044977203012" lon="11.462229872122407">
        <ele>1104.692138671875</ele>
        <time>2013-03-24T09:37:21Z</time>
      </trkpt>
      <trkpt lat="47.453892761841416" lon="11.462156614288688">
        <ele>1106.61474609375</ele>
        <time>2013-03-24T09:37:37Z</time>
      </trkpt>
      <trkpt lat="47.453760076314211" lon="11.462022420018911">
        <ele>1107.095458984375</ele>
        <time>2013-03-24T09:37:52Z</time>
      </trkpt>
      <trkpt lat="47.453664438799024" lon="11.461884286254644">
        <ele>1108.056884765625</ele>
        <time>2013-03-24T09:38:05Z</time>
      </trkpt>
      <trkpt lat="47.45355287566781" lon="11.461766352877021">
        <ele>1109.979248046875</ele>
        <time>2013-03-24T09:38:19Z</time>
      </trkpt>
      <trkpt lat="47.453527897596359" lon="11.461748080328107">
        <ele>1109.979248046875</ele>
        <time>2013-03-24T09:38:22Z</time>
      </trkpt>
      <trkpt lat="47.453407617285848" lon="11.461715307086706">
        <ele>1111.42138671875</ele>
        <time>2013-03-24T09:38:34Z</time>
      </trkpt>
      <trkpt lat="47.453309716656804" lon="11.461686640977859">
        <ele>1111.42138671875</ele>
        <time>2013-03-24T09:38:44Z</time>
      </trkpt>
      <trkpt lat="47.45320544578135" lon="11.461659567430615">
        <ele>1111.902099609375</ele>
        <time>2013-03-24T09:38:55Z</time>
      </trkpt>
      <trkpt lat="47.453102599829435" lon="11.461602319031954">
        <ele>1113.824462890625</ele>
        <time>2013-03-24T09:39:08Z</time>
      </trkpt>
      <trkpt lat="47.453040657564998" lon="11.46154741756618">
        <ele>1113.824462890625</ele>
        <time>2013-03-24T09:39:16Z</time>
      </trkpt>
      <trkpt lat="47.452939487993717" lon="11.461478602141142">
        <ele>1114.30517578125</ele>
        <time>2013-03-24T09:39:31Z</time>
      </trkpt>
      <trkpt lat="47.452833373099566" lon="11.46138665266335">
        <ele>1115.2666015625</ele>
        <time>2013-03-24T09:39:44Z</time>
      </trkpt>
      <trkpt lat="47.452747710049152" lon="11.461302414536476">
        <ele>1116.22802734375</ele>
        <time>2013-03-24T09:39:55Z</time>
      </trkpt>
      <trkpt lat="47.452637488022447" lon="11.461230330169201">
        <ele>1116.708740234375</ele>
        <time>2013-03-24T09:40:07Z</time>
      </trkpt>
      <trkpt lat="47.4525086581707" lon="11.461178865283728">
        <ele>1118.63134765625</ele>
        <time>2013-03-24T09:40:19Z</time>
      </trkpt>
      <trkpt lat="47.452393574640155" lon="11.461147014051676">
        <ele>1118.63134765625</ele>
        <time>2013-03-24T09:40:29Z</time>
      </trkpt>
      <trkpt lat="47.452293746173382" lon="11.461107032373548">
        <ele>1119.112060546875</ele>
        <time>2013-03-24T09:40:39Z</time>
      </trkpt>
      <trkpt lat="47.452143123373389" lon="11.461028242483735">
        <ele>1120.553955078125</ele>
        <time>2013-03-24T09:40:55Z</time>
      </trkpt>
      <trkpt lat="47.451987806707621" lon="11.460979795083404">
        <ele>1121.51513671875</ele>
        <time>2013-03-24T09:41:09Z</time>
      </trkpt>
      <trkpt lat="47.45182360522449" lon="11.460916260257363">
        <ele>1122.957275390625</ele>
        <time>2013-03-24T09:41:23Z</time>
      </trkpt>
      <trkpt lat="47.451726878061891" lon="11.460832357406616">
        <ele>1123.43798828125</ele>
        <time>2013-03-24T09:41:35Z</time>
      </trkpt>
      <trkpt lat="47.451602658256888" lon="11.460749292746186">
        <ele>1124.399169921875</ele>
        <time>2013-03-24T09:41:48Z</time>
      </trkpt>
      <trkpt lat="47.451503584161401" lon="11.460682153701782">
        <ele>1125.3603515625</ele>
        <time>2013-03-24T09:41:58Z</time>
      </trkpt>
      <trkpt lat="47.451385902240872" lon="11.460607890039682">
        <ele>1126.32177734375</ele>
        <time>2013-03-24T09:42:10Z</time>
      </trkpt>
      <trkpt lat="47.451265202835202" lon="11.460528764873743">
        <ele>1127.283203125</ele>
        <time>2013-03-24T09:42:21Z</time>
      </trkpt>
      <trkpt lat="47.451156070455909" lon="11.460467157885432">
        <ele>1128.244384765625</ele>
        <time>2013-03-24T09:42:29Z</time>
      </trkpt>
      <trkpt lat="47.450981056317687" lon="11.460347548127174">
        <ele>1128.244384765625</ele>
        <time>2013-03-24T09:42:43Z</time>
      </trkpt>
      <trkpt lat="47.450883910059929" lon="11.460302453488111">
        <ele>1129.20556640625</ele>
        <time>2013-03-24T09:42:50Z</time>
      </trkpt>
      <trkpt lat="47.450794810429215" lon="11.460271859541535">
        <ele>1129.686279296875</ele>
        <time>2013-03-24T09:42:56Z</time>
      </trkpt>
      <trkpt lat="47.450673189014196" lon="11.46017680875957">
        <ele>1130.1669921875</ele>
        <time>2013-03-24T09:43:07Z</time>
      </trkpt>
      <trkpt lat="47.450616108253598" lon="11.46014261059463">
        <ele>1130.647705078125</ele>
        <time>2013-03-24T09:43:11Z</time>
      </trkpt>
      <trkpt lat="47.450563386082649" lon="11.460103467106819">
        <ele>1131.12841796875</ele>
        <time>2013-03-24T09:43:15Z</time>
      </trkpt>
      <trkpt lat="47.450408153235912" lon="11.459953347221017">
        <ele>1131.12841796875</ele>
        <time>2013-03-24T09:43:29Z</time>
      </trkpt>
      <trkpt lat="47.450349144637585" lon="11.459828373044729">
        <ele>1131.60888671875</ele>
        <time>2013-03-24T09:43:38Z</time>
      </trkpt>
      <trkpt lat="47.450232049450278" lon="11.459655286744237">
        <ele>1132.08984375</ele>
        <time>2013-03-24T09:43:52Z</time>
      </trkpt>
      <trkpt lat="47.450168430805206" lon="11.459499718621373">
        <ele>1133.53173828125</ele>
        <time>2013-03-24T09:44:04Z</time>
      </trkpt>
      <trkpt lat="47.450148649513721" lon="11.45935395732522">
        <ele>1134.4931640625</ele>
        <time>2013-03-24T09:44:15Z</time>
      </trkpt>
      <trkpt lat="47.450035326182842" lon="11.45923082716763">
        <ele>1135.93505859375</ele>
        <time>2013-03-24T09:44:29Z</time>
      </trkpt>
      <trkpt lat="47.449924014508724" lon="11.459141476079822">
        <ele>1136.415771484375</ele>
        <time>2013-03-24T09:44:40Z</time>
      </trkpt>
      <trkpt lat="47.449800968170166" lon="11.459053214639425">
        <ele>1137.857666015625</ele>
        <time>2013-03-24T09:44:51Z</time>
      </trkpt>
      <trkpt lat="47.449643723666668" lon="11.458983477205038">
        <ele>1139.299560546875</ele>
        <time>2013-03-24T09:45:04Z</time>
      </trkpt>
      <trkpt lat="47.449472229927778" lon="11.458898149430752">
        <ele>1140.741455078125</ele>
        <time>2013-03-24T09:45:18Z</time>
      </trkpt>
      <trkpt lat="47.449339712038636" lon="11.458837883546948">
        <ele>1141.702880859375</ele>
        <time>2013-03-24T09:45:30Z</time>
      </trkpt>
      <trkpt lat="47.449191436171532" lon="11.458791783079505">
        <ele>1143.144775390625</ele>
        <time>2013-03-24T09:45:42Z</time>
      </trkpt>
      <trkpt lat="47.449060846120119" lon="11.458756495267153">
        <ele>1144.586669921875</ele>
        <time>2013-03-24T09:45:53Z</time>
      </trkpt>
      <trkpt lat="47.448935620486736" lon="11.458704778924584">
        <ele>1145.548095703125</ele>
        <time>2013-03-24T09:46:05Z</time>
      </trkpt>
      <trkpt lat="47.448874851688743" lon="11.458647111430764">
        <ele>1146.509521484375</ele>
        <time>2013-03-24T09:46:12Z</time>
      </trkpt>
      <trkpt lat="47.44870369322598" lon="11.458581816405058">
        <ele>1148.43212890625</ele>
        <time>2013-03-24T09:46:27Z</time>
      </trkpt>
      <trkpt lat="47.448556507006288" lon="11.458523059263825">
        <ele>1149.874267578125</ele>
        <time>2013-03-24T09:46:40Z</time>
      </trkpt>
      <trkpt lat="47.44839683175087" lon="11.458456087857485">
        <ele>1150.83544921875</ele>
        <time>2013-03-24T09:46:53Z</time>
      </trkpt>
      <trkpt lat="47.448280490934849" lon="11.458410657942295">
        <ele>1152.27734375</ele>
        <time>2013-03-24T09:47:03Z</time>
      </trkpt>
      <trkpt lat="47.448160210624337" lon="11.458368664607406">
        <ele>1153.23876953125</ele>
        <time>2013-03-24T09:47:13Z</time>
      </trkpt>
      <trkpt lat="47.448019897565246" lon="11.458307895809412">
        <ele>1154.6806640625</ele>
        <time>2013-03-24T09:47:25Z</time>
      </trkpt>
      <trkpt lat="47.447881093248725" lon="11.458254670724273">
        <ele>1155.64208984375</ele>
        <time>2013-03-24T09:47:36Z</time>
      </trkpt>
      <trkpt lat="47.447764752432704" lon="11.458231369033456">
        <ele>1157.083984375</ele>
        <time>2013-03-24T09:47:45Z</time>
      </trkpt>
      <trkpt lat="47.447639191523194" lon="11.458212342113256">
        <ele>1158.04541015625</ele>
        <time>2013-03-24T09:47:55Z</time>
      </trkpt>
      <trkpt lat="47.447486473247409" lon="11.458197925239801">
        <ele>1159.006591796875</ele>
        <time>2013-03-24T09:48:06Z</time>
      </trkpt>
      <trkpt lat="47.447317326441407" lon="11.45816657692194">
        <ele>1159.4873046875</ele>
        <time>2013-03-24T09:48:19Z</time>
      </trkpt>
      <trkpt lat="47.447163015604019" lon="11.458127768710256">
        <ele>1160.92919921875</ele>
        <time>2013-03-24T09:48:31Z</time>
      </trkpt>
      <trkpt lat="47.447036867961287" lon="11.458108071237803">
        <ele>1161.890625</ele>
        <time>2013-03-24T09:48:41Z</time>
      </trkpt>
      <trkpt lat="47.44697442278266" lon="11.458103712648153">
        <ele>1161.409912109375</ele>
        <time>2013-03-24T09:48:50Z</time>
      </trkpt>
      <trkpt lat="47.446834864094853" lon="11.458132965490222">
        <ele>1161.890625</ele>
        <time>2013-03-24T09:49:18Z</time>
      </trkpt>
      <trkpt lat="47.446707710623741" lon="11.45819297991693">
        <ele>1161.890625</ele>
        <time>2013-03-24T09:49:54Z</time>
      </trkpt>
      <trkpt lat="47.446698909625411" lon="11.45819054916501">
        <ele>1161.409912109375</ele>
        <time>2013-03-24T09:50:02Z</time>
      </trkpt>
      <trkpt lat="47.446688935160637" lon="11.458201445639133">
        <ele>1161.409912109375</ele>
        <time>2013-03-24T09:50:17Z</time>
      </trkpt>
      <trkpt lat="47.446631100028753" lon="11.458252491429448">
        <ele>1159.4873046875</ele>
        <time>2013-03-24T09:51:08Z</time>
      </trkpt>
      <trkpt lat="47.44656010530889" lon="11.458255844190717">
        <ele>1158.04541015625</ele>
        <time>2013-03-24T09:51:43Z</time>
      </trkpt>
      <trkpt lat="47.446509394794703" lon="11.458241511136293">
        <ele>1158.04541015625</ele>
        <time>2013-03-24T09:51:48Z</time>
      </trkpt>
      <trkpt lat="47.44643253274262" lon="11.458213850855827">
        <ele>1158.52587890625</ele>
        <time>2013-03-24T09:51:55Z</time>
      </trkpt>
      <trkpt lat="47.446309151127934" lon="11.458160877227783">
        <ele>1159.9677734375</ele>
        <time>2013-03-24T09:52:06Z</time>
      </trkpt>
      <trkpt lat="47.446193983778358" lon="11.458107065409422">
        <ele>1161.409912109375</ele>
        <time>2013-03-24T09:52:17Z</time>
      </trkpt>
      <trkpt lat="47.44600891135633" lon="11.45804881118238">
        <ele>1162.37109375</ele>
        <time>2013-03-24T09:52:29Z</time>
      </trkpt>
      <trkpt lat="47.445666845887899" lon="11.458057863637805">
        <ele>1162.851806640625</ele>
        <time>2013-03-24T09:52:39Z</time>
      </trkpt>
      <trkpt lat="47.445325953885913" lon="11.458088960498571">
        <ele>1163.33251953125</ele>
        <time>2013-03-24T09:52:52Z</time>
      </trkpt>
      <trkpt lat="47.445062007755041" lon="11.45814017392695">
        <ele>1163.81298828125</ele>
        <time>2013-03-24T09:53:02Z</time>
      </trkpt>
      <trkpt lat="47.444835193455219" lon="11.458198009058833">
        <ele>1164.2939453125</ele>
        <time>2013-03-24T09:53:11Z</time>
      </trkpt>
      <trkpt lat="47.444732850417495" lon="11.4581358153373">
        <ele>1164.2939453125</ele>
        <time>2013-03-24T09:53:19Z</time>
      </trkpt>
      <trkpt lat="47.444670489057899" lon="11.458061384037137">
        <ele>1163.81298828125</ele>
        <time>2013-03-24T09:53:28Z</time>
      </trkpt>
      <trkpt lat="47.444616677239537" lon="11.457974212244153">
        <ele>1165.736083984375</ele>
        <time>2013-03-24T09:53:42Z</time>
      </trkpt>
      <trkpt lat="47.44456060230732" lon="11.457911180332303">
        <ele>1166.216552734375</ele>
        <time>2013-03-24T09:53:51Z</time>
      </trkpt>
      <trkpt lat="47.44446923956275" lon="11.457797940820456">
        <ele>1166.697265625</ele>
        <time>2013-03-24T09:54:04Z</time>
      </trkpt>
      <trkpt lat="47.444361196830869" lon="11.457734741270542">
        <ele>1167.658447265625</ele>
        <time>2013-03-24T09:54:17Z</time>
      </trkpt>
      <trkpt lat="47.444332698360085" lon="11.457613622769713">
        <ele>1169.581298828125</ele>
        <time>2013-03-24T09:54:32Z</time>
      </trkpt>
      <trkpt lat="47.444338984787464" lon="11.457522846758366">
        <ele>1169.581298828125</ele>
        <time>2013-03-24T09:54:41Z</time>
      </trkpt>
      <trkpt lat="47.444474268704653" lon="11.457287231460214">
        <ele>1170.061767578125</ele>
        <time>2013-03-24T09:54:53Z</time>
      </trkpt>
      <trkpt lat="47.444509975612164" lon="11.457092771306634">
        <ele>1171.023193359375</ele>
        <time>2013-03-24T09:55:06Z</time>
      </trkpt>
      <trkpt lat="47.444745507091284" lon="11.45681893453002">
        <ele>1172.465087890625</ele>
        <time>2013-03-24T09:55:19Z</time>
      </trkpt>
      <trkpt lat="47.444699574261904" lon="11.456670323386788">
        <ele>1173.426513671875</ele>
        <time>2013-03-24T09:55:33Z</time>
      </trkpt>
      <trkpt lat="47.446220386773348" lon="11.455678073689342">
        <ele>1174.868408203125</ele>
        <time>2013-03-24T09:55:50Z</time>
      </trkpt>
      <trkpt lat="47.446106392890215" lon="11.455665165558457">
        <ele>1176.791015625</ele>
        <time>2013-03-24T09:56:04Z</time>
      </trkpt>
      <trkpt lat="47.446001786738634" lon="11.455625686794519">
        <ele>1178.713623046875</ele>
        <time>2013-03-24T09:56:17Z</time>
      </trkpt>
      <trkpt lat="47.445947304368019" lon="11.45555779337883">
        <ele>1180.15576171875</ele>
        <time>2013-03-24T09:56:27Z</time>
      </trkpt>
      <trkpt lat="47.445819228887558" lon="11.455439021810889">
        <ele>1183.03955078125</ele>
        <time>2013-03-24T09:56:43Z</time>
      </trkpt>
      <trkpt lat="47.445706995204091" lon="11.455320082604885">
        <ele>1184.96240234375</ele>
        <time>2013-03-24T09:56:59Z</time>
      </trkpt>
      <trkpt lat="47.445622254163027" lon="11.45518203265965">
        <ele>1186.884765625</ele>
        <time>2013-03-24T09:57:13Z</time>
      </trkpt>
      <trkpt lat="47.445567436516285" lon="11.455018166452646">
        <ele>1187.84619140625</ele>
        <time>2013-03-24T09:57:26Z</time>
      </trkpt>
      <trkpt lat="47.445534663274884" lon="11.45485270768404">
        <ele>1189.768798828125</ele>
        <time>2013-03-24T09:57:39Z</time>
      </trkpt>
      <trkpt lat="47.445476157590747" lon="11.454653218388557">
        <ele>1191.210693359375</ele>
        <time>2013-03-24T09:57:54Z</time>
      </trkpt>
      <trkpt lat="47.445399463176727" lon="11.454510558396578">
        <ele>1192.172119140625</ele>
        <time>2013-03-24T09:58:08Z</time>
      </trkpt>
      <trkpt lat="47.445314638316631" lon="11.454380052164197">
        <ele>1194.5751953125</ele>
        <time>2013-03-24T09:58:22Z</time>
      </trkpt>
      <trkpt lat="47.445210367441177" lon="11.454237559810281">
        <ele>1196.498291015625</ele>
        <time>2013-03-24T09:58:38Z</time>
      </trkpt>
      <trkpt lat="47.445089835673571" lon="11.454117447137833">
        <ele>1197.940185546875</ele>
        <time>2013-03-24T09:58:55Z</time>
      </trkpt>
      <trkpt lat="47.445022612810135" lon="11.453934470191598">
        <ele>1201.3046875</ele>
        <time>2013-03-24T09:59:13Z</time>
      </trkpt>
      <trkpt lat="47.444984642788768" lon="11.453824834898114">
        <ele>1204.188720703125</ele>
        <time>2013-03-24T09:59:24Z</time>
      </trkpt>
      <trkpt lat="47.444941475987434" lon="11.453690556809306">
        <ele>1205.14990234375</ele>
        <time>2013-03-24T09:59:37Z</time>
      </trkpt>
      <trkpt lat="47.444912474602461" lon="11.453488301485777">
        <ele>1208.033935546875</ele>
        <time>2013-03-24T09:59:55Z</time>
      </trkpt>
      <trkpt lat="47.444920437410474" lon="11.453256541863084">
        <ele>1210.43701171875</ele>
        <time>2013-03-24T10:00:14Z</time>
      </trkpt>
      <trkpt lat="47.44492806494236" lon="11.453229803591967">
        <ele>1210.43701171875</ele>
        <time>2013-03-24T10:00:16Z</time>
      </trkpt>
      <trkpt lat="47.444965783506632" lon="11.453024446964264">
        <ele>1212.840576171875</ele>
        <time>2013-03-24T10:00:32Z</time>
      </trkpt>
      <trkpt lat="47.444981541484594" lon="11.452817246317863">
        <ele>1215.243896484375</ele>
        <time>2013-03-24T10:00:51Z</time>
      </trkpt>
      <trkpt lat="47.444948684424162" lon="11.452606022357941">
        <ele>1218.127685546875</ele>
        <time>2013-03-24T10:01:10Z</time>
      </trkpt>
      <trkpt lat="47.444891016930342" lon="11.452400246635079">
        <ele>1220.05029296875</ele>
        <time>2013-03-24T10:01:28Z</time>
      </trkpt>
      <trkpt lat="47.444855310022831" lon="11.452193548902869">
        <ele>1222.45361328125</ele>
        <time>2013-03-24T10:01:45Z</time>
      </trkpt>
      <trkpt lat="47.444830583408475" lon="11.451922813430429">
        <ele>1225.818115234375</ele>
        <time>2013-03-24T10:02:07Z</time>
      </trkpt>
      <trkpt lat="47.444832678884268" lon="11.45174453034997">
        <ele>1227.26025390625</ele>
        <time>2013-03-24T10:02:24Z</time>
      </trkpt>
      <trkpt lat="47.444789344444871" lon="11.451589716598392">
        <ele>1230.144287109375</ele>
        <time>2013-03-24T10:02:39Z</time>
      </trkpt>
      <trkpt lat="47.444738382473588" lon="11.4513751398772">
        <ele>1232.06689453125</ele>
        <time>2013-03-24T10:02:58Z</time>
      </trkpt>
      <trkpt lat="47.444712901487947" lon="11.451227366924286">
        <ele>1233.989501953125</ele>
        <time>2013-03-24T10:03:15Z</time>
      </trkpt>
      <trkpt lat="47.444713320583105" lon="11.451227115467191">
        <ele>1233.989501953125</ele>
        <time>2013-03-24T10:04:04Z</time>
      </trkpt>
      <trkpt lat="47.444705022498965" lon="11.451213620603085">
        <ele>1234.950927734375</ele>
        <time>2013-03-24T10:04:20Z</time>
      </trkpt>
      <trkpt lat="47.444692701101303" lon="11.450959900394082">
        <ele>1237.834716796875</ele>
        <time>2013-03-24T10:04:42Z</time>
      </trkpt>
      <trkpt lat="47.444647774100304" lon="11.450816402211785">
        <ele>1240.718505859375</ele>
        <time>2013-03-24T10:04:57Z</time>
      </trkpt>
      <trkpt lat="47.444620113819838" lon="11.450666869059205">
        <ele>1242.641357421875</ele>
        <time>2013-03-24T10:05:11Z</time>
      </trkpt>
      <trkpt lat="47.444613575935364" lon="11.450595622882247">
        <ele>1243.6025390625</ele>
        <time>2013-03-24T10:05:26Z</time>
      </trkpt>
      <trkpt lat="47.444600835442543" lon="11.450491519644856">
        <ele>1244.08349609375</ele>
        <time>2013-03-24T10:05:38Z</time>
      </trkpt>
      <trkpt lat="47.444599578157067" lon="11.450496800243855">
        <ele>1244.56396484375</ele>
        <time>2013-03-24T10:05:50Z</time>
      </trkpt>
      <trkpt lat="47.444614917039871" lon="11.450481628999114">
        <ele>1244.56396484375</ele>
        <time>2013-03-24T10:06:08Z</time>
      </trkpt>
      <trkpt lat="47.444621622562408" lon="11.450493782758713">
        <ele>1244.56396484375</ele>
        <time>2013-03-24T10:06:27Z</time>
      </trkpt>
      <trkpt lat="47.444632602855563" lon="11.450536027550697">
        <ele>1244.08349609375</ele>
        <time>2013-03-24T10:06:32Z</time>
      </trkpt>
      <trkpt lat="47.44464760646224" lon="11.450593862682581">
        <ele>1242.16064453125</ele>
        <time>2013-03-24T10:06:36Z</time>
      </trkpt>
      <trkpt lat="47.444665795192122" lon="11.450678771361709">
        <ele>1241.19921875</ele>
        <time>2013-03-24T10:06:41Z</time>
      </trkpt>
      <trkpt lat="47.444679122418165" lon="11.450733840465546">
        <ele>1240.238037109375</ele>
        <time>2013-03-24T10:06:50Z</time>
      </trkpt>
      <trkpt lat="47.444763779640198" lon="11.450778180733323">
        <ele>1237.834716796875</ele>
        <time>2013-03-24T10:06:56Z</time>
      </trkpt>
      <trkpt lat="47.444841144606471" lon="11.45078781992197">
        <ele>1238.796142578125</ele>
        <time>2013-03-24T10:07:06Z</time>
      </trkpt>
      <trkpt lat="47.444895710796118" lon="11.450730236247182">
        <ele>1240.238037109375</ele>
        <time>2013-03-24T10:07:19Z</time>
      </trkpt>
      <trkpt lat="47.444878360256553" lon="11.450565196573734">
        <ele>1241.679931640625</ele>
        <time>2013-03-24T10:07:35Z</time>
      </trkpt>
      <trkpt lat="47.444888083264232" lon="11.450429074466228">
        <ele>1245.044677734375</ele>
        <time>2013-03-24T10:07:50Z</time>
      </trkpt>
      <trkpt lat="47.444919850677252" lon="11.450333520770073">
        <ele>1246.96728515625</ele>
        <time>2013-03-24T10:08:03Z</time>
      </trkpt>
      <trkpt lat="47.444990091025829" lon="11.450286079198122">
        <ele>1247.9287109375</ele>
        <time>2013-03-24T10:08:15Z</time>
      </trkpt>
      <trkpt lat="47.445021439343691" lon="11.450267136096954">
        <ele>1248.889892578125</ele>
        <time>2013-03-24T10:08:24Z</time>
      </trkpt>
      <trkpt lat="47.445060834288597" lon="11.450163032859564">
        <ele>1247.9287109375</ele>
        <time>2013-03-24T10:08:32Z</time>
      </trkpt>
      <trkpt lat="47.445121016353369" lon="11.450092289596796">
        <ele>1249.37060546875</ele>
        <time>2013-03-24T10:08:45Z</time>
      </trkpt>
      <trkpt lat="47.445177426561713" lon="11.450011152774096">
        <ele>1252.25439453125</ele>
        <time>2013-03-24T10:08:56Z</time>
      </trkpt>
      <trkpt lat="47.445195866748691" lon="11.449893722310662">
        <ele>1255.619140625</ele>
        <time>2013-03-24T10:09:11Z</time>
      </trkpt>
      <trkpt lat="47.445205086842179" lon="11.449772352352738">
        <ele>1258.0224609375</ele>
        <time>2013-03-24T10:09:24Z</time>
      </trkpt>
      <trkpt lat="47.445242218673229" lon="11.449711667373776">
        <ele>1259.46435546875</ele>
        <time>2013-03-24T10:09:35Z</time>
      </trkpt>
      <trkpt lat="47.445317823439837" lon="11.44964293576777">
        <ele>1261.867919921875</ele>
        <time>2013-03-24T10:09:51Z</time>
      </trkpt>
      <trkpt lat="47.445355793461204" lon="11.449550148099661">
        <ele>1264.751708984375</ele>
        <time>2013-03-24T10:10:04Z</time>
      </trkpt>
      <trkpt lat="47.445430643856525" lon="11.449401956051588">
        <ele>1268.1162109375</ele>
        <time>2013-03-24T10:10:24Z</time>
      </trkpt>
      <trkpt lat="47.445519072934985" lon="11.449222667142749">
        <ele>1271.480712890625</ele>
        <time>2013-03-24T10:10:47Z</time>
      </trkpt>
      <trkpt lat="47.445585457608104" lon="11.449059806764126">
        <ele>1274.845458984375</ele>
        <time>2013-03-24T10:11:08Z</time>
      </trkpt>
      <trkpt lat="47.445604987442493" lon="11.448980178683996">
        <ele>1276.768310546875</ele>
        <time>2013-03-24T10:11:17Z</time>
      </trkpt>
      <trkpt lat="47.445613704621792" lon="11.448914464563131">
        <ele>1277.2490234375</ele>
        <time>2013-03-24T10:11:32Z</time>
      </trkpt>
      <trkpt lat="47.445618901401758" lon="11.448843888938427">
        <ele>1278.210205078125</ele>
        <time>2013-03-24T10:11:58Z</time>
      </trkpt>
      <trkpt lat="47.445636671036482" lon="11.448641382157803">
        <ele>1281.57470703125</ele>
        <time>2013-03-24T10:12:17Z</time>
      </trkpt>
      <trkpt lat="47.445650333538651" lon="11.448453711345792">
        <ele>1284.939453125</ele>
        <time>2013-03-24T10:12:37Z</time>
      </trkpt>
      <trkpt lat="47.445706240832806" lon="11.448355223983526">
        <ele>1288.303955078125</ele>
        <time>2013-03-24T10:12:54Z</time>
      </trkpt>
      <trkpt lat="47.445754017680883" lon="11.448273165151477">
        <ele>1290.70703125</ele>
        <time>2013-03-24T10:13:07Z</time>
      </trkpt>
      <trkpt lat="47.445795843377709" lon="11.448188005015254">
        <ele>1292.630126953125</ele>
        <time>2013-03-24T10:13:23Z</time>
      </trkpt>
      <trkpt lat="47.445771200582385" lon="11.448131008073688">
        <ele>1295.513916015625</ele>
        <time>2013-03-24T10:13:34Z</time>
      </trkpt>
      <trkpt lat="47.445784946903586" lon="11.448043501004577">
        <ele>1297.917236328125</ele>
        <time>2013-03-24T10:13:47Z</time>
      </trkpt>
      <trkpt lat="47.445826269686222" lon="11.447976026684046">
        <ele>1300.801025390625</ele>
        <time>2013-03-24T10:14:00Z</time>
      </trkpt>
      <trkpt lat="47.445852672681212" lon="11.447918610647321">
        <ele>1302.242919921875</ele>
        <time>2013-03-24T10:14:09Z</time>
      </trkpt>
      <trkpt lat="47.445898773148656" lon="11.447837976738811">
        <ele>1305.126953125</ele>
        <time>2013-03-24T10:14:23Z</time>
      </trkpt>
      <trkpt lat="47.445889301598072" lon="11.447707805782557">
        <ele>1308.01123046875</ele>
        <time>2013-03-24T10:14:38Z</time>
      </trkpt>
      <trkpt lat="47.445853594690561" lon="11.447544610127807">
        <ele>1311.375732421875</ele>
        <time>2013-03-24T10:14:55Z</time>
      </trkpt>
      <trkpt lat="47.445828197523952" lon="11.447378732264042">
        <ele>1314.740234375</ele>
        <time>2013-03-24T10:15:15Z</time>
      </trkpt>
      <trkpt lat="47.445814870297909" lon="11.447267672047019">
        <ele>1317.6240234375</ele>
        <time>2013-03-24T10:15:30Z</time>
      </trkpt>
      <trkpt lat="47.445821994915605" lon="11.447167424485087">
        <ele>1320.98876953125</ele>
        <time>2013-03-24T10:15:46Z</time>
      </trkpt>
      <trkpt lat="47.445830041542649" lon="11.447101039811969">
        <ele>1321.949951171875</ele>
        <time>2013-03-24T10:16:22Z</time>
      </trkpt>
      <trkpt lat="47.44588284753263" lon="11.447002217173576">
        <ele>1325.314697265625</ele>
        <time>2013-03-24T10:16:38Z</time>
      </trkpt>
      <trkpt lat="47.44592634961009" lon="11.446852600201964">
        <ele>1328.679443359375</ele>
        <time>2013-03-24T10:16:57Z</time>
      </trkpt>
      <trkpt lat="47.4459517467767" lon="11.446715891361237">
        <ele>1331.563232421875</ele>
        <time>2013-03-24T10:17:14Z</time>
      </trkpt>
      <trkpt lat="47.44595124386251" lon="11.446708934381604">
        <ele>1332.0439453125</ele>
        <time>2013-03-24T10:17:15Z</time>
      </trkpt>
      <trkpt lat="47.445968091487885" lon="11.446552779525518">
        <ele>1334.447265625</ele>
        <time>2013-03-24T10:17:31Z</time>
      </trkpt>
      <trkpt lat="47.445984268561006" lon="11.446447167545557">
        <ele>1336.850341796875</ele>
        <time>2013-03-24T10:17:44Z</time>
      </trkpt>
      <trkpt lat="47.446035733446479" lon="11.446394613012671">
        <ele>1339.734375</ele>
        <time>2013-03-24T10:18:00Z</time>
      </trkpt>
      <trkpt lat="47.446084683761001" lon="11.44646443426609">
        <ele>1343.09912109375</ele>
        <time>2013-03-24T10:18:15Z</time>
      </trkpt>
      <trkpt lat="47.446139082312584" lon="11.446400564163923">
        <ele>1345.50244140625</ele>
        <time>2013-03-24T10:18:31Z</time>
      </trkpt>
      <trkpt lat="47.446198761463165" lon="11.446306435391307">
        <ele>1348.866943359375</ele>
        <time>2013-03-24T10:18:47Z</time>
      </trkpt>
      <trkpt lat="47.446204880252481" lon="11.446287492290139">
        <ele>1347.425048828125</ele>
        <time>2013-03-24T10:19:00Z</time>
      </trkpt>
      <trkpt lat="47.4462073110044" lon="11.446267710998654">
        <ele>1347.425048828125</ele>
        <time>2013-03-24T10:19:12Z</time>
      </trkpt>
      <trkpt lat="47.446207059547305" lon="11.446267794817686">
        <ele>1348.866943359375</ele>
        <time>2013-03-24T10:19:18Z</time>
      </trkpt>
      <trkpt lat="47.446207227185369" lon="11.446267375722528">
        <ele>1347.425048828125</ele>
        <time>2013-03-24T10:19:20Z</time>
      </trkpt>
      <trkpt lat="47.446205215528607" lon="11.446275757625699">
        <ele>1348.38623046875</ele>
        <time>2013-03-24T10:19:39Z</time>
      </trkpt>
      <trkpt lat="47.446213848888874" lon="11.446281457319856">
        <ele>1348.866943359375</ele>
        <time>2013-03-24T10:20:25Z</time>
      </trkpt>
      <trkpt lat="47.446220805868506" lon="11.446266453713179">
        <ele>1348.38623046875</ele>
        <time>2013-03-24T10:20:53Z</time>
      </trkpt>
      <trkpt lat="47.44623027741909" lon="11.446264106780291">
        <ele>1348.38623046875</ele>
        <time>2013-03-24T10:21:09Z</time>
      </trkpt>
      <trkpt lat="47.446277970448136" lon="11.446234686300159">
        <ele>1348.38623046875</ele>
        <time>2013-03-24T10:21:17Z</time>
      </trkpt>
      <trkpt lat="47.44639833457768" lon="11.446047099307179">
        <ele>1350.78955078125</ele>
        <time>2013-03-24T10:21:39Z</time>
      </trkpt>
      <trkpt lat="47.446412248536944" lon="11.445873090997338">
        <ele>1353.673583984375</ele>
        <time>2013-03-24T10:21:54Z</time>
      </trkpt>
      <trkpt lat="47.446448625996709" lon="11.445642421022058">
        <ele>1357.038330078125</ele>
        <time>2013-03-24T10:22:16Z</time>
      </trkpt>
      <trkpt lat="47.446502353996038" lon="11.445466484874487">
        <ele>1359.922119140625</ele>
        <time>2013-03-24T10:22:36Z</time>
      </trkpt>
      <trkpt lat="47.446542335674167" lon="11.445322735235095">
        <ele>1363.286865234375</ele>
        <time>2013-03-24T10:22:52Z</time>
      </trkpt>
      <trkpt lat="47.446568068116903" lon="11.445204969495535">
        <ele>1364.728759765625</ele>
        <time>2013-03-24T10:23:04Z</time>
      </trkpt>
      <trkpt lat="47.446600673720241" lon="11.44505619071424">
        <ele>1368.573974609375</ele>
        <time>2013-03-24T10:23:21Z</time>
      </trkpt>
      <trkpt lat="47.446634536609054" lon="11.444944543763995">
        <ele>1371.457763671875</ele>
        <time>2013-03-24T10:23:36Z</time>
      </trkpt>
      <trkpt lat="47.446683403104544" lon="11.4448216650635">
        <ele>1374.82275390625</ele>
        <time>2013-03-24T10:23:54Z</time>
      </trkpt>
      <trkpt lat="47.446735454723239" lon="11.444643465802073">
        <ele>1378.66796875</ele>
        <time>2013-03-24T10:24:16Z</time>
      </trkpt>
      <trkpt lat="47.446783818304539" lon="11.444468284025788">
        <ele>1382.032470703125</ele>
        <time>2013-03-24T10:24:35Z</time>
      </trkpt>
      <trkpt lat="47.446812735870481" lon="11.444338783621788">
        <ele>1384.91650390625</ele>
        <time>2013-03-24T10:24:51Z</time>
      </trkpt>
      <trkpt lat="47.44685816578567" lon="11.444239458069205">
        <ele>1387.80029296875</ele>
        <time>2013-03-24T10:25:05Z</time>
      </trkpt>
      <trkpt lat="47.44691239669919" lon="11.444158488884568">
        <ele>1390.203857421875</ele>
        <time>2013-03-24T10:25:22Z</time>
      </trkpt>
      <trkpt lat="47.44696126319468" lon="11.444065701216459">
        <ele>1392.607177734375</ele>
        <time>2013-03-24T10:25:36Z</time>
      </trkpt>
      <trkpt lat="47.446967214345932" lon="11.444051703438163">
        <ele>1393.568359375</ele>
        <time>2013-03-24T10:25:38Z</time>
      </trkpt>
      <trkpt lat="47.447013230994344" lon="11.443923125043511">
        <ele>1395.9716796875</ele>
        <time>2013-03-24T10:25:55Z</time>
      </trkpt>
      <trkpt lat="47.447069054469466" lon="11.443781806156039">
        <ele>1398.85546875</ele>
        <time>2013-03-24T10:26:11Z</time>
      </trkpt>
      <trkpt lat="47.447123872116208" lon="11.443612910807133">
        <ele>1400.778076171875</ele>
        <time>2013-03-24T10:26:29Z</time>
      </trkpt>
      <trkpt lat="47.44713032618165" lon="11.443479470908642">
        <ele>1403.662109375</ele>
        <time>2013-03-24T10:26:43Z</time>
      </trkpt>
      <trkpt lat="47.447111215442419" lon="11.443389030173421">
        <ele>1405.5849609375</ele>
        <time>2013-03-24T10:26:52Z</time>
      </trkpt>
      <trkpt lat="47.447109036147594" lon="11.44320722669363">
        <ele>1408.46875</ele>
        <time>2013-03-24T10:27:12Z</time>
      </trkpt>
      <trkpt lat="47.44713569059968" lon="11.443080743774772">
        <ele>1410.391357421875</ele>
        <time>2013-03-24T10:27:30Z</time>
      </trkpt>
      <trkpt lat="47.447117920964956" lon="11.443029530346394">
        <ele>1412.31396484375</ele>
        <time>2013-03-24T10:27:40Z</time>
      </trkpt>
      <trkpt lat="47.447112472727895" lon="11.442982843145728">
        <ele>1412.794677734375</ele>
        <time>2013-03-24T10:27:50Z</time>
      </trkpt>
      <trkpt lat="47.447141306474805" lon="11.442961050197482">
        <ele>1414.236572265625</ele>
        <time>2013-03-24T10:27:59Z</time>
      </trkpt>
      <trkpt lat="47.447180449962616" lon="11.442883685231209">
        <ele>1416.1591796875</ele>
        <time>2013-03-24T10:28:10Z</time>
      </trkpt>
      <trkpt lat="47.447237865999341" lon="11.442803805693984">
        <ele>1419.043212890625</ele>
        <time>2013-03-24T10:28:25Z</time>
      </trkpt>
      <trkpt lat="47.447282206267118" lon="11.44272887147963">
        <ele>1420.966064453125</ele>
        <time>2013-03-24T10:28:37Z</time>
      </trkpt>
      <trkpt lat="47.447307351976633" lon="11.442649913951755">
        <ele>1423.369384765625</ele>
        <time>2013-03-24T10:28:49Z</time>
      </trkpt>
      <trkpt lat="47.447350937873125" lon="11.442600879818201">
        <ele>1424.811279296875</ele>
        <time>2013-03-24T10:29:00Z</time>
      </trkpt>
      <trkpt lat="47.447405587881804" lon="11.442548744380474">
        <ele>1426.73388671875</ele>
        <time>2013-03-24T10:29:12Z</time>
      </trkpt>
      <trkpt lat="47.44742738083005" lon="11.442470205947757">
        <ele>1428.17578125</ele>
        <time>2013-03-24T10:29:22Z</time>
      </trkpt>
      <trkpt lat="47.447441630065441" lon="11.442388482391834">
        <ele>1430.098388671875</ele>
        <time>2013-03-24T10:29:33Z</time>
      </trkpt>
      <trkpt lat="47.447444899007678" lon="11.442366521805525">
        <ele>1431.059814453125</ele>
        <time>2013-03-24T10:29:42Z</time>
      </trkpt>
      <trkpt lat="47.447443306446075" lon="11.442352188751101">
        <ele>1432.501708984375</ele>
        <time>2013-03-24T10:29:45Z</time>
      </trkpt>
      <trkpt lat="47.447437522932887" lon="11.442278679460287">
        <ele>1433.943603515625</ele>
        <time>2013-03-24T10:29:56Z</time>
      </trkpt>
      <trkpt lat="47.447439031675458" lon="11.442263508215547">
        <ele>1434.905029296875</ele>
        <time>2013-03-24T10:30:10Z</time>
      </trkpt>
      <trkpt lat="47.447477420791984" lon="11.442211791872978">
        <ele>1436.82763671875</ele>
        <time>2013-03-24T10:30:24Z</time>
      </trkpt>
      <trkpt lat="47.447534250095487" lon="11.442130403593183">
        <ele>1440.1923828125</ele>
        <time>2013-03-24T10:30:38Z</time>
      </trkpt>
      <trkpt lat="47.447541626170278" lon="11.442097630351782">
        <ele>1440.1923828125</ele>
        <time>2013-03-24T10:30:52Z</time>
      </trkpt>
      <trkpt lat="47.447563083842397" lon="11.44201934337616">
        <ele>1441.63427734375</ele>
        <time>2013-03-24T10:31:15Z</time>
      </trkpt>
      <trkpt lat="47.447613878175616" lon="11.44192554987967">
        <ele>1444.998779296875</ele>
        <time>2013-03-24T10:31:31Z</time>
      </trkpt>
      <trkpt lat="47.447696272283792" lon="11.44185078330338">
        <ele>1448.36328125</ele>
        <time>2013-03-24T10:31:48Z</time>
      </trkpt>
      <trkpt lat="47.447719741612673" lon="11.441828235983849">
        <ele>1448.843994140625</ele>
        <time>2013-03-24T10:32:04Z</time>
      </trkpt>
      <trkpt lat="47.447753269225359" lon="11.441771574318409">
        <ele>1451.247314453125</ele>
        <time>2013-03-24T10:32:15Z</time>
      </trkpt>
      <trkpt lat="47.447798531502485" lon="11.44170711748302">
        <ele>1453.170166015625</ele>
        <time>2013-03-24T10:32:28Z</time>
      </trkpt>
      <trkpt lat="47.447779420763254" lon="11.441628662869334">
        <ele>1455.573486328125</ele>
        <time>2013-03-24T10:32:41Z</time>
      </trkpt>
      <trkpt lat="47.447741702198982" lon="11.441581975668669">
        <ele>1457.976806640625</ele>
        <time>2013-03-24T10:32:54Z</time>
      </trkpt>
      <trkpt lat="47.44774061255157" lon="11.441542664542794">
        <ele>1458.457275390625</ele>
        <time>2013-03-24T10:33:06Z</time>
      </trkpt>
      <trkpt lat="47.447708258405328" lon="11.441463958472013">
        <ele>1460.3798828125</ele>
        <time>2013-03-24T10:33:21Z</time>
      </trkpt>
      <trkpt lat="47.44770985096693" lon="11.441470915451646">
        <ele>1460.3798828125</ele>
        <time>2013-03-24T10:33:33Z</time>
      </trkpt>
      <trkpt lat="47.447734577581286" lon="11.441458677873015">
        <ele>1461.822021484375</ele>
        <time>2013-03-24T10:33:42Z</time>
      </trkpt>
      <trkpt lat="47.447807667776942" lon="11.441394221037626">
        <ele>1464.705810546875</ele>
        <time>2013-03-24T10:33:58Z</time>
      </trkpt>
      <trkpt lat="47.447812194004655" lon="11.441363710910082">
        <ele>1465.667236328125</ele>
        <time>2013-03-24T10:34:08Z</time>
      </trkpt>
      <trkpt lat="47.447782857343554" lon="11.441312748938799">
        <ele>1468.070556640625</ele>
        <time>2013-03-24T10:34:18Z</time>
      </trkpt>
      <trkpt lat="47.447770787402987" lon="11.441232282668352">
        <ele>1470.473876953125</ele>
        <time>2013-03-24T10:34:33Z</time>
      </trkpt>
      <trkpt lat="47.447819905355573" lon="11.441154666244984">
        <ele>1473.35791015625</ele>
        <time>2013-03-24T10:34:50Z</time>
      </trkpt>
      <trkpt lat="47.447840860113502" lon="11.441147876903415">
        <ele>1474.7998046875</ele>
        <time>2013-03-24T10:34:57Z</time>
      </trkpt>
      <trkpt lat="47.447866760194302" lon="11.441124575212598">
        <ele>1475.760986328125</ele>
        <time>2013-03-24T10:35:08Z</time>
      </trkpt>
      <trkpt lat="47.447889223694801" lon="11.441126503050327">
        <ele>1477.68359375</ele>
        <time>2013-03-24T10:35:19Z</time>
      </trkpt>
      <trkpt lat="47.447916548699141" lon="11.441146787256002">
        <ele>1478.64501953125</ele>
        <time>2013-03-24T10:35:29Z</time>
      </trkpt>
      <trkpt lat="47.447915961965919" lon="11.441141590476036">
        <ele>1477.68359375</ele>
        <time>2013-03-24T10:35:31Z</time>
      </trkpt>
      <trkpt lat="47.447912357747555" lon="11.441126922145486">
        <ele>1478.64501953125</ele>
        <time>2013-03-24T10:35:36Z</time>
      </trkpt>
      <trkpt lat="47.447902383282781" lon="11.44100546836853">
        <ele>1481.52880859375</ele>
        <time>2013-03-24T10:35:51Z</time>
      </trkpt>
      <trkpt lat="47.447902048006654" lon="11.440993063151836">
        <ele>1480.567626953125</ele>
        <time>2013-03-24T10:36:03Z</time>
      </trkpt>
      <trkpt lat="47.447905903682113" lon="11.440995829179883">
        <ele>1481.52880859375</ele>
        <time>2013-03-24T10:36:16Z</time>
      </trkpt>
      <trkpt lat="47.44794144295156" lon="11.441032793372869">
        <ele>1482.970703125</ele>
        <time>2013-03-24T10:36:28Z</time>
      </trkpt>
      <trkpt lat="47.44796734303236" lon="11.441070595756173">
        <ele>1484.893798828125</ele>
        <time>2013-03-24T10:36:39Z</time>
      </trkpt>
      <trkpt lat="47.447965163737535" lon="11.44107042811811">
        <ele>1483.93212890625</ele>
        <time>2013-03-24T10:36:49Z</time>
      </trkpt>
      <trkpt lat="47.4479722045362" lon="11.441080821678042">
        <ele>1483.93212890625</ele>
        <time>2013-03-24T10:37:07Z</time>
      </trkpt>
      <trkpt lat="47.447984274476767" lon="11.441100435331464">
        <ele>1484.893798828125</ele>
        <time>2013-03-24T10:37:16Z</time>
      </trkpt>
      <trkpt lat="47.448048396036029" lon="11.441125078126788">
        <ele>1487.777587890625</ele>
        <time>2013-03-24T10:37:30Z</time>
      </trkpt>
      <trkpt lat="47.44812710210681" lon="11.441143015399575">
        <ele>1490.180908203125</ele>
        <time>2013-03-24T10:37:47Z</time>
      </trkpt>
      <trkpt lat="47.448176555335522" lon="11.441146871075034">
        <ele>1492.103515625</ele>
        <time>2013-03-24T10:38:02Z</time>
      </trkpt>
      <trkpt lat="47.448237575590611" lon="11.441140500828624">
        <ele>1494.026123046875</ele>
        <time>2013-03-24T10:38:19Z</time>
      </trkpt>
      <trkpt lat="47.448244029656053" lon="11.441139411181211">
        <ele>1494.506591796875</ele>
        <time>2013-03-24T10:38:29Z</time>
      </trkpt>
      <trkpt lat="47.448245622217655" lon="11.441127927973866">
        <ele>1494.9873046875</ele>
        <time>2013-03-24T10:38:36Z</time>
      </trkpt>
      <trkpt lat="47.448244532570243" lon="11.44110462628305">
        <ele>1495.94873046875</ele>
        <time>2013-03-24T10:38:45Z</time>
      </trkpt>
      <trkpt lat="47.448219051584601" lon="11.441019214689732">
        <ele>1498.351806640625</ele>
        <time>2013-03-24T10:39:00Z</time>
      </trkpt>
      <trkpt lat="47.44821653701365" lon="11.441008904948831">
        <ele>1499.313232421875</ele>
        <time>2013-03-24T10:39:02Z</time>
      </trkpt>
      <trkpt lat="47.448184350505471" lon="11.440930534154177">
        <ele>1501.236083984375</ele>
        <time>2013-03-24T10:39:17Z</time>
      </trkpt>
      <trkpt lat="47.448178064078093" lon="11.440906142815948">
        <ele>1502.677978515625</ele>
        <time>2013-03-24T10:39:21Z</time>
      </trkpt>
      <trkpt lat="47.448163982480764" lon="11.440844954922795">
        <ele>1504.1201171875</ele>
        <time>2013-03-24T10:39:37Z</time>
      </trkpt>
      <trkpt lat="47.448153421282768" lon="11.4407963398844">
        <ele>1506.523193359375</ele>
        <time>2013-03-24T10:39:47Z</time>
      </trkpt>
      <trkpt lat="47.448157528415322" lon="11.440709503367543">
        <ele>1508.44580078125</ele>
        <time>2013-03-24T10:40:01Z</time>
      </trkpt>
      <trkpt lat="47.448155852034688" lon="11.440660888329148">
        <ele>1509.8876953125</ele>
        <time>2013-03-24T10:40:19Z</time>
      </trkpt>
      <trkpt lat="47.448184350505471" lon="11.440609507262707">
        <ele>1512.291015625</ele>
        <time>2013-03-24T10:40:31Z</time>
      </trkpt>
      <trkpt lat="47.448153756558895" lon="11.440538680180907">
        <ele>1515.65576171875</ele>
        <time>2013-03-24T10:40:43Z</time>
      </trkpt>
      <trkpt lat="47.448162138462067" lon="11.440498866140842">
        <ele>1516.6171875</ele>
        <time>2013-03-24T10:40:56Z</time>
      </trkpt>
      <trkpt lat="47.448175130411983" lon="11.440497692674398">
        <ele>1517.578369140625</ele>
        <time>2013-03-24T10:41:02Z</time>
      </trkpt>
      <trkpt lat="47.448195582255721" lon="11.440478581935167">
        <ele>1518.539794921875</ele>
        <time>2013-03-24T10:41:07Z</time>
      </trkpt>
      <trkpt lat="47.448229193687439" lon="11.440399875864387">
        <ele>1519.981689453125</ele>
        <time>2013-03-24T10:41:22Z</time>
      </trkpt>
      <trkpt lat="47.448238665238023" lon="11.440395936369896">
        <ele>1520.943115234375</ele>
        <time>2013-03-24T10:41:38Z</time>
      </trkpt>
      <trkpt lat="47.44825174100697" lon="11.440416807308793">
        <ele>1522.385009765625</ele>
        <time>2013-03-24T10:41:47Z</time>
      </trkpt>
      <trkpt lat="47.448288118466735" lon="11.440468607470393">
        <ele>1525.74951171875</ele>
        <time>2013-03-24T10:41:59Z</time>
      </trkpt>
      <trkpt lat="47.448335643857718" lon="11.440515546128154">
        <ele>1527.672119140625</ele>
        <time>2013-03-24T10:42:12Z</time>
      </trkpt>
      <trkpt lat="47.448368668556213" lon="11.440540440380573">
        <ele>1529.5947265625</ele>
        <time>2013-03-24T10:42:19Z</time>
      </trkpt>
      <trkpt lat="47.44844812899828" lon="11.440601963549852">
        <ele>1531.036865234375</ele>
        <time>2013-03-24T10:42:35Z</time>
      </trkpt>
      <trkpt lat="47.448532786220312" lon="11.440642448142171">
        <ele>1533.9208984375</ele>
        <time>2013-03-24T10:42:51Z</time>
      </trkpt>
      <trkpt lat="47.448642337694764" lon="11.440653763711452">
        <ele>1535.843505859375</ele>
        <time>2013-03-24T10:43:08Z</time>
      </trkpt>
      <trkpt lat="47.44872959330678" lon="11.440675724297762">
        <ele>1535.843505859375</ele>
        <time>2013-03-24T10:43:21Z</time>
      </trkpt>
      <trkpt lat="47.448771838098764" lon="11.440682681277394">
        <ele>1537.285400390625</ele>
        <time>2013-03-24T10:43:31Z</time>
      </trkpt>
      <trkpt lat="47.44885959662497" lon="11.44066046923399">
        <ele>1539.688720703125</ele>
        <time>2013-03-24T10:43:48Z</time>
      </trkpt>
      <trkpt lat="47.448901338502765" lon="11.440640604123473">
        <ele>1541.130615234375</ele>
        <time>2013-03-24T10:43:59Z</time>
      </trkpt>
      <trkpt lat="47.448980966582894" lon="11.440581427887082">
        <ele>1543.05322265625</ele>
        <time>2013-03-24T10:44:13Z</time>
      </trkpt>
      <trkpt lat="47.449105102568865" lon="11.440513366833329">
        <ele>1545.937255859375</ele>
        <time>2013-03-24T10:44:32Z</time>
      </trkpt>
      <trkpt lat="47.449109964072704" lon="11.440500877797604">
        <ele>1544.0146484375</ele>
        <time>2013-03-24T10:44:54Z</time>
      </trkpt>
      <trkpt lat="47.449104515835643" lon="11.440503811463714">
        <ele>1543.533935546875</ele>
        <time>2013-03-24T10:46:32Z</time>
      </trkpt>
      <trkpt lat="47.449098229408264" lon="11.440509930253029">
        <ele>1544.0146484375</ele>
        <time>2013-03-24T10:49:20Z</time>
      </trkpt>
      <trkpt lat="47.449099570512772" lon="11.440511690452695">
        <ele>1544.0146484375</ele>
        <time>2013-03-24T10:49:37Z</time>
      </trkpt>
      <trkpt lat="47.449104767292738" lon="11.440503392368555">
        <ele>1544.0146484375</ele>
        <time>2013-03-24T10:50:10Z</time>
      </trkpt>
      <trkpt lat="47.449182383716106" lon="11.440399624407291">
        <ele>1547.379150390625</ele>
        <time>2013-03-24T10:50:28Z</time>
      </trkpt>
      <trkpt lat="47.449281373992562" lon="11.440364085137844">
        <ele>1549.302001953125</ele>
        <time>2013-03-24T10:50:44Z</time>
      </trkpt>
      <trkpt lat="47.449267040938139" lon="11.440375400707126">
        <ele>1543.533935546875</ele>
        <time>2013-03-24T10:50:48Z</time>
      </trkpt>
      <trkpt lat="47.449261760339141" lon="11.440377328544855">
        <ele>1546.8984375</ele>
        <time>2013-03-24T10:50:49Z</time>
      </trkpt>
      <trkpt lat="47.449259581044316" lon="11.440378753468394">
        <ele>1546.8984375</ele>
        <time>2013-03-24T10:51:11Z</time>
      </trkpt>
      <trkpt lat="47.449262095615268" lon="11.440376155078411">
        <ele>1548.340576171875</ele>
        <time>2013-03-24T10:51:25Z</time>
      </trkpt>
      <trkpt lat="47.449263017624617" lon="11.44037414342165">
        <ele>1544.0146484375</ele>
        <time>2013-03-24T10:51:26Z</time>
      </trkpt>
      <trkpt lat="47.449263939633965" lon="11.44037221558392">
        <ele>1546.41796875</ele>
        <time>2013-03-24T10:51:27Z</time>
      </trkpt>
      <trkpt lat="47.449264777824283" lon="11.440370203927159">
        <ele>1550.263427734375</ele>
        <time>2013-03-24T10:51:29Z</time>
      </trkpt>
      <trkpt lat="47.449264777824283" lon="11.440369784832001">
        <ele>1545.45654296875</ele>
        <time>2013-03-24T10:51:30Z</time>
      </trkpt>
      <trkpt lat="47.449264442548156" lon="11.440369533374906">
        <ele>1549.302001953125</ele>
        <time>2013-03-24T10:51:32Z</time>
      </trkpt>
      <trkpt lat="47.449264610186219" lon="11.440369365736842">
        <ele>1547.85986328125</ele>
        <time>2013-03-24T10:51:33Z</time>
      </trkpt>
      <trkpt lat="47.449265532195568" lon="11.44036827608943">
        <ele>1546.41796875</ele>
        <time>2013-03-24T10:51:36Z</time>
      </trkpt>
      <trkpt lat="47.449265699833632" lon="11.440367605537176">
        <ele>1548.8212890625</ele>
        <time>2013-03-24T10:51:38Z</time>
      </trkpt>
      <trkpt lat="47.449294114485383" lon="11.440380765125155">
        <ele>1549.302001953125</ele>
        <time>2013-03-24T10:51:48Z</time>
      </trkpt>
      <trkpt lat="47.449299730360508" lon="11.440378502011299">
        <ele>1548.8212890625</ele>
        <time>2013-03-24T10:51:49Z</time>
      </trkpt>
      <trkpt lat="47.449357565492392" lon="11.440312201157212">
        <ele>1551.224609375</ele>
        <time>2013-03-24T10:52:03Z</time>
      </trkpt>
      <trkpt lat="47.449377933517098" lon="11.440303232520819">
        <ele>1552.185791015625</ele>
        <time>2013-03-24T10:52:07Z</time>
      </trkpt>
      <trkpt lat="47.449415065348148" lon="11.440221844241023">
        <ele>1554.589111328125</ele>
        <time>2013-03-24T10:52:24Z</time>
      </trkpt>
      <trkpt lat="47.449415735900402" lon="11.440144060179591">
        <ele>1557.47314453125</ele>
        <time>2013-03-24T10:52:35Z</time>
      </trkpt>
      <trkpt lat="47.449429985135794" lon="11.440147664397955">
        <ele>1557.953857421875</ele>
        <time>2013-03-24T10:52:43Z</time>
      </trkpt>
      <trkpt lat="47.449514893814921" lon="11.440153364092112">
        <ele>1560.837646484375</ele>
        <time>2013-03-24T10:53:01Z</time>
      </trkpt>
      <trkpt lat="47.449616231024265" lon="11.440105587244034">
        <ele>1564.202392578125</ele>
        <time>2013-03-24T10:53:18Z</time>
      </trkpt>
      <trkpt lat="47.449682783335447" lon="11.439936272799969">
        <ele>1566.605712890625</ele>
        <time>2013-03-24T10:53:39Z</time>
      </trkpt>
      <trkpt lat="47.449735840782523" lon="11.439789673313498">
        <ele>1569.97021484375</ele>
        <time>2013-03-24T10:53:57Z</time>
      </trkpt>
      <trkpt lat="47.449775906279683" lon="11.439711889252067">
        <ele>1571.892822265625</ele>
        <time>2013-03-24T10:54:08Z</time>
      </trkpt>
      <trkpt lat="47.449821252375841" lon="11.439586747437716">
        <ele>1575.25732421875</ele>
        <time>2013-03-24T10:54:25Z</time>
      </trkpt>
      <trkpt lat="47.449871627613902" lon="11.439476190134883">
        <ele>1577.66064453125</ele>
        <time>2013-03-24T10:54:42Z</time>
      </trkpt>
      <trkpt lat="47.449882691726089" lon="11.439316682517529">
        <ele>1580.544921875</ele>
        <time>2013-03-24T10:54:59Z</time>
      </trkpt>
      <trkpt lat="47.449864754453301" lon="11.439151810482144">
        <ele>1583.4287109375</ele>
        <time>2013-03-24T10:55:18Z</time>
      </trkpt>
      <trkpt lat="47.449914962053299" lon="11.439086180180311">
        <ele>1585.83203125</ele>
        <time>2013-03-24T10:55:31Z</time>
      </trkpt>
      <trkpt lat="47.450016215443611" lon="11.438941089436412">
        <ele>1589.196533203125</ele>
        <time>2013-03-24T10:55:51Z</time>
      </trkpt>
      <trkpt lat="47.450048234313726" lon="11.438902784138918">
        <ele>1589.67724609375</ele>
        <time>2013-03-24T10:55:58Z</time>
      </trkpt>
      <trkpt lat="47.450128197669983" lon="11.438855426385999">
        <ele>1593.041748046875</ele>
        <time>2013-03-24T10:56:13Z</time>
      </trkpt>
      <trkpt lat="47.450230708345771" lon="11.43880320712924">
        <ele>1596.88720703125</ele>
        <time>2013-03-24T10:56:33Z</time>
      </trkpt>
      <trkpt lat="47.450263313949108" lon="11.438801866024733">
        <ele>1598.3291015625</ele>
        <time>2013-03-24T10:56:41Z</time>
      </trkpt>
      <trkpt lat="47.450319975614548" lon="11.438835393637419">
        <ele>1600.251953125</ele>
        <time>2013-03-24T10:56:54Z</time>
      </trkpt>
      <trkpt lat="47.450397675856948" lon="11.438777977600694">
        <ele>1604.09716796875</ele>
        <time>2013-03-24T10:57:10Z</time>
      </trkpt>
      <trkpt lat="47.450419887900352" lon="11.438711509108543">
        <ele>1605.5390625</ele>
        <time>2013-03-24T10:57:24Z</time>
      </trkpt>
      <trkpt lat="47.450431706383824" lon="11.438626013696194">
        <ele>1608.903564453125</ele>
        <time>2013-03-24T10:57:37Z</time>
      </trkpt>
      <trkpt lat="47.450435310602188" lon="11.438591564074159">
        <ele>1609.38427734375</ele>
        <time>2013-03-24T10:57:41Z</time>
      </trkpt>
      <trkpt lat="47.450437657535076" lon="11.43853347748518">
        <ele>1610.345458984375</ele>
        <time>2013-03-24T10:57:51Z</time>
      </trkpt>
      <trkpt lat="47.450447464361787" lon="11.438402635976672">
        <ele>1614.19091796875</ele>
        <time>2013-03-24T10:58:06Z</time>
      </trkpt>
      <trkpt lat="47.450461881235242" lon="11.438302891328931">
        <ele>1616.59423828125</ele>
        <time>2013-03-24T10:58:22Z</time>
      </trkpt>
      <trkpt lat="47.450469676405191" lon="11.438305070623755">
        <ele>1617.555419921875</ele>
        <time>2013-03-24T10:58:31Z</time>
      </trkpt>
      <trkpt lat="47.45051845908165" lon="11.438308758661151">
        <ele>1618.99755859375</ele>
        <time>2013-03-24T10:58:47Z</time>
      </trkpt>
      <trkpt lat="47.450565146282315" lon="11.438317727297544">
        <ele>1621.400634765625</ele>
        <time>2013-03-24T10:58:58Z</time>
      </trkpt>
      <trkpt lat="47.450647288933396" lon="11.43831504508853">
        <ele>1624.28466796875</ele>
        <time>2013-03-24T10:59:16Z</time>
      </trkpt>
      <trkpt lat="47.450651060789824" lon="11.438316302374005">
        <ele>1624.765380859375</ele>
        <time>2013-03-24T10:59:17Z</time>
      </trkpt>
      <trkpt lat="47.450714763253927" lon="11.438337340950966">
        <ele>1627.649169921875</ele>
        <time>2013-03-24T10:59:29Z</time>
      </trkpt>
      <trkpt lat="47.45079405605793" lon="11.438340693712234">
        <ele>1629.572021484375</ele>
        <time>2013-03-24T10:59:48Z</time>
      </trkpt>
      <trkpt lat="47.450831020250916" lon="11.438352596014738">
        <ele>1630.533447265625</ele>
        <time>2013-03-24T10:59:58Z</time>
      </trkpt>
      <trkpt lat="47.45088642463088" lon="11.438373802229762">
        <ele>1633.89794921875</ele>
        <time>2013-03-24T11:00:09Z</time>
      </trkpt>
      <trkpt lat="47.450985331088305" lon="11.438393164426088">
        <ele>1637.262451171875</ele>
        <time>2013-03-24T11:00:28Z</time>
      </trkpt>
      <trkpt lat="47.450987845659256" lon="11.438398947939277">
        <ele>1637.262451171875</ele>
        <time>2013-03-24T11:00:37Z</time>
      </trkpt>
      <trkpt lat="47.450994467362761" lon="11.438370700925589">
        <ele>1639.18505859375</ele>
        <time>2013-03-24T11:00:46Z</time>
      </trkpt>
      <trkpt lat="47.451017266139388" lon="11.438292916864157">
        <ele>1640.626953125</ele>
        <time>2013-03-24T11:00:56Z</time>
      </trkpt>
      <trkpt lat="47.45104861445725" lon="11.438216054812074">
        <ele>1643.510986328125</ele>
        <time>2013-03-24T11:01:07Z</time>
      </trkpt>
      <trkpt lat="47.451070323586464" lon="11.438153022900224">
        <ele>1645.433837890625</ele>
        <time>2013-03-24T11:01:16Z</time>
      </trkpt>
      <trkpt lat="47.451094463467598" lon="11.438081609085202">
        <ele>1647.3564453125</ele>
        <time>2013-03-24T11:01:26Z</time>
      </trkpt>
      <trkpt lat="47.451101085171103" lon="11.438066186383367">
        <ele>1648.317626953125</ele>
        <time>2013-03-24T11:01:28Z</time>
      </trkpt>
      <trkpt lat="47.451119357720017" lon="11.438003908842802">
        <ele>1648.79833984375</ele>
        <time>2013-03-24T11:01:37Z</time>
      </trkpt>
      <trkpt lat="47.451146598905325" lon="11.437989072874188">
        <ele>1650.240478515625</ele>
        <time>2013-03-24T11:02:02Z</time>
      </trkpt>
      <trkpt lat="47.451181467622519" lon="11.438007345423102">
        <ele>1652.6435546875</ele>
        <time>2013-03-24T11:02:12Z</time>
      </trkpt>
      <trkpt lat="47.451208792626858" lon="11.438035508617759">
        <ele>1654.566162109375</ele>
        <time>2013-03-24T11:02:20Z</time>
      </trkpt>
      <trkpt lat="47.451261514797807" lon="11.4380800165236">
        <ele>1656.969482421875</ele>
        <time>2013-03-24T11:02:34Z</time>
      </trkpt>
      <trkpt lat="47.451331838965416" lon="11.438128380104899">
        <ele>1659.372802734375</ele>
        <time>2013-03-24T11:02:53Z</time>
      </trkpt>
      <trkpt lat="47.451326558366418" lon="11.438124356791377">
        <ele>1659.853271484375</ele>
        <time>2013-03-24T11:03:03Z</time>
      </trkpt>
      <trkpt lat="47.451346926391125" lon="11.43802922219038">
        <ele>1662.737548828125</ele>
        <time>2013-03-24T11:03:17Z</time>
      </trkpt>
      <trkpt lat="47.451348016038537" lon="11.437947750091553">
        <ele>1665.140869140625</ele>
        <time>2013-03-24T11:03:29Z</time>
      </trkpt>
      <trkpt lat="47.451377017423511" lon="11.437941798940301">
        <ele>1666.10205078125</ele>
        <time>2013-03-24T11:03:39Z</time>
      </trkpt>
      <trkpt lat="47.45136821642518" lon="11.437888070940971">
        <ele>1667.0634765625</ele>
        <time>2013-03-24T11:03:48Z</time>
      </trkpt>
      <trkpt lat="47.451390847563744" lon="11.437792349606752">
        <ele>1669.466796875</ele>
        <time>2013-03-24T11:04:03Z</time>
      </trkpt>
      <trkpt lat="47.451460082083941" lon="11.437795870006084">
        <ele>1671.38916015625</ele>
        <time>2013-03-24T11:04:16Z</time>
      </trkpt>
      <trkpt lat="47.451455472037196" lon="11.437768964096904">
        <ele>1672.3505859375</ele>
        <time>2013-03-24T11:04:22Z</time>
      </trkpt>
      <trkpt lat="47.451449185609818" lon="11.437671985477209">
        <ele>1674.75390625</ele>
        <time>2013-03-24T11:04:33Z</time>
      </trkpt>
      <trkpt lat="47.451424794271588" lon="11.43759042955935">
        <ele>1676.196044921875</ele>
        <time>2013-03-24T11:04:45Z</time>
      </trkpt>
      <trkpt lat="47.451349273324013" lon="11.437541143968701">
        <ele>1679.079833984375</ele>
        <time>2013-03-24T11:04:59Z</time>
      </trkpt>
      <trkpt lat="47.451314656063914" lon="11.437497055158019">
        <ele>1681.002685546875</ele>
        <time>2013-03-24T11:05:09Z</time>
      </trkpt>
      <trkpt lat="47.451315326616168" lon="11.437410051003098">
        <ele>1683.886474609375</ele>
        <time>2013-03-24T11:05:23Z</time>
      </trkpt>
      <trkpt lat="47.451322451233864" lon="11.437330171465874">
        <ele>1686.289794921875</ele>
        <time>2013-03-24T11:05:36Z</time>
      </trkpt>
      <trkpt lat="47.451318930834532" lon="11.437295638024807">
        <ele>1687.731689453125</ele>
        <time>2013-03-24T11:05:49Z</time>
      </trkpt>
      <trkpt lat="47.451304849237204" lon="11.437185667455196">
        <ele>1691.09619140625</ele>
        <time>2013-03-24T11:06:03Z</time>
      </trkpt>
      <trkpt lat="47.451290935277939" lon="11.437081983312964">
        <ele>1693.01904296875</ele>
        <time>2013-03-24T11:06:20Z</time>
      </trkpt>
      <trkpt lat="47.451296215876937" lon="11.437091119587421">
        <ele>1693.499755859375</ele>
        <time>2013-03-24T11:06:33Z</time>
      </trkpt>
      <trkpt lat="47.451327312737703" lon="11.43710570409894">
        <ele>1694.4609375</ele>
        <time>2013-03-24T11:06:43Z</time>
      </trkpt>
      <trkpt lat="47.451399648562074" lon="11.437102602794766">
        <ele>1697.82568359375</ele>
        <time>2013-03-24T11:06:57Z</time>
      </trkpt>
      <trkpt lat="47.451492184773088" lon="11.437060190364718">
        <ele>1701.190185546875</ele>
        <time>2013-03-24T11:07:12Z</time>
      </trkpt>
      <trkpt lat="47.45152504183352" lon="11.437070416286588">
        <ele>1702.1513671875</ele>
        <time>2013-03-24T11:07:26Z</time>
      </trkpt>
      <trkpt lat="47.451506601646543" lon="11.437040911987424">
        <ele>1703.11279296875</ele>
        <time>2013-03-24T11:07:34Z</time>
      </trkpt>
      <trkpt lat="47.451475840061903" lon="11.436910489574075">
        <ele>1706.477294921875</ele>
        <time>2013-03-24T11:07:50Z</time>
      </trkpt>
      <trkpt lat="47.451461758464575" lon="11.436817953363061">
        <ele>1709.361572265625</ele>
        <time>2013-03-24T11:08:02Z</time>
      </trkpt>
      <trkpt lat="47.451450945809484" lon="11.436765063554049">
        <ele>1709.842041015625</ele>
        <time>2013-03-24T11:08:15Z</time>
      </trkpt>
      <trkpt lat="47.451458321884274" lon="11.436767829582095">
        <ele>1710.32275390625</ele>
        <time>2013-03-24T11:08:22Z</time>
      </trkpt>
      <trkpt lat="47.451467709615827" lon="11.436778558418155">
        <ele>1711.2841796875</ele>
        <time>2013-03-24T11:08:33Z</time>
      </trkpt>
      <trkpt lat="47.451547924429178" lon="11.436746958643198">
        <ele>1714.648681640625</ele>
        <time>2013-03-24T11:08:48Z</time>
      </trkpt>
      <trkpt lat="47.451636269688606" lon="11.436734218150377">
        <ele>1718.01318359375</ele>
        <time>2013-03-24T11:09:04Z</time>
      </trkpt>
      <trkpt lat="47.45166233740747" lon="11.436732960864902">
        <ele>1718.493896484375</ele>
        <time>2013-03-24T11:09:20Z</time>
      </trkpt>
      <trkpt lat="47.451714221388102" lon="11.436705300584435">
        <ele>1719.935791015625</ele>
        <time>2013-03-24T11:09:31Z</time>
      </trkpt>
      <trkpt lat="47.451750431209803" lon="11.436679568141699">
        <ele>1721.377685546875</ele>
        <time>2013-03-24T11:09:41Z</time>
      </trkpt>
      <trkpt lat="47.451852355152369" lon="11.436615027487278">
        <ele>1724.261962890625</ele>
        <time>2013-03-24T11:10:00Z</time>
      </trkpt>
      <trkpt lat="47.451953524723649" lon="11.436564652249217">
        <ele>1728.107177734375</ele>
        <time>2013-03-24T11:10:17Z</time>
      </trkpt>
      <trkpt lat="47.452018316835165" lon="11.436554510146379">
        <ele>1730.9912109375</ele>
        <time>2013-03-24T11:10:29Z</time>
      </trkpt>
      <trkpt lat="47.452134573832154" lon="11.436516540125012">
        <ele>1734.355712890625</ele>
        <time>2013-03-24T11:10:48Z</time>
      </trkpt>
      <trkpt lat="47.452244460582733" lon="11.436464656144381">
        <ele>1738.200927734375</ele>
        <time>2013-03-24T11:11:06Z</time>
      </trkpt>
      <trkpt lat="47.45234495960176" lon="11.436379076912999">
        <ele>1741.0849609375</ele>
        <time>2013-03-24T11:11:25Z</time>
      </trkpt>
      <trkpt lat="47.452444452792406" lon="11.436325768008828">
        <ele>1744.449462890625</ele>
        <time>2013-03-24T11:11:42Z</time>
      </trkpt>
      <trkpt lat="47.452551908791065" lon="11.436230465769768">
        <ele>1747.814208984375</ele>
        <time>2013-03-24T11:12:02Z</time>
      </trkpt>
      <trkpt lat="47.45258828625083" lon="11.436212277039886">
        <ele>1748.775390625</ele>
        <time>2013-03-24T11:12:16Z</time>
      </trkpt>
      <trkpt lat="47.452632710337639" lon="11.43620272167027">
        <ele>1752.139892578125</ele>
        <time>2013-03-24T11:12:25Z</time>
      </trkpt>
      <trkpt lat="47.45263765566051" lon="11.436169613152742">
        <ele>1752.139892578125</ele>
        <time>2013-03-24T11:12:34Z</time>
      </trkpt>
      <trkpt lat="47.452615862712264" lon="11.436055032536387">
        <ele>1755.504638671875</ele>
        <time>2013-03-24T11:12:48Z</time>
      </trkpt>
      <trkpt lat="47.452595746144652" lon="11.435933075845242">
        <ele>1758.388671875</ele>
        <time>2013-03-24T11:13:02Z</time>
      </trkpt>
      <trkpt lat="47.452598260715604" lon="11.435914468020201">
        <ele>1759.35009765625</ele>
        <time>2013-03-24T11:13:19Z</time>
      </trkpt>
      <trkpt lat="47.452586945146322" lon="11.43578932620585">
        <ele>1762.714599609375</ele>
        <time>2013-03-24T11:13:33Z</time>
      </trkpt>
      <trkpt lat="47.452586609870195" lon="11.43566326238215">
        <ele>1765.117919921875</ele>
        <time>2013-03-24T11:13:47Z</time>
      </trkpt>
      <trkpt lat="47.45257655158639" lon="11.435535354539752">
        <ele>1768.482421875</ele>
        <time>2013-03-24T11:14:02Z</time>
      </trkpt>
      <trkpt lat="47.452566074207425" lon="11.435402417555451">
        <ele>1771.846923828125</ele>
        <time>2013-03-24T11:14:23Z</time>
      </trkpt>
      <trkpt lat="47.452565236017108" lon="11.435315161943436">
        <ele>1773.289306640625</ele>
        <time>2013-03-24T11:14:52Z</time>
      </trkpt>
      <trkpt lat="47.452569594606757" lon="11.435240479186177">
        <ele>1775.6923828125</ele>
        <time>2013-03-24T11:15:01Z</time>
      </trkpt>
      <trkpt lat="47.452619886025786" lon="11.435191361233592">
        <ele>1778.576416015625</ele>
        <time>2013-03-24T11:15:16Z</time>
      </trkpt>
      <trkpt lat="47.452668165788054" lon="11.435202257707715">
        <ele>1780.4990234375</ele>
        <time>2013-03-24T11:15:29Z</time>
      </trkpt>
      <trkpt lat="47.452690294012427" lon="11.435206783935428">
        <ele>1782.421630859375</ele>
        <time>2013-03-24T11:15:51Z</time>
      </trkpt>
      <trkpt lat="47.452773526310921" lon="11.435230420902371">
        <ele>1785.7861328125</ele>
        <time>2013-03-24T11:16:06Z</time>
      </trkpt>
      <trkpt lat="47.452798001468182" lon="11.435225727036595">
        <ele>1786.266845703125</ele>
        <time>2013-03-24T11:16:17Z</time>
      </trkpt>
      <trkpt lat="47.452779812738299" lon="11.435165712609887">
        <ele>1787.708740234375</ele>
        <time>2013-03-24T11:16:26Z</time>
      </trkpt>
      <trkpt lat="47.452756511047482" lon="11.435065045952797">
        <ele>1791.073486328125</ele>
        <time>2013-03-24T11:16:38Z</time>
      </trkpt>
      <trkpt lat="47.452759863808751" lon="11.435005450621247">
        <ele>1792.034912109375</ele>
        <time>2013-03-24T11:16:45Z</time>
      </trkpt>
      <trkpt lat="47.452765479683876" lon="11.434990279376507">
        <ele>1792.034912109375</ele>
        <time>2013-03-24T11:16:56Z</time>
      </trkpt>
      <trkpt lat="47.452763970941305" lon="11.434957087039948">
        <ele>1792.515625</ele>
        <time>2013-03-24T11:17:05Z</time>
      </trkpt>
      <trkpt lat="47.452768329530954" lon="11.434966055676341">
        <ele>1792.515625</ele>
        <time>2013-03-24T11:17:12Z</time>
      </trkpt>
      <trkpt lat="47.452804539352655" lon="11.43499530851841">
        <ele>1794.918701171875</ele>
        <time>2013-03-24T11:17:23Z</time>
      </trkpt>
      <trkpt lat="47.452826583757997" lon="11.434987261891365">
        <ele>1795.880126953125</ele>
        <time>2013-03-24T11:17:32Z</time>
      </trkpt>
      <trkpt lat="47.452832786366343" lon="11.434931857511401">
        <ele>1797.802734375</ele>
        <time>2013-03-24T11:17:41Z</time>
      </trkpt>
      <trkpt lat="47.452834378927946" lon="11.434925822541118">
        <ele>1797.322021484375</ele>
        <time>2013-03-24T11:17:49Z</time>
      </trkpt>
      <trkpt lat="47.452858854085207" lon="11.434941496700048">
        <ele>1798.763916015625</ele>
        <time>2013-03-24T11:17:58Z</time>
      </trkpt>
      <trkpt lat="47.452940493822098" lon="11.434982484206557">
        <ele>1802.609130859375</ele>
        <time>2013-03-24T11:18:13Z</time>
      </trkpt>
      <trkpt lat="47.452983576804399" lon="11.435015760362148">
        <ele>1803.08984375</ele>
        <time>2013-03-24T11:18:25Z</time>
      </trkpt>
      <trkpt lat="47.45302414521575" lon="11.43503830768168">
        <ele>1805.0126953125</ele>
        <time>2013-03-24T11:18:36Z</time>
      </trkpt>
      <trkpt lat="47.453020624816418" lon="11.435019364580512">
        <ele>1805.0126953125</ele>
        <time>2013-03-24T11:18:44Z</time>
      </trkpt>
      <trkpt lat="47.453008973971009" lon="11.434923894703388">
        <ele>1807.896728515625</ele>
        <time>2013-03-24T11:18:58Z</time>
      </trkpt>
      <trkpt lat="47.45301584713161" lon="11.434794645756483">
        <ele>1811.26123046875</ele>
        <time>2013-03-24T11:19:14Z</time>
      </trkpt>
      <trkpt lat="47.453040825203061" lon="11.434631198644638">
        <ele>1814.14501953125</ele>
        <time>2013-03-24T11:19:34Z</time>
      </trkpt>
      <trkpt lat="47.453044094145298" lon="11.434506895020604">
        <ele>1817.029052734375</ele>
        <time>2013-03-24T11:19:49Z</time>
      </trkpt>
      <trkpt lat="47.453058511018753" lon="11.434361636638641">
        <ele>1820.393798828125</ele>
        <time>2013-03-24T11:20:06Z</time>
      </trkpt>
      <trkpt lat="47.45304468087852" lon="11.434245714917779">
        <ele>1821.835693359375</ele>
        <time>2013-03-24T11:20:20Z</time>
      </trkpt>
      <trkpt lat="47.453054403886199" lon="11.434217886999249">
        <ele>1821.835693359375</ele>
        <time>2013-03-24T11:20:30Z</time>
      </trkpt>
      <trkpt lat="47.453055744990706" lon="11.434213276952505">
        <ele>1821.835693359375</ele>
        <time>2013-03-24T11:20:42Z</time>
      </trkpt>
      <trkpt lat="47.453053900972009" lon="11.434212857857347">
        <ele>1821.835693359375</ele>
        <time>2013-03-24T11:20:49Z</time>
      </trkpt>
      <trkpt lat="47.453061696141958" lon="11.434205062687397">
        <ele>1820.87451171875</ele>
        <time>2013-03-24T11:20:58Z</time>
      </trkpt>
      <trkpt lat="47.453065803274512" lon="11.434231717139482">
        <ele>1819.912841796875</ele>
        <time>2013-03-24T11:28:10Z</time>
      </trkpt>
      <trkpt lat="47.453066473826766" lon="11.434236830100417">
        <ele>1818.95166015625</ele>
        <time>2013-03-24T11:31:14Z</time>
      </trkpt>
      <trkpt lat="47.453066222369671" lon="11.434242445975542">
        <ele>1816.067626953125</ele>
        <time>2013-03-24T11:36:35Z</time>
      </trkpt>
      <trkpt lat="47.453059935942292" lon="11.434248648583889">
        <ele>1818.95166015625</ele>
        <time>2013-03-24T11:39:30Z</time>
      </trkpt>
      <trkpt lat="47.453046189621091" lon="11.434255102649331">
        <ele>1817.990234375</ele>
        <time>2013-03-24T11:39:36Z</time>
      </trkpt>
      <trkpt lat="47.45304174721241" lon="11.434255857020617">
        <ele>1819.912841796875</ele>
        <time>2013-03-24T11:39:51Z</time>
      </trkpt>
      <trkpt lat="47.453029677271843" lon="11.434261808171868">
        <ele>1818.470947265625</ele>
        <time>2013-03-24T11:39:58Z</time>
      </trkpt>
      <trkpt lat="47.453019199892879" lon="11.434258539229631">
        <ele>1817.990234375</ele>
        <time>2013-03-24T11:40:07Z</time>
      </trkpt>
      <trkpt lat="47.452986175194383" lon="11.434273710474372">
        <ele>1817.029052734375</ele>
        <time>2013-03-24T11:40:18Z</time>
      </trkpt>
      <trkpt lat="47.452985504642129" lon="11.434276644140482">
        <ele>1817.029052734375</ele>
        <time>2013-03-24T11:40:29Z</time>
      </trkpt>
      <trkpt lat="47.452983744442463" lon="11.43427412956953">
        <ele>1817.509521484375</ele>
        <time>2013-03-24T11:41:17Z</time>
      </trkpt>
      <trkpt lat="47.452947702258825" lon="11.434147479012609">
        <ele>1815.587158203125</ele>
        <time>2013-03-24T11:41:22Z</time>
      </trkpt>
      <trkpt lat="47.452913671731949" lon="11.43396626226604">
        <ele>1812.222412109375</ele>
        <time>2013-03-24T11:41:25Z</time>
      </trkpt>
      <trkpt lat="47.452873857691884" lon="11.433787643909454">
        <ele>1805.973876953125</ele>
        <time>2013-03-24T11:41:28Z</time>
      </trkpt>
      <trkpt lat="47.45283798314631" lon="11.433673985302448">
        <ele>1802.609130859375</ele>
        <time>2013-03-24T11:41:30Z</time>
      </trkpt>
      <trkpt lat="47.452788529917598" lon="11.433563344180584">
        <ele>1798.763916015625</ele>
        <time>2013-03-24T11:41:32Z</time>
      </trkpt>
      <trkpt lat="47.452752739191055" lon="11.433445662260056">
        <ele>1795.3994140625</ele>
        <time>2013-03-24T11:41:34Z</time>
      </trkpt>
      <trkpt lat="47.452688533812761" lon="11.43327777273953">
        <ele>1792.515625</ele>
        <time>2013-03-24T11:41:37Z</time>
      </trkpt>
      <trkpt lat="47.452665902674198" lon="11.4332274813205">
        <ele>1790.5927734375</ele>
        <time>2013-03-24T11:41:38Z</time>
      </trkpt>
      <trkpt lat="47.452625082805753" lon="11.433030758053064">
        <ele>1785.7861328125</ele>
        <time>2013-03-24T11:41:43Z</time>
      </trkpt>
      <trkpt lat="47.452618209645152" lon="11.433050036430359">
        <ele>1785.7861328125</ele>
        <time>2013-03-24T11:42:05Z</time>
      </trkpt>
      <trkpt lat="47.452638493850827" lon="11.43296068534255">
        <ele>1782.421630859375</ele>
        <time>2013-03-24T11:42:09Z</time>
      </trkpt>
      <trkpt lat="47.452654922381043" lon="11.432852391153574">
        <ele>1779.056884765625</ele>
        <time>2013-03-24T11:42:11Z</time>
      </trkpt>
      <trkpt lat="47.452668584883213" lon="11.432735966518521">
        <ele>1775.6923828125</ele>
        <time>2013-03-24T11:42:13Z</time>
      </trkpt>
      <trkpt lat="47.452675625681877" lon="11.432678215205669">
        <ele>1772.327880859375</ele>
        <time>2013-03-24T11:42:14Z</time>
      </trkpt>
      <trkpt lat="47.45266254991293" lon="11.43259271979332">
        <ele>1768.482421875</ele>
        <time>2013-03-24T11:42:16Z</time>
      </trkpt>
      <trkpt lat="47.452617036178708" lon="11.432520383968949">
        <ele>1764.156494140625</ele>
        <time>2013-03-24T11:42:18Z</time>
      </trkpt>
      <trkpt lat="47.452613096684217" lon="11.432436481118202">
        <ele>1760.311279296875</ele>
        <time>2013-03-24T11:42:20Z</time>
      </trkpt>
      <trkpt lat="47.452618964016438" lon="11.432343441992998">
        <ele>1756.94677734375</ele>
        <time>2013-03-24T11:42:22Z</time>
      </trkpt>
      <trkpt lat="47.452565906569362" lon="11.432196507230401">
        <ele>1751.1787109375</ele>
        <time>2013-03-24T11:42:27Z</time>
      </trkpt>
      <trkpt lat="47.452601781114936" lon="11.432188041508198">
        <ele>1750.697998046875</ele>
        <time>2013-03-24T11:42:35Z</time>
      </trkpt>
      <trkpt lat="47.452597841620445" lon="11.43219105899334">
        <ele>1750.697998046875</ele>
        <time>2013-03-24T11:42:44Z</time>
      </trkpt>
      <trkpt lat="47.452589962631464" lon="11.432155603542924">
        <ele>1745.8916015625</ele>
        <time>2013-03-24T11:42:47Z</time>
      </trkpt>
      <trkpt lat="47.45256925933063" lon="11.432115286588669">
        <ele>1746.372314453125</ele>
        <time>2013-03-24T11:42:54Z</time>
      </trkpt>
      <trkpt lat="47.452474879100919" lon="11.432083267718554">
        <ele>1743.48828125</ele>
        <time>2013-03-24T11:43:01Z</time>
      </trkpt>
      <trkpt lat="47.452375637367368" lon="11.432076981291175">
        <ele>1741.565673828125</ele>
        <time>2013-03-24T11:43:04Z</time>
      </trkpt>
      <trkpt lat="47.452299948781729" lon="11.43206549808383">
        <ele>1740.123779296875</ele>
        <time>2013-03-24T11:43:06Z</time>
      </trkpt>
      <trkpt lat="47.452242532745004" lon="11.432039178907871">
        <ele>1739.162109375</ele>
        <time>2013-03-24T11:43:08Z</time>
      </trkpt>
      <trkpt lat="47.452243873849511" lon="11.43192233517766">
        <ele>1732.91357421875</ele>
        <time>2013-03-24T11:43:12Z</time>
      </trkpt>
      <trkpt lat="47.452303553000093" lon="11.431856537237763">
        <ele>1729.068359375</ele>
        <time>2013-03-24T11:43:14Z</time>
      </trkpt>
      <trkpt lat="47.452309001237154" lon="11.431792248040438">
        <ele>1727.14599609375</ele>
        <time>2013-03-24T11:43:16Z</time>
      </trkpt>
      <trkpt lat="47.452257452532649" lon="11.431740866973996">
        <ele>1725.703857421875</ele>
        <time>2013-03-24T11:43:18Z</time>
      </trkpt>
      <trkpt lat="47.452204897999763" lon="11.431654198095202">
        <ele>1720.41650390625</ele>
        <time>2013-03-24T11:43:21Z</time>
      </trkpt>
      <trkpt lat="47.45225259102881" lon="11.431621089577675">
        <ele>1719.935791015625</ele>
        <time>2013-03-24T11:43:26Z</time>
      </trkpt>
      <trkpt lat="47.452255357056856" lon="11.431638859212399">
        <ele>1719.935791015625</ele>
        <time>2013-03-24T11:43:47Z</time>
      </trkpt>
      <trkpt lat="47.452244963496923" lon="11.431568032130599">
        <ele>1715.610107421875</ele>
        <time>2013-03-24T11:43:51Z</time>
      </trkpt>
      <trkpt lat="47.452216045930982" lon="11.431446997448802">
        <ele>1709.842041015625</ele>
        <time>2013-03-24T11:43:54Z</time>
      </trkpt>
      <trkpt lat="47.45220523327589" lon="11.431404417380691">
        <ele>1709.842041015625</ele>
        <time>2013-03-24T11:43:55Z</time>
      </trkpt>
      <trkpt lat="47.452200874686241" lon="11.431295117363334">
        <ele>1705.99658203125</ele>
        <time>2013-03-24T11:43:58Z</time>
      </trkpt>
      <trkpt lat="47.452210765331984" lon="11.431218590587378">
        <ele>1701.190185546875</ele>
        <time>2013-03-24T11:44:00Z</time>
      </trkpt>
      <trkpt lat="47.452197019010782" lon="11.43114248290658">
        <ele>1698.30615234375</ele>
        <time>2013-03-24T11:44:02Z</time>
      </trkpt>
      <trkpt lat="47.452206239104271" lon="11.431007785722613">
        <ele>1693.499755859375</ele>
        <time>2013-03-24T11:44:06Z</time>
      </trkpt>
      <trkpt lat="47.452134154736996" lon="11.430944334715605">
        <ele>1693.01904296875</ele>
        <time>2013-03-24T11:44:11Z</time>
      </trkpt>
      <trkpt lat="47.452102806419134" lon="11.430939305573702">
        <ele>1691.09619140625</ele>
        <time>2013-03-24T11:44:25Z</time>
      </trkpt>
      <trkpt lat="47.452041199430823" lon="11.430859174579382">
        <ele>1689.654296875</ele>
        <time>2013-03-24T11:44:28Z</time>
      </trkpt>
      <trkpt lat="47.451954362913966" lon="11.43072615377605">
        <ele>1687.731689453125</ele>
        <time>2013-03-24T11:44:31Z</time>
      </trkpt>
      <trkpt lat="47.451872052624822" lon="11.430598497390747">
        <ele>1685.80908203125</ele>
        <time>2013-03-24T11:44:34Z</time>
      </trkpt>
      <trkpt lat="47.451796531677246" lon="11.430473607033491">
        <ele>1684.3671875</ele>
        <time>2013-03-24T11:44:37Z</time>
      </trkpt>
      <trkpt lat="47.451675413176417" lon="11.430266490206122">
        <ele>1681.002685546875</ele>
        <time>2013-03-24T11:44:42Z</time>
      </trkpt>
      <trkpt lat="47.451648423448205" lon="11.430228352546692">
        <ele>1681.002685546875</ele>
        <time>2013-03-24T11:44:43Z</time>
      </trkpt>
      <trkpt lat="47.451558569446206" lon="11.430115783587098">
        <ele>1679.079833984375</ele>
        <time>2013-03-24T11:44:46Z</time>
      </trkpt>
      <trkpt lat="47.451419932767749" lon="11.429958874359727">
        <ele>1675.715087890625</ele>
        <time>2013-03-24T11:44:50Z</time>
      </trkpt>
      <trkpt lat="47.451380454003811" lon="11.429910846054554">
        <ele>1675.234375</ele>
        <time>2013-03-24T11:44:51Z</time>
      </trkpt>
      <trkpt lat="47.451284062117338" lon="11.429759552702308">
        <ele>1673.79248046875</ele>
        <time>2013-03-24T11:44:53Z</time>
      </trkpt>
      <trkpt lat="47.451230334118009" lon="11.429615383967757">
        <ele>1673.31201171875</ele>
        <time>2013-03-24T11:44:55Z</time>
      </trkpt>
      <trkpt lat="47.451231675222516" lon="11.429380942136049">
        <ele>1669.466796875</ele>
        <time>2013-03-24T11:45:00Z</time>
      </trkpt>
      <trkpt lat="47.451210636645555" lon="11.429066704586148">
        <ele>1667.5439453125</ele>
        <time>2013-03-24T11:45:04Z</time>
      </trkpt>
      <trkpt lat="47.451233519241214" lon="11.428861683234572">
        <ele>1666.582763671875</ele>
        <time>2013-03-24T11:45:10Z</time>
      </trkpt>
      <trkpt lat="47.451234608888626" lon="11.428891522809863">
        <ele>1666.10205078125</ele>
        <time>2013-03-24T11:45:19Z</time>
      </trkpt>
      <trkpt lat="47.451239554211497" lon="11.428889259696007">
        <ele>1665.62158203125</ele>
        <time>2013-03-24T11:45:23Z</time>
      </trkpt>
      <trkpt lat="47.451268471777439" lon="11.428867299109697">
        <ele>1664.66015625</ele>
        <time>2013-03-24T11:45:25Z</time>
      </trkpt>
      <trkpt lat="47.45134374126792" lon="11.428872076794505">
        <ele>1662.737548828125</ele>
        <time>2013-03-24T11:45:27Z</time>
      </trkpt>
      <trkpt lat="47.451482713222504" lon="11.428889511153102">
        <ele>1656.969482421875</ele>
        <time>2013-03-24T11:45:30Z</time>
      </trkpt>
      <trkpt lat="47.451573321595788" lon="11.428885320201516">
        <ele>1653.60498046875</ele>
        <time>2013-03-24T11:45:32Z</time>
      </trkpt>
      <trkpt lat="47.451615398749709" lon="11.428881799802184">
        <ele>1650.240478515625</ele>
        <time>2013-03-24T11:45:33Z</time>
      </trkpt>
      <trkpt lat="47.45176836848259" lon="11.428778199478984">
        <ele>1642.069091796875</ele>
        <time>2013-03-24T11:45:38Z</time>
      </trkpt>
      <trkpt lat="47.451836010441184" lon="11.428744420409203">
        <ele>1638.223876953125</ele>
        <time>2013-03-24T11:45:40Z</time>
      </trkpt>
      <trkpt lat="47.451908849179745" lon="11.428721956908703">
        <ele>1634.378662109375</ele>
        <time>2013-03-24T11:45:42Z</time>
      </trkpt>
      <trkpt lat="47.451982274651527" lon="11.428706618025899">
        <ele>1630.052734375</ele>
        <time>2013-03-24T11:45:44Z</time>
      </trkpt>
      <trkpt lat="47.452019406482577" lon="11.428698822855949">
        <ele>1626.68798828125</ele>
        <time>2013-03-24T11:45:45Z</time>
      </trkpt>
      <trkpt lat="47.452094759792089" lon="11.42871055752039">
        <ele>1621.88134765625</ele>
        <time>2013-03-24T11:45:47Z</time>
      </trkpt>
      <trkpt lat="47.452167011797428" lon="11.42859379760921">
        <ele>1618.0361328125</ele>
        <time>2013-03-24T11:45:50Z</time>
      </trkpt>
      <trkpt lat="47.452220572158694" lon="11.428529508411884">
        <ele>1613.710205078125</ele>
        <time>2013-03-24T11:45:52Z</time>
      </trkpt>
      <trkpt lat="47.452290980145335" lon="11.428496232256293">
        <ele>1609.38427734375</ele>
        <time>2013-03-24T11:45:55Z</time>
      </trkpt>
      <trkpt lat="47.452297434210777" lon="11.428510313853621">
        <ele>1608.4228515625</ele>
        <time>2013-03-24T11:45:58Z</time>
      </trkpt>
      <trkpt lat="47.452292488887906" lon="11.428512576967478">
        <ele>1608.4228515625</ele>
        <time>2013-03-24T11:46:07Z</time>
      </trkpt>
      <trkpt lat="47.452294332906604" lon="11.42851366661489">
        <ele>1608.4228515625</ele>
        <time>2013-03-24T11:46:31Z</time>
      </trkpt>
      <trkpt lat="47.452359208837152" lon="11.428524814546108">
        <ele>1604.57763671875</ele>
        <time>2013-03-24T11:46:34Z</time>
      </trkpt>
      <trkpt lat="47.45237622410059" lon="11.428517689928412">
        <ele>1604.57763671875</ele>
        <time>2013-03-24T11:46:35Z</time>
      </trkpt>
      <trkpt lat="47.452409164980054" lon="11.42849899828434">
        <ele>1601.213134765625</ele>
        <time>2013-03-24T11:46:36Z</time>
      </trkpt>
      <trkpt lat="47.452458953484893" lon="11.428434457629919">
        <ele>1598.3291015625</ele>
        <time>2013-03-24T11:46:38Z</time>
      </trkpt>
      <trkpt lat="47.452485272660851" lon="11.428404115140438">
        <ele>1597.8486328125</ele>
        <time>2013-03-24T11:46:39Z</time>
      </trkpt>
      <trkpt lat="47.452590297907591" lon="11.428342759609222">
        <ele>1587.754638671875</ele>
        <time>2013-03-24T11:46:42Z</time>
      </trkpt>
      <trkpt lat="47.452672272920609" lon="11.428345944732428">
        <ele>1584.39013671875</ele>
        <time>2013-03-24T11:46:44Z</time>
      </trkpt>
      <trkpt lat="47.452718121930957" lon="11.428291210904717">
        <ele>1581.98681640625</ele>
        <time>2013-03-24T11:46:46Z</time>
      </trkpt>
      <trkpt lat="47.452765312045813" lon="11.428241338580847">
        <ele>1578.6220703125</ele>
        <time>2013-03-24T11:46:48Z</time>
      </trkpt>
      <trkpt lat="47.452838569879532" lon="11.428224742412567">
        <ele>1574.296142578125</ele>
        <time>2013-03-24T11:46:50Z</time>
      </trkpt>
      <trkpt lat="47.452951390296221" lon="11.428214265033603">
        <ele>1569.97021484375</ele>
        <time>2013-03-24T11:46:53Z</time>
      </trkpt>
      <trkpt lat="47.452994138002396" lon="11.428220048546791">
        <ele>1566.125</ele>
        <time>2013-03-24T11:46:54Z</time>
      </trkpt>
      <trkpt lat="47.453042585402727" lon="11.428238656371832">
        <ele>1566.125</ele>
        <time>2013-03-24T11:46:55Z</time>
      </trkpt>
      <trkpt lat="47.453122297301888" lon="11.428221054375172">
        <ele>1562.76025390625</ele>
        <time>2013-03-24T11:46:57Z</time>
      </trkpt>
      <trkpt lat="47.453173594549298" lon="11.428217282518744">
        <ele>1558.434326171875</ele>
        <time>2013-03-24T11:46:59Z</time>
      </trkpt>
      <trkpt lat="47.453180300071836" lon="11.428224155679345">
        <ele>1558.434326171875</ele>
        <time>2013-03-24T11:47:00Z</time>
      </trkpt>
      <trkpt lat="47.453171079978347" lon="11.428234884515405">
        <ele>1557.953857421875</ele>
        <time>2013-03-24T11:47:11Z</time>
      </trkpt>
      <trkpt lat="47.453172085806727" lon="11.428234297782183">
        <ele>1558.434326171875</ele>
        <time>2013-03-24T11:47:54Z</time>
      </trkpt>
      <trkpt lat="47.453228998929262" lon="11.428163889795542">
        <ele>1554.589111328125</ele>
        <time>2013-03-24T11:47:58Z</time>
      </trkpt>
      <trkpt lat="47.453294545412064" lon="11.42808711156249">
        <ele>1552.66650390625</ele>
        <time>2013-03-24T11:48:00Z</time>
      </trkpt>
      <trkpt lat="47.453331425786018" lon="11.428051488474011">
        <ele>1548.8212890625</ele>
        <time>2013-03-24T11:48:01Z</time>
      </trkpt>
      <trkpt lat="47.453362438827753" lon="11.428007986396551">
        <ele>1548.340576171875</ele>
        <time>2013-03-24T11:48:02Z</time>
      </trkpt>
      <trkpt lat="47.45342530310154" lon="11.427953001111746">
        <ele>1544.975830078125</ele>
        <time>2013-03-24T11:48:04Z</time>
      </trkpt>
      <trkpt lat="47.453481294214725" lon="11.427848981693387">
        <ele>1540.64990234375</ele>
        <time>2013-03-24T11:48:07Z</time>
      </trkpt>
      <trkpt lat="47.453595288097858" lon="11.427729874849319">
        <ele>1534.88232421875</ele>
        <time>2013-03-24T11:48:11Z</time>
      </trkpt>
      <trkpt lat="47.453649519011378" lon="11.427662232890725">
        <ele>1531.036865234375</ele>
        <time>2013-03-24T11:48:13Z</time>
      </trkpt>
      <trkpt lat="47.453696373850107" lon="11.427606660872698">
        <ele>1528.633544921875</ele>
        <time>2013-03-24T11:48:15Z</time>
      </trkpt>
      <trkpt lat="47.453710036352277" lon="11.427569109946489">
        <ele>1525.74951171875</ele>
        <time>2013-03-24T11:48:16Z</time>
      </trkpt>
      <trkpt lat="47.453725878149271" lon="11.427537091076374">
        <ele>1525.74951171875</ele>
        <time>2013-03-24T11:48:17Z</time>
      </trkpt>
      <trkpt lat="47.453777845948935" lon="11.427483865991235">
        <ele>1522.86572265625</ele>
        <time>2013-03-24T11:48:19Z</time>
      </trkpt>
      <trkpt lat="47.453800644725561" lon="11.427426701411605">
        <ele>1521.904296875</ele>
        <time>2013-03-24T11:48:21Z</time>
      </trkpt>
      <trkpt lat="47.453780947253108" lon="11.427431730553508">
        <ele>1522.385009765625</ele>
        <time>2013-03-24T11:48:32Z</time>
      </trkpt>
      <trkpt lat="47.453781785443425" lon="11.427433239296079">
        <ele>1521.423583984375</ele>
        <time>2013-03-24T11:48:58Z</time>
      </trkpt>
      <trkpt lat="47.453782120719552" lon="11.427433993667364">
        <ele>1522.385009765625</ele>
        <time>2013-03-24T11:49:03Z</time>
      </trkpt>
      <trkpt lat="47.45385236106813" lon="11.427448242902756">
        <ele>1519.0205078125</ele>
        <time>2013-03-24T11:49:07Z</time>
      </trkpt>
      <trkpt lat="47.453939951956272" lon="11.427460229024291">
        <ele>1514.6943359375</ele>
        <time>2013-03-24T11:49:09Z</time>
      </trkpt>
      <trkpt lat="47.454042546451092" lon="11.427442627027631">
        <ele>1511.329833984375</ele>
        <time>2013-03-24T11:49:11Z</time>
      </trkpt>
      <trkpt lat="47.454098537564278" lon="11.427440866827965">
        <ele>1507.96533203125</ele>
        <time>2013-03-24T11:49:12Z</time>
      </trkpt>
      <trkpt lat="47.45421445928514" lon="11.427412871271372">
        <ele>1504.6005859375</ele>
        <time>2013-03-24T11:49:14Z</time>
      </trkpt>
      <trkpt lat="47.454444877803326" lon="11.427237689495087">
        <ele>1497.390625</ele>
        <time>2013-03-24T11:49:18Z</time>
      </trkpt>
      <trkpt lat="47.454593740403652" lon="11.427216148003936">
        <ele>1491.14208984375</ele>
        <time>2013-03-24T11:49:24Z</time>
      </trkpt>
      <trkpt lat="47.454595835879445" lon="11.427188571542501">
        <ele>1491.622802734375</ele>
        <time>2013-03-24T11:49:34Z</time>
      </trkpt>
      <trkpt lat="47.454595668241382" lon="11.4271782618016">
        <ele>1491.14208984375</ele>
        <time>2013-03-24T11:49:50Z</time>
      </trkpt>
      <trkpt lat="47.454599104821682" lon="11.427172897383571">
        <ele>1491.622802734375</ele>
        <time>2013-03-24T11:49:53Z</time>
      </trkpt>
      <trkpt lat="47.454684516415" lon="11.427136268466711">
        <ele>1488.25830078125</ele>
        <time>2013-03-24T11:49:57Z</time>
      </trkpt>
      <trkpt lat="47.454713014885783" lon="11.427104752510786">
        <ele>1485.85498046875</ele>
        <time>2013-03-24T11:49:59Z</time>
      </trkpt>
      <trkpt lat="47.454707566648722" lon="11.427113637328148">
        <ele>1485.85498046875</ele>
        <time>2013-03-24T11:50:03Z</time>
      </trkpt>
      <trkpt lat="47.454763054847717" lon="11.427153283730149">
        <ele>1484.4130859375</ele>
        <time>2013-03-24T11:50:06Z</time>
      </trkpt>
      <trkpt lat="47.454918203875422" lon="11.427266355603933">
        <ele>1478.64501953125</ele>
        <time>2013-03-24T11:50:09Z</time>
      </trkpt>
      <trkpt lat="47.455035718157887" lon="11.427229642868042">
        <ele>1474.7998046875</ele>
        <time>2013-03-24T11:50:11Z</time>
      </trkpt>
      <trkpt lat="47.455069497227669" lon="11.42717088572681">
        <ele>1475.2802734375</ele>
        <time>2013-03-24T11:50:12Z</time>
      </trkpt>
      <trkpt lat="47.455112496390939" lon="11.427038284018636">
        <ele>1474.319091796875</ele>
        <time>2013-03-24T11:50:15Z</time>
      </trkpt>
      <trkpt lat="47.455315673723817" lon="11.427127299830317">
        <ele>1468.070556640625</ele>
        <time>2013-03-24T11:50:19Z</time>
      </trkpt>
      <trkpt lat="47.45541600510478" lon="11.4271523617208">
        <ele>1464.705810546875</ele>
        <time>2013-03-24T11:50:21Z</time>
      </trkpt>
      <trkpt lat="47.455556401982903" lon="11.427093185484409">
        <ele>1460.860595703125</ele>
        <time>2013-03-24T11:50:24Z</time>
      </trkpt>
      <trkpt lat="47.455660672858357" lon="11.427061418071389">
        <ele>1456.053955078125</ele>
        <time>2013-03-24T11:50:26Z</time>
      </trkpt>
      <trkpt lat="47.455799644812942" lon="11.426920350641012">
        <ele>1454.131591796875</ele>
        <time>2013-03-24T11:50:29Z</time>
      </trkpt>
      <trkpt lat="47.455832250416279" lon="11.426807530224323">
        <ele>1451.72802734375</ele>
        <time>2013-03-24T11:50:34Z</time>
      </trkpt>
      <trkpt lat="47.455822443589568" lon="11.426826808601618">
        <ele>1452.208740234375</ele>
        <time>2013-03-24T11:50:44Z</time>
      </trkpt>
      <trkpt lat="47.4558225274086" lon="11.426826724782586">
        <ele>1452.208740234375</ele>
        <time>2013-03-24T11:50:59Z</time>
      </trkpt>
      <trkpt lat="47.455831076949835" lon="11.426821276545525">
        <ele>1451.72802734375</ele>
        <time>2013-03-24T11:51:29Z</time>
      </trkpt>
      <trkpt lat="47.455957056954503" lon="11.42676830291748">
        <ele>1448.36328125</ele>
        <time>2013-03-24T11:51:33Z</time>
      </trkpt>
      <trkpt lat="47.456064932048321" lon="11.426764614880085">
        <ele>1444.998779296875</ele>
        <time>2013-03-24T11:51:35Z</time>
      </trkpt>
      <trkpt lat="47.456200635060668" lon="11.426808955147862">
        <ele>1441.153564453125</ele>
        <time>2013-03-24T11:51:38Z</time>
      </trkpt>
      <trkpt lat="47.456242628395557" lon="11.426818091422319">
        <ele>1441.153564453125</ele>
        <time>2013-03-24T11:51:39Z</time>
      </trkpt>
      <trkpt lat="47.456334829330444" lon="11.426817169412971">
        <ele>1436.82763671875</ele>
        <time>2013-03-24T11:51:41Z</time>
      </trkpt>
      <trkpt lat="47.456553848460317" lon="11.426741564646363">
        <ele>1429.136962890625</ele>
        <time>2013-03-24T11:51:45Z</time>
      </trkpt>
      <trkpt lat="47.456661639735103" lon="11.426699571311474">
        <ele>1425.7724609375</ele>
        <time>2013-03-24T11:51:47Z</time>
      </trkpt>
      <trkpt lat="47.456786530092359" lon="11.426720106974244">
        <ele>1423.849853515625</ele>
        <time>2013-03-24T11:51:49Z</time>
      </trkpt>
      <trkpt lat="47.456970931962132" lon="11.426901575177908">
        <ele>1417.60107421875</ele>
        <time>2013-03-24T11:51:52Z</time>
      </trkpt>
      <trkpt lat="47.456998927518725" lon="11.426986316218972">
        <ele>1418.5625</ele>
        <time>2013-03-24T11:51:53Z</time>
      </trkpt>
      <trkpt lat="47.457062546163797" lon="11.427077176049352">
        <ele>1416.1591796875</ele>
        <time>2013-03-24T11:51:55Z</time>
      </trkpt>
      <trkpt lat="47.457264717668295" lon="11.427002074196935">
        <ele>1411.352783203125</ele>
        <time>2013-03-24T11:51:58Z</time>
      </trkpt>
      <trkpt lat="47.457482144236565" lon="11.426961338147521">
        <ele>1406.0654296875</ele>
        <time>2013-03-24T11:52:01Z</time>
      </trkpt>
      <trkpt lat="47.457648944109678" lon="11.426874166354537">
        <ele>1401.2587890625</ele>
        <time>2013-03-24T11:52:04Z</time>
      </trkpt>
      <trkpt lat="47.457632515579462" lon="11.426773415878415">
        <ele>1396.932861328125</ele>
        <time>2013-03-24T11:52:06Z</time>
      </trkpt>
      <trkpt lat="47.457612231373787" lon="11.42675849609077">
        <ele>1397.41357421875</ele>
        <time>2013-03-24T11:52:07Z</time>
      </trkpt>
      <trkpt lat="47.457597479224205" lon="11.426775678992271">
        <ele>1400.297607421875</ele>
        <time>2013-03-24T11:52:09Z</time>
      </trkpt>
      <trkpt lat="47.457614913582802" lon="11.426768219098449">
        <ele>1398.85546875</ele>
        <time>2013-03-24T11:52:19Z</time>
      </trkpt>
      <trkpt lat="47.457614075392485" lon="11.426773918792605">
        <ele>1400.297607421875</ele>
        <time>2013-03-24T11:52:30Z</time>
      </trkpt>
      <trkpt lat="47.457692781463265" lon="11.426737960427999">
        <ele>1397.894287109375</ele>
        <time>2013-03-24T11:52:35Z</time>
      </trkpt>
      <trkpt lat="47.457702588289976" lon="11.42672429792583">
        <ele>1397.894287109375</ele>
        <time>2013-03-24T11:52:36Z</time>
      </trkpt>
      <trkpt lat="47.457716083154082" lon="11.426668558269739">
        <ele>1396.932861328125</ele>
        <time>2013-03-24T11:52:41Z</time>
      </trkpt>
      <trkpt lat="47.457712227478623" lon="11.426688674837351">
        <ele>1396.932861328125</ele>
        <time>2013-03-24T11:52:50Z</time>
      </trkpt>
      <trkpt lat="47.457730080932379" lon="11.426657075062394">
        <ele>1397.41357421875</ele>
        <time>2013-03-24T11:53:01Z</time>
      </trkpt>
      <trkpt lat="47.457741647958755" lon="11.4266377966851">
        <ele>1396.932861328125</ele>
        <time>2013-03-24T11:53:03Z</time>
      </trkpt>
      <trkpt lat="47.457896964624524" lon="11.426504189148545">
        <ele>1393.568359375</ele>
        <time>2013-03-24T11:53:08Z</time>
      </trkpt>
      <trkpt lat="47.457981370389462" lon="11.426462614908814">
        <ele>1392.607177734375</ele>
        <time>2013-03-24T11:53:10Z</time>
      </trkpt>
      <trkpt lat="47.458162503316998" lon="11.426493376493454">
        <ele>1388.28125</ele>
        <time>2013-03-24T11:53:13Z</time>
      </trkpt>
      <trkpt lat="47.458356963470578" lon="11.426563700661063">
        <ele>1385.39697265625</ele>
        <time>2013-03-24T11:53:16Z</time>
      </trkpt>
      <trkpt lat="47.458526445552707" lon="11.426588259637356">
        <ele>1381.5517578125</ele>
        <time>2013-03-24T11:53:19Z</time>
      </trkpt>
      <trkpt lat="47.458571791648865" lon="11.426552049815655">
        <ele>1379.629150390625</ele>
        <time>2013-03-24T11:53:20Z</time>
      </trkpt>
      <trkpt lat="47.458767425268888" lon="11.42649220302701">
        <ele>1375.783935546875</ele>
        <time>2013-03-24T11:53:24Z</time>
      </trkpt>
      <trkpt lat="47.458880832418799" lon="11.42645850777626">
        <ele>1373.380859375</ele>
        <time>2013-03-24T11:53:26Z</time>
      </trkpt>
      <trkpt lat="47.459149472415447" lon="11.426394386216998">
        <ele>1369.0546875</ele>
        <time>2013-03-24T11:53:31Z</time>
      </trkpt>
      <trkpt lat="47.459376705810428" lon="11.426221383735538">
        <ele>1363.286865234375</ele>
        <time>2013-03-24T11:53:35Z</time>
      </trkpt>
      <trkpt lat="47.459483407437801" lon="11.42621174454689">
        <ele>1362.80615234375</ele>
        <time>2013-03-24T11:53:37Z</time>
      </trkpt>
      <trkpt lat="47.459625648334622" lon="11.426334036514163">
        <ele>1359.922119140625</ele>
        <time>2013-03-24T11:53:40Z</time>
      </trkpt>
      <trkpt lat="47.459669737145305" lon="11.426400421187282">
        <ele>1358.9609375</ele>
        <time>2013-03-24T11:53:41Z</time>
      </trkpt>
      <trkpt lat="47.459760094061494" lon="11.426496142521501">
        <ele>1357.51904296875</ele>
        <time>2013-03-24T11:53:43Z</time>
      </trkpt>
      <trkpt lat="47.459866208955646" lon="11.426553139463067">
        <ele>1356.076904296875</ele>
        <time>2013-03-24T11:53:45Z</time>
      </trkpt>
      <trkpt lat="47.459908202290535" lon="11.426642742007971">
        <ele>1353.19287109375</ele>
        <time>2013-03-24T11:53:49Z</time>
      </trkpt>
      <trkpt lat="47.459889929741621" lon="11.426615249365568">
        <ele>1352.2314453125</ele>
        <time>2013-03-24T11:54:05Z</time>
      </trkpt>
      <trkpt lat="47.459885235875845" lon="11.426619188860059">
        <ele>1352.712158203125</ele>
        <time>2013-03-24T11:54:26Z</time>
      </trkpt>
      <trkpt lat="47.459884230047464" lon="11.426625978201628">
        <ele>1353.19287109375</ele>
        <time>2013-03-24T11:54:27Z</time>
      </trkpt>
      <trkpt lat="47.460025548934937" lon="11.426753718405962">
        <ele>1352.2314453125</ele>
        <time>2013-03-24T11:54:35Z</time>
      </trkpt>
      <trkpt lat="47.460061423480511" lon="11.426776936277747">
        <ele>1351.270263671875</ele>
        <time>2013-03-24T11:54:36Z</time>
      </trkpt>
      <trkpt lat="47.460268372669816" lon="11.42704046331346">
        <ele>1347.425048828125</ele>
        <time>2013-03-24T11:54:41Z</time>
      </trkpt>
      <trkpt lat="47.460370045155287" lon="11.427190080285072">
        <ele>1345.50244140625</ele>
        <time>2013-03-24T11:54:43Z</time>
      </trkpt>
      <trkpt lat="47.460632650181651" lon="11.427442794665694">
        <ele>1341.6572265625</ele>
        <time>2013-03-24T11:54:47Z</time>
      </trkpt>
      <trkpt lat="47.460764246061444" lon="11.427588388323784">
        <ele>1339.253662109375</ele>
        <time>2013-03-24T11:54:49Z</time>
      </trkpt>
      <trkpt lat="47.461018636822701" lon="11.427809670567513">
        <ele>1334.927978515625</ele>
        <time>2013-03-24T11:54:53Z</time>
      </trkpt>
      <trkpt lat="47.461159704253078" lon="11.427949983626604">
        <ele>1332.524658203125</ele>
        <time>2013-03-24T11:54:56Z</time>
      </trkpt>
      <trkpt lat="47.4612120911479" lon="11.427957946434617">
        <ele>1332.0439453125</ele>
        <time>2013-03-24T11:54:57Z</time>
      </trkpt>
      <trkpt lat="47.461320469155908" lon="11.427953336387873">
        <ele>1331.082763671875</ele>
        <time>2013-03-24T11:54:59Z</time>
      </trkpt>
      <trkpt lat="47.461429182440042" lon="11.428033467382193">
        <ele>1329.159912109375</ele>
        <time>2013-03-24T11:55:02Z</time>
      </trkpt>
      <trkpt lat="47.461456255987287" lon="11.4280797354877">
        <ele>1328.679443359375</ele>
        <time>2013-03-24T11:55:03Z</time>
      </trkpt>
      <trkpt lat="47.461548373103142" lon="11.428239746019244">
        <ele>1326.7568359375</ele>
        <time>2013-03-24T11:55:06Z</time>
      </trkpt>
      <trkpt lat="47.461785245686769" lon="11.428474439308047">
        <ele>1323.87255859375</ele>
        <time>2013-03-24T11:55:11Z</time>
      </trkpt>
      <trkpt lat="47.462026895955205" lon="11.428747521713376">
        <ele>1320.508056640625</ele>
        <time>2013-03-24T11:55:16Z</time>
      </trkpt>
      <trkpt lat="47.462243987247348" lon="11.428987579420209">
        <ele>1318.104736328125</ele>
        <time>2013-03-24T11:55:20Z</time>
      </trkpt>
      <trkpt lat="47.462414726614952" lon="11.429167371243238">
        <ele>1314.740234375</ele>
        <time>2013-03-24T11:55:23Z</time>
      </trkpt>
      <trkpt lat="47.462527295574546" lon="11.429292261600494">
        <ele>1313.77880859375</ele>
        <time>2013-03-24T11:55:25Z</time>
      </trkpt>
      <trkpt lat="47.462759306654334" lon="11.42953734844923">
        <ele>1309.93359375</ele>
        <time>2013-03-24T11:55:29Z</time>
      </trkpt>
      <trkpt lat="47.462877072393894" lon="11.429677829146385">
        <ele>1308.01123046875</ele>
        <time>2013-03-24T11:55:31Z</time>
      </trkpt>
      <trkpt lat="47.463161386549473" lon="11.429887460544705">
        <ele>1305.126953125</ele>
        <time>2013-03-24T11:55:35Z</time>
      </trkpt>
      <trkpt lat="47.46346958912909" lon="11.429938087239861">
        <ele>1300.801025390625</ele>
        <time>2013-03-24T11:55:39Z</time>
      </trkpt>
      <trkpt lat="47.463629264384508" lon="11.429953007027507">
        <ele>1299.83984375</ele>
        <time>2013-03-24T11:55:41Z</time>
      </trkpt>
      <trkpt lat="47.463708557188511" lon="11.429966501891613">
        <ele>1299.359130859375</ele>
        <time>2013-03-24T11:55:42Z</time>
      </trkpt>
      <trkpt lat="47.463925732299685" lon="11.43008217215538">
        <ele>1296.955810546875</ele>
        <time>2013-03-24T11:55:45Z</time>
      </trkpt>
      <trkpt lat="47.464046347886324" lon="11.430236902087927">
        <ele>1295.033203125</ele>
        <time>2013-03-24T11:55:47Z</time>
      </trkpt>
      <trkpt lat="47.464406099170446" lon="11.430494897067547">
        <ele>1289.745849609375</ele>
        <time>2013-03-24T11:55:52Z</time>
      </trkpt>
      <trkpt lat="47.46474246494472" lon="11.430809637531638">
        <ele>1283.97802734375</ele>
        <time>2013-03-24T11:55:57Z</time>
      </trkpt>
      <trkpt lat="47.46497992426157" lon="11.43111758865416">
        <ele>1280.613525390625</ele>
        <time>2013-03-24T11:56:01Z</time>
      </trkpt>
      <trkpt lat="47.465292988345027" lon="11.431446494534612">
        <ele>1277.2490234375</ele>
        <time>2013-03-24T11:56:06Z</time>
      </trkpt>
      <trkpt lat="47.465474959462881" lon="11.431606588885188">
        <ele>1275.806640625</ele>
        <time>2013-03-24T11:56:09Z</time>
      </trkpt>
      <trkpt lat="47.465707389637828" lon="11.431818818673491">
        <ele>1272.442138671875</ele>
        <time>2013-03-24T11:56:13Z</time>
      </trkpt>
      <trkpt lat="47.465897323563695" lon="11.431972375139594">
        <ele>1269.07763671875</ele>
        <time>2013-03-24T11:56:16Z</time>
      </trkpt>
      <trkpt lat="47.465955158695579" lon="11.432026186957955">
        <ele>1268.1162109375</ele>
        <time>2013-03-24T11:56:17Z</time>
      </trkpt>
      <trkpt lat="47.466145260259509" lon="11.432264149188995">
        <ele>1265.713134765625</ele>
        <time>2013-03-24T11:56:21Z</time>
      </trkpt>
      <trkpt lat="47.466237880289555" lon="11.432398511096835">
        <ele>1265.232421875</ele>
        <time>2013-03-24T11:56:23Z</time>
      </trkpt>
      <trkpt lat="47.466417588293552" lon="11.432678801938891">
        <ele>1262.8291015625</ele>
        <time>2013-03-24T11:56:27Z</time>
      </trkpt>
      <trkpt lat="47.466702992096543" lon="11.433006534352899">
        <ele>1258.983642578125</ele>
        <time>2013-03-24T11:56:33Z</time>
      </trkpt>
      <trkpt lat="47.467001471668482" lon="11.433343486860394">
        <ele>1256.580322265625</ele>
        <time>2013-03-24T11:56:39Z</time>
      </trkpt>
      <trkpt lat="47.46718411333859" lon="11.433823769912124">
        <ele>1252.735107421875</ele>
        <time>2013-03-24T11:56:45Z</time>
      </trkpt>
      <trkpt lat="47.467269441112876" lon="11.434168852865696">
        <ele>1249.851318359375</ele>
        <time>2013-03-24T11:56:49Z</time>
      </trkpt>
      <trkpt lat="47.467397013679147" lon="11.434688530862331">
        <ele>1246.48681640625</ele>
        <time>2013-03-24T11:56:55Z</time>
      </trkpt>
      <trkpt lat="47.467509834095836" lon="11.435145093128085">
        <ele>1242.641357421875</ele>
        <time>2013-03-24T11:57:00Z</time>
      </trkpt>
      <trkpt lat="47.467604298144579" lon="11.435404848307371">
        <ele>1242.16064453125</ele>
        <time>2013-03-24T11:57:03Z</time>
      </trkpt>
      <trkpt lat="47.467640843242407" lon="11.435613306239247">
        <ele>1239.276611328125</ele>
        <time>2013-03-24T11:57:06Z</time>
      </trkpt>
      <trkpt lat="47.46762977913022" lon="11.435751020908356">
        <ele>1237.834716796875</ele>
        <time>2013-03-24T11:57:09Z</time>
      </trkpt>
      <trkpt lat="47.467628018930554" lon="11.435721516609192">
        <ele>1237.35400390625</ele>
        <time>2013-03-24T11:57:26Z</time>
      </trkpt>
      <trkpt lat="47.467630114406347" lon="11.435785889625549">
        <ele>1237.35400390625</ele>
        <time>2013-03-24T11:57:59Z</time>
      </trkpt>
      <trkpt lat="47.46765123680234" lon="11.435858476907015">
        <ele>1237.35400390625</ele>
        <time>2013-03-24T11:58:01Z</time>
      </trkpt>
      <trkpt lat="47.467741509899497" lon="11.435983199626207">
        <ele>1236.873291015625</ele>
        <time>2013-03-24T11:58:04Z</time>
      </trkpt>
      <trkpt lat="47.467843685299158" lon="11.436128709465265">
        <ele>1235.431396484375</ele>
        <time>2013-03-24T11:58:07Z</time>
      </trkpt>
      <trkpt lat="47.467911075800657" lon="11.43626231700182">
        <ele>1233.5087890625</ele>
        <time>2013-03-24T11:58:09Z</time>
      </trkpt>
      <trkpt lat="47.468109223991632" lon="11.436552917584777">
        <ele>1229.66357421875</ele>
        <time>2013-03-24T11:58:14Z</time>
      </trkpt>
      <trkpt lat="47.468177787959576" lon="11.436676047742367">
        <ele>1227.74072265625</ele>
        <time>2013-03-24T11:58:16Z</time>
      </trkpt>
      <trkpt lat="47.468246854841709" lon="11.436977125704288">
        <ele>1224.85693359375</ele>
        <time>2013-03-24T11:58:20Z</time>
      </trkpt>
      <trkpt lat="47.468336205929518" lon="11.437424635514617">
        <ele>1221.01171875</ele>
        <time>2013-03-24T11:58:26Z</time>
      </trkpt>
      <trkpt lat="47.468377025797963" lon="11.437655556946993">
        <ele>1218.6083984375</ele>
        <time>2013-03-24T11:58:29Z</time>
      </trkpt>
      <trkpt lat="47.46838859282434" lon="11.43773996271193">
        <ele>1218.6083984375</ele>
        <time>2013-03-24T11:58:30Z</time>
      </trkpt>
      <trkpt lat="47.468421198427677" lon="11.438024109229445">
        <ele>1215.724609375</ele>
        <time>2013-03-24T11:58:33Z</time>
      </trkpt>
      <trkpt lat="47.468486744910479" lon="11.43820415250957">
        <ele>1214.282470703125</ele>
        <time>2013-03-24T11:58:35Z</time>
      </trkpt>
      <trkpt lat="47.468594703823328" lon="11.438342956826091">
        <ele>1210.43701171875</ele>
        <time>2013-03-24T11:58:37Z</time>
      </trkpt>
      <trkpt lat="47.46864608488977" lon="11.438402719795704">
        <ele>1209.475830078125</ele>
        <time>2013-03-24T11:58:38Z</time>
      </trkpt>
      <trkpt lat="47.468818835914135" lon="11.438645627349615">
        <ele>1203.7080078125</ele>
        <time>2013-03-24T11:58:42Z</time>
      </trkpt>
      <trkpt lat="47.468967949971557" lon="11.43887696787715">
        <ele>1199.86279296875</ele>
        <time>2013-03-24T11:58:46Z</time>
      </trkpt>
      <trkpt lat="47.469042548909783" lon="11.438974952325225">
        <ele>1198.9013671875</ele>
        <time>2013-03-24T11:58:48Z</time>
      </trkpt>
      <trkpt lat="47.469122596085072" lon="11.439138734713197">
        <ele>1196.017578125</ele>
        <time>2013-03-24T11:58:51Z</time>
      </trkpt>
      <trkpt lat="47.46919727884233" lon="11.439264044165611">
        <ele>1194.5751953125</ele>
        <time>2013-03-24T11:58:53Z</time>
      </trkpt>
      <trkpt lat="47.469353601336479" lon="11.439535198733211">
        <ele>1189.768798828125</ele>
        <time>2013-03-24T11:58:57Z</time>
      </trkpt>
      <trkpt lat="47.469373298808932" lon="11.439599990844727">
        <ele>1189.2880859375</ele>
        <time>2013-03-24T11:58:58Z</time>
      </trkpt>
      <trkpt lat="47.469401294365525" lon="11.439820770174265">
        <ele>1187.365478515625</ele>
        <time>2013-03-24T11:59:01Z</time>
      </trkpt>
      <trkpt lat="47.469444209709764" lon="11.439951695501804">
        <ele>1186.404296875</ele>
        <time>2013-03-24T11:59:03Z</time>
      </trkpt>
      <trkpt lat="47.469572788104415" lon="11.440194854512811">
        <ele>1182.55908203125</ele>
        <time>2013-03-24T11:59:07Z</time>
      </trkpt>
      <trkpt lat="47.469766661524773" lon="11.440622415393591">
        <ele>1178.713623046875</ele>
        <time>2013-03-24T11:59:13Z</time>
      </trkpt>
      <trkpt lat="47.46986229903996" lon="11.440839255228639">
        <ele>1176.310302734375</ele>
        <time>2013-03-24T11:59:16Z</time>
      </trkpt>
      <trkpt lat="47.469930779188871" lon="11.441085431724787">
        <ele>1173.426513671875</ele>
        <time>2013-03-24T11:59:19Z</time>
      </trkpt>
      <trkpt lat="47.469985345378518" lon="11.441354406997561">
        <ele>1171.023193359375</ele>
        <time>2013-03-24T11:59:22Z</time>
      </trkpt>
      <trkpt lat="47.469990290701389" lon="11.441748440265656">
        <ele>1169.1005859375</ele>
        <time>2013-03-24T11:59:26Z</time>
      </trkpt>
      <trkpt lat="47.46998886577785" lon="11.441845586523414">
        <ele>1169.1005859375</ele>
        <time>2013-03-24T11:59:27Z</time>
      </trkpt>
      <trkpt lat="47.470122054219246" lon="11.442275242879987">
        <ele>1165.736083984375</ele>
        <time>2013-03-24T11:59:32Z</time>
      </trkpt>
      <trkpt lat="47.470210148021579" lon="11.442495603114367">
        <ele>1164.2939453125</ele>
        <time>2013-03-24T11:59:35Z</time>
      </trkpt>
      <trkpt lat="47.470250548794866" lon="11.442788047716022">
        <ele>1163.33251953125</ele>
        <time>2013-03-24T11:59:39Z</time>
      </trkpt>
      <trkpt lat="47.470218362286687" lon="11.443405207246542">
        <ele>1159.9677734375</ele>
        <time>2013-03-24T11:59:48Z</time>
      </trkpt>
      <trkpt lat="47.470210483297706" lon="11.443602098152041">
        <ele>1159.006591796875</ele>
        <time>2013-03-24T11:59:51Z</time>
      </trkpt>
      <trkpt lat="47.470198413357139" lon="11.444204924628139">
        <ele>1156.12255859375</ele>
        <time>2013-03-24T12:00:00Z</time>
      </trkpt>
      <trkpt lat="47.470179554075003" lon="11.44456316716969">
        <ele>1154.6806640625</ele>
        <time>2013-03-24T12:00:05Z</time>
      </trkpt>
      <trkpt lat="47.470249626785517" lon="11.445088963955641">
        <ele>1151.796875</ele>
        <time>2013-03-24T12:00:12Z</time>
      </trkpt>
      <trkpt lat="47.470423802733421" lon="11.445543263107538">
        <ele>1149.3935546875</ele>
        <time>2013-03-24T12:00:19Z</time>
      </trkpt>
      <trkpt lat="47.470458336174488" lon="11.445601433515549">
        <ele>1149.3935546875</ele>
        <time>2013-03-24T12:00:20Z</time>
      </trkpt>
      <trkpt lat="47.470534024760127" lon="11.44570168107748">
        <ele>1148.43212890625</ele>
        <time>2013-03-24T12:00:22Z</time>
      </trkpt>
      <trkpt lat="47.47076771222055" lon="11.445871163159609">
        <ele>1147.470703125</ele>
        <time>2013-03-24T12:00:29Z</time>
      </trkpt>
      <trkpt lat="47.470868211239576" lon="11.445940481498837">
        <ele>1146.989990234375</ele>
        <time>2013-03-24T12:00:34Z</time>
      </trkpt>
      <trkpt lat="47.470895620062947" lon="11.446006614714861">
        <ele>1146.509521484375</ele>
        <time>2013-03-24T12:00:38Z</time>
      </trkpt>
      <trkpt lat="47.470939122140408" lon="11.446179281920195">
        <ele>1146.02880859375</ele>
        <time>2013-03-24T12:00:43Z</time>
      </trkpt>
      <trkpt lat="47.470958568155766" lon="11.446476168930531">
        <ele>1144.106201171875</ele>
        <time>2013-03-24T12:00:47Z</time>
      </trkpt>
      <trkpt lat="47.471036184579134" lon="11.446985118091106">
        <ele>1140.741455078125</ele>
        <time>2013-03-24T12:00:52Z</time>
      </trkpt>
      <trkpt lat="47.471045991405845" lon="11.447101458907127">
        <ele>1139.7802734375</ele>
        <time>2013-03-24T12:00:53Z</time>
      </trkpt>
      <trkpt lat="47.471062922850251" lon="11.447668997570872">
        <ele>1135.454345703125</ele>
        <time>2013-03-24T12:00:58Z</time>
      </trkpt>
      <trkpt lat="47.471071472391486" lon="11.447972254827619">
        <ele>1132.08984375</ele>
        <time>2013-03-24T12:01:01Z</time>
      </trkpt>
      <trkpt lat="47.471081195399165" lon="11.448170989751816">
        <ele>1131.12841796875</ele>
        <time>2013-03-24T12:01:03Z</time>
      </trkpt>
      <trkpt lat="47.471053954213858" lon="11.448578266426921">
        <ele>1126.802490234375</ele>
        <time>2013-03-24T12:01:07Z</time>
      </trkpt>
      <trkpt lat="47.47101497836411" lon="11.44887431524694">
        <ele>1125.3603515625</ele>
        <time>2013-03-24T12:01:10Z</time>
      </trkpt>
      <trkpt lat="47.470999220386147" lon="11.449073469266295">
        <ele>1123.43798828125</ele>
        <time>2013-03-24T12:01:12Z</time>
      </trkpt>
      <trkpt lat="47.471008775755763" lon="11.449499940499663">
        <ele>1119.112060546875</ele>
        <time>2013-03-24T12:01:16Z</time>
      </trkpt>
      <trkpt lat="47.471019839867949" lon="11.449598846957088">
        <ele>1119.112060546875</ele>
        <time>2013-03-24T12:01:17Z</time>
      </trkpt>
      <trkpt lat="47.471090164035559" lon="11.449865391477942">
        <ele>1117.669921875</ele>
        <time>2013-03-24T12:01:20Z</time>
      </trkpt>
      <trkpt lat="47.4711346719414" lon="11.449936972931027">
        <ele>1116.22802734375</ele>
        <time>2013-03-24T12:01:21Z</time>
      </trkpt>
      <trkpt lat="47.471295520663261" lon="11.450116094201803">
        <ele>1113.824462890625</ele>
        <time>2013-03-24T12:01:24Z</time>
      </trkpt>
      <trkpt lat="47.471413370221853" lon="11.450371406972408">
        <ele>1112.86328125</ele>
        <time>2013-03-24T12:01:27Z</time>
      </trkpt>
      <trkpt lat="47.471419237554073" lon="11.450658570975065">
        <ele>1109.01806640625</ele>
        <time>2013-03-24T12:01:31Z</time>
      </trkpt>
      <trkpt lat="47.47140783816576" lon="11.450631413608789">
        <ele>1108.537353515625</ele>
        <time>2013-03-24T12:01:40Z</time>
      </trkpt>
      <trkpt lat="47.471407083794475" lon="11.450634514912963">
        <ele>1108.537353515625</ele>
        <time>2013-03-24T12:01:51Z</time>
      </trkpt>
      <trkpt lat="47.471412280574441" lon="11.450635772198439">
        <ele>1109.01806640625</ele>
        <time>2013-03-24T12:02:12Z</time>
      </trkpt>
      <trkpt lat="47.47145569883287" lon="11.450658906251192">
        <ele>1108.056884765625</ele>
        <time>2013-03-24T12:02:15Z</time>
      </trkpt>
      <trkpt lat="47.471515294164419" lon="11.450814725831151">
        <ele>1107.095458984375</ele>
        <time>2013-03-24T12:02:21Z</time>
      </trkpt>
      <trkpt lat="47.471521245315671" lon="11.450854791328311">
        <ele>1107.095458984375</ele>
        <time>2013-03-24T12:02:22Z</time>
      </trkpt>
      <trkpt lat="47.471663821488619" lon="11.4511454757303">
        <ele>1103.250244140625</ele>
        <time>2013-03-24T12:02:27Z</time>
      </trkpt>
      <trkpt lat="47.471776390448213" lon="11.451240191236138">
        <ele>1101.32763671875</ele>
        <time>2013-03-24T12:02:30Z</time>
      </trkpt>
      <trkpt lat="47.471919050440192" lon="11.451177662238479">
        <ele>1099.885498046875</ele>
        <time>2013-03-24T12:02:34Z</time>
      </trkpt>
      <trkpt lat="47.471983674913645" lon="11.451093088835478">
        <ele>1100.366455078125</ele>
        <time>2013-03-24T12:02:40Z</time>
      </trkpt>
      <trkpt lat="47.471975879743695" lon="11.451101386919618">
        <ele>1099.885498046875</ele>
        <time>2013-03-24T12:02:48Z</time>
      </trkpt>
      <trkpt lat="47.471966994926333" lon="11.451105996966362">
        <ele>1099.40478515625</ele>
        <time>2013-03-24T12:02:57Z</time>
      </trkpt>
      <trkpt lat="47.471975041553378" lon="11.451102811843157">
        <ele>1099.885498046875</ele>
        <time>2013-03-24T12:03:08Z</time>
      </trkpt>
      <trkpt lat="47.471927348524332" lon="11.451147655025125">
        <ele>1100.366455078125</ele>
        <time>2013-03-24T12:03:18Z</time>
      </trkpt>
      <trkpt lat="47.471846966072917" lon="11.451203897595406">
        <ele>1100.366455078125</ele>
        <time>2013-03-24T12:03:31Z</time>
      </trkpt>
      <trkpt lat="47.471750741824508" lon="11.451197359710932">
        <ele>1101.32763671875</ele>
        <time>2013-03-24T12:03:46Z</time>
      </trkpt>
      <trkpt lat="47.471687039360404" lon="11.451141955330968">
        <ele>1102.76953125</ele>
        <time>2013-03-24T12:03:59Z</time>
      </trkpt>
      <trkpt lat="47.471635323017836" lon="11.451067691668868">
        <ele>1103.73095703125</ele>
        <time>2013-03-24T12:04:12Z</time>
      </trkpt>
      <trkpt lat="47.471582433208823" lon="11.450986219570041">
        <ele>1104.692138671875</ele>
        <time>2013-03-24T12:04:27Z</time>
      </trkpt>
      <trkpt lat="47.471548737958074" lon="11.450909776613116">
        <ele>1105.653564453125</ele>
        <time>2013-03-24T12:04:39Z</time>
      </trkpt>
      <trkpt lat="47.471535746008158" lon="11.450868034735322">
        <ele>1106.134033203125</ele>
        <time>2013-03-24T12:04:49Z</time>
      </trkpt>
      <trkpt lat="47.471517808735371" lon="11.450800476595759">
        <ele>1107.095458984375</ele>
        <time>2013-03-24T12:05:02Z</time>
      </trkpt>
      <trkpt lat="47.471509259194136" lon="11.450737360864878">
        <ele>1108.537353515625</ele>
        <time>2013-03-24T12:05:14Z</time>
      </trkpt>
      <trkpt lat="47.471462152898312" lon="11.450641052797437">
        <ele>1108.537353515625</ele>
        <time>2013-03-24T12:05:28Z</time>
      </trkpt>
      <trkpt lat="47.471439437940717" lon="11.450661169365048">
        <ele>1108.056884765625</ele>
        <time>2013-03-24T12:05:38Z</time>
      </trkpt>
      <trkpt lat="47.47143373824656" lon="11.450703330338001">
        <ele>1108.056884765625</ele>
        <time>2013-03-24T12:05:42Z</time>
      </trkpt>
      <trkpt lat="47.471462404355407" lon="11.450950847938657">
        <ele>1109.01806640625</ele>
        <time>2013-03-24T12:05:53Z</time>
      </trkpt>
      <trkpt lat="47.471492327749729" lon="11.451235162094235">
        <ele>1108.056884765625</ele>
        <time>2013-03-24T12:06:05Z</time>
      </trkpt>
      <trkpt lat="47.471511857584119" lon="11.45144303329289">
        <ele>1108.537353515625</ele>
        <time>2013-03-24T12:06:14Z</time>
      </trkpt>
      <trkpt lat="47.471522083505988" lon="11.451599188148975">
        <ele>1108.537353515625</ele>
        <time>2013-03-24T12:06:20Z</time>
      </trkpt>
      <trkpt lat="47.47152610681951" lon="11.451727766543627">
        <ele>1109.01806640625</ele>
        <time>2013-03-24T12:06:24Z</time>
      </trkpt>
      <trkpt lat="47.471532896161079" lon="11.451952653005719">
        <ele>1108.056884765625</ele>
        <time>2013-03-24T12:06:32Z</time>
      </trkpt>
      <trkpt lat="47.471490651369095" lon="11.452165050432086">
        <ele>1107.095458984375</ele>
        <time>2013-03-24T12:06:39Z</time>
      </trkpt>
      <trkpt lat="47.471439186483622" lon="11.45225515589118">
        <ele>1106.134033203125</ele>
        <time>2013-03-24T12:06:41Z</time>
      </trkpt>
      <trkpt lat="47.471293089911342" lon="11.452435282990336">
        <ele>1104.692138671875</ele>
        <time>2013-03-24T12:06:43Z</time>
      </trkpt>
      <trkpt lat="47.471281103789806" lon="11.452767793089151">
        <ele>1100.366455078125</ele>
        <time>2013-03-24T12:06:47Z</time>
      </trkpt>
      <trkpt lat="47.471319492906332" lon="11.45283417776227">
        <ele>1100.846923828125</ele>
        <time>2013-03-24T12:06:48Z</time>
      </trkpt>
      <trkpt lat="47.471340782940388" lon="11.45291481167078">
        <ele>1099.885498046875</ele>
        <time>2013-03-24T12:06:49Z</time>
      </trkpt>
      <trkpt lat="47.471548905596137" lon="11.453231396153569">
        <ele>1096.52099609375</ele>
        <time>2013-03-24T12:06:53Z</time>
      </trkpt>
      <trkpt lat="47.471689386293292" lon="11.453477991744876">
        <ele>1093.15625</ele>
        <time>2013-03-24T12:06:56Z</time>
      </trkpt>
      <trkpt lat="47.471814779564738" lon="11.453736154362559">
        <ele>1091.233642578125</ele>
        <time>2013-03-24T12:06:59Z</time>
      </trkpt>
      <trkpt lat="47.471936317160726" lon="11.454182909801602">
        <ele>1087.388427734375</ele>
        <time>2013-03-24T12:07:04Z</time>
      </trkpt>
      <trkpt lat="47.471937322989106" lon="11.454354822635651">
        <ele>1086.42724609375</ele>
        <time>2013-03-24T12:07:06Z</time>
      </trkpt>
      <trkpt lat="47.471924414858222" lon="11.454671826213598">
        <ele>1083.062255859375</ele>
        <time>2013-03-24T12:07:09Z</time>
      </trkpt>
      <trkpt lat="47.47193262912333" lon="11.454783892259002">
        <ele>1081.620361328125</ele>
        <time>2013-03-24T12:07:10Z</time>
      </trkpt>
      <trkpt lat="47.472015107050538" lon="11.455058315768838">
        <ele>1080.178466796875</ele>
        <time>2013-03-24T12:07:13Z</time>
      </trkpt>
      <trkpt lat="47.472057603299618" lon="11.45513559691608">
        <ele>1078.736572265625</ele>
        <time>2013-03-24T12:07:14Z</time>
      </trkpt>
      <trkpt lat="47.472274694591761" lon="11.455404572188854">
        <ele>1075.371826171875</ele>
        <time>2013-03-24T12:07:18Z</time>
      </trkpt>
      <trkpt lat="47.472407463937998" lon="11.455650581046939">
        <ele>1071.526611328125</ele>
        <time>2013-03-24T12:07:21Z</time>
      </trkpt>
      <trkpt lat="47.472563534975052" lon="11.456012930721045">
        <ele>1067.68115234375</ele>
        <time>2013-03-24T12:07:25Z</time>
      </trkpt>
      <trkpt lat="47.472745841369033" lon="11.45634544081986">
        <ele>1063.8359375</ele>
        <time>2013-03-24T12:07:29Z</time>
      </trkpt>
      <trkpt lat="47.472798731178045" lon="11.456504445523024">
        <ele>1060.9521484375</ele>
        <time>2013-03-24T12:07:31Z</time>
      </trkpt>
      <trkpt lat="47.472831923514605" lon="11.456580804660916">
        <ele>1060.9521484375</ele>
        <time>2013-03-24T12:07:32Z</time>
      </trkpt>
      <trkpt lat="47.472939547151327" lon="11.456801164895296">
        <ele>1058.068359375</ele>
        <time>2013-03-24T12:07:35Z</time>
      </trkpt>
      <trkpt lat="47.473080027848482" lon="11.456986907869577">
        <ele>1055.6650390625</ele>
        <time>2013-03-24T12:07:38Z</time>
      </trkpt>
      <trkpt lat="47.473259652033448" lon="11.457493091002107">
        <ele>1051.819580078125</ele>
        <time>2013-03-24T12:07:43Z</time>
      </trkpt>
      <trkpt lat="47.473252778872848" lon="11.457715211436152">
        <ele>1048.454833984375</ele>
        <time>2013-03-24T12:07:45Z</time>
      </trkpt>
      <trkpt lat="47.473235009238124" lon="11.458240170031786">
        <ele>1045.09033203125</ele>
        <time>2013-03-24T12:07:50Z</time>
      </trkpt>
      <trkpt lat="47.473246911540627" lon="11.458670413121581">
        <ele>1041.2451171875</ele>
        <time>2013-03-24T12:07:54Z</time>
      </trkpt>
      <trkpt lat="47.473246240988374" lon="11.458777952939272">
        <ele>1040.283935546875</ele>
        <time>2013-03-24T12:07:55Z</time>
      </trkpt>
      <trkpt lat="47.473248168826103" lon="11.459191264584661">
        <ele>1037.39990234375</ele>
        <time>2013-03-24T12:07:59Z</time>
      </trkpt>
      <trkpt lat="47.473206594586372" lon="11.459576915949583">
        <ele>1034.03515625</ele>
        <time>2013-03-24T12:08:03Z</time>
      </trkpt>
      <trkpt lat="47.47315714135766" lon="11.459783026948571">
        <ele>1030.670654296875</ele>
        <time>2013-03-24T12:08:05Z</time>
      </trkpt>
      <trkpt lat="47.473127972334623" lon="11.460111010819674">
        <ele>1028.748046875</ele>
        <time>2013-03-24T12:08:08Z</time>
      </trkpt>
      <trkpt lat="47.473107855767012" lon="11.460334975272417">
        <ele>1024.90283203125</ele>
        <time>2013-03-24T12:08:10Z</time>
      </trkpt>
      <trkpt lat="47.473063096404076" lon="11.460545025765896">
        <ele>1023.4609375</ele>
        <time>2013-03-24T12:08:12Z</time>
      </trkpt>
      <trkpt lat="47.472894620150328" lon="11.460882229730487">
        <ele>1020.09619140625</ele>
        <time>2013-03-24T12:08:16Z</time>
      </trkpt>
      <trkpt lat="47.472883556038141" lon="11.461012652143836">
        <ele>1018.17333984375</ele>
        <time>2013-03-24T12:08:18Z</time>
      </trkpt>
      <trkpt lat="47.473033927381039" lon="11.46099136210978">
        <ele>1015.770263671875</ele>
        <time>2013-03-24T12:08:21Z</time>
      </trkpt>
      <trkpt lat="47.473086146637797" lon="11.460932353511453">
        <ele>1015.28955078125</ele>
        <time>2013-03-24T12:08:22Z</time>
      </trkpt>
      <trkpt lat="47.473232913762331" lon="11.460763541981578">
        <ele>1013.366943359375</ele>
        <time>2013-03-24T12:08:25Z</time>
      </trkpt>
      <trkpt lat="47.473374400287867" lon="11.460602609440684">
        <ele>1011.925048828125</ele>
        <time>2013-03-24T12:08:28Z</time>
      </trkpt>
      <trkpt lat="47.473540781065822" lon="11.460311422124505">
        <ele>1006.6376953125</ele>
        <time>2013-03-24T12:08:32Z</time>
      </trkpt>
      <trkpt lat="47.473687380552292" lon="11.46011277101934">
        <ele>1004.234619140625</ele>
        <time>2013-03-24T12:08:35Z</time>
      </trkpt>
      <trkpt lat="47.473776983097196" lon="11.459878496825695">
        <ele>1001.350341796875</ele>
        <time>2013-03-24T12:08:38Z</time>
      </trkpt>
      <trkpt lat="47.473883936181664" lon="11.459758467972279">
        <ele>997.98583984375</ele>
        <time>2013-03-24T12:08:41Z</time>
      </trkpt>
      <trkpt lat="47.473920229822397" lon="11.459800964221358">
        <ele>997.98583984375</ele>
        <time>2013-03-24T12:08:42Z</time>
      </trkpt>
      <trkpt lat="47.473964150995016" lon="11.460045883432031">
        <ele>997.0244140625</ele>
        <time>2013-03-24T12:08:49Z</time>
      </trkpt>
      <trkpt lat="47.474045120179653" lon="11.460202960297465">
        <ele>996.063232421875</ele>
        <time>2013-03-24T12:08:53Z</time>
      </trkpt>
      <trkpt lat="47.474078144878149" lon="11.460370179265738">
        <ele>995.58251953125</ele>
        <time>2013-03-24T12:08:56Z</time>
      </trkpt>
      <trkpt lat="47.474218038842082" lon="11.460616607218981">
        <ele>993.659912109375</ele>
        <time>2013-03-24T12:09:01Z</time>
      </trkpt>
      <trkpt lat="47.474300600588322" lon="11.460784832015634">
        <ele>993.17919921875</ele>
        <time>2013-03-24T12:09:04Z</time>
      </trkpt>
      <trkpt lat="47.474509393796325" lon="11.460969652980566">
        <ele>990.77587890625</ele>
        <time>2013-03-24T12:09:09Z</time>
      </trkpt>
      <trkpt lat="47.474638056010008" lon="11.461151791736484">
        <ele>989.814697265625</ele>
        <time>2013-03-24T12:09:12Z</time>
      </trkpt>
      <trkpt lat="47.474704943597317" lon="11.461332757025957">
        <ele>987.891845703125</ele>
        <time>2013-03-24T12:09:14Z</time>
      </trkpt>
      <trkpt lat="47.474717767909169" lon="11.461600391194224">
        <ele>984.046630859375</ele>
        <time>2013-03-24T12:09:17Z</time>
      </trkpt>
      <trkpt lat="47.474673092365265" lon="11.461669877171516">
        <ele>984.046630859375</ele>
        <time>2013-03-24T12:09:18Z</time>
      </trkpt>
      <trkpt lat="47.474463377147913" lon="11.461718827486038">
        <ele>980.68212890625</ele>
        <time>2013-03-24T12:09:21Z</time>
      </trkpt>
      <trkpt lat="47.474320800974965" lon="11.461726706475019">
        <ele>978.27880859375</ele>
        <time>2013-03-24T12:09:23Z</time>
      </trkpt>
      <trkpt lat="47.474064482375979" lon="11.461895350366831">
        <ele>974.43359375</ele>
        <time>2013-03-24T12:09:27Z</time>
      </trkpt>
      <trkpt lat="47.473903801292181" lon="11.462085032835603">
        <ele>972.0302734375</ele>
        <time>2013-03-24T12:09:30Z</time>
      </trkpt>
      <trkpt lat="47.473869267851114" lon="11.462137419730425">
        <ele>970.107421875</ele>
        <time>2013-03-24T12:09:31Z</time>
      </trkpt>
      <trkpt lat="47.473803553730249" lon="11.462227692827582">
        <ele>968.66552734375</ele>
        <time>2013-03-24T12:09:33Z</time>
      </trkpt>
      <trkpt lat="47.473637675866485" lon="11.462345123291016">
        <ele>966.742919921875</ele>
        <time>2013-03-24T12:09:36Z</time>
      </trkpt>
      <trkpt lat="47.473573805764318" lon="11.462357947602868">
        <ele>965.301025390625</ele>
        <time>2013-03-24T12:09:37Z</time>
      </trkpt>
      <trkpt lat="47.473358307033777" lon="11.462538745254278">
        <ele>961.455810546875</ele>
        <time>2013-03-24T12:09:41Z</time>
      </trkpt>
      <trkpt lat="47.473314134404063" lon="11.462604710832238">
        <ele>960.494384765625</ele>
        <time>2013-03-24T12:09:42Z</time>
      </trkpt>
      <trkpt lat="47.473143730312586" lon="11.462776456028223">
        <ele>958.09130859375</ele>
        <time>2013-03-24T12:09:46Z</time>
      </trkpt>
      <trkpt lat="47.473014816641808" lon="11.46294535137713">
        <ele>954.245849609375</ele>
        <time>2013-03-24T12:09:49Z</time>
      </trkpt>
      <trkpt lat="47.472968799993396" lon="11.463018441572785">
        <ele>954.245849609375</ele>
        <time>2013-03-24T12:09:50Z</time>
      </trkpt>
      <trkpt lat="47.472889004275203" lon="11.463186834007502">
        <ele>951.36181640625</ele>
        <time>2013-03-24T12:09:52Z</time>
      </trkpt>
      <trkpt lat="47.47276620939374" lon="11.463413229212165">
        <ele>949.439208984375</ele>
        <time>2013-03-24T12:09:55Z</time>
      </trkpt>
      <trkpt lat="47.472604187205434" lon="11.463719587773085">
        <ele>944.632568359375</ele>
        <time>2013-03-24T12:09:59Z</time>
      </trkpt>
      <trkpt lat="47.472479632124305" lon="11.464046817272902">
        <ele>940.787353515625</ele>
        <time>2013-03-24T12:10:03Z</time>
      </trkpt>
      <trkpt lat="47.472339319065213" lon="11.464383350685239">
        <ele>936.46142578125</ele>
        <time>2013-03-24T12:10:07Z</time>
      </trkpt>
      <trkpt lat="47.472276203334332" lon="11.464590970426798">
        <ele>935.5</ele>
        <time>2013-03-24T12:10:09Z</time>
      </trkpt>
      <trkpt lat="47.472194479778409" lon="11.464907135814428">
        <ele>931.17431640625</ele>
        <time>2013-03-24T12:10:12Z</time>
      </trkpt>
      <trkpt lat="47.472132621333003" lon="11.465058010071516">
        <ele>929.732177734375</ele>
        <time>2013-03-24T12:10:14Z</time>
      </trkpt>
      <trkpt lat="47.472048634663224" lon="11.465158257633448">
        <ele>929.25146484375</ele>
        <time>2013-03-24T12:10:17Z</time>
      </trkpt>
      <trkpt lat="47.471964731812477" lon="11.465202765539289">
        <ele>929.25146484375</ele>
        <time>2013-03-24T12:10:24Z</time>
      </trkpt>
      <trkpt lat="47.471945537254214" lon="11.465281303972006">
        <ele>929.25146484375</ele>
        <time>2013-03-24T12:10:32Z</time>
      </trkpt>
      <trkpt lat="47.471957607194781" lon="11.465492863208055">
        <ele>929.25146484375</ele>
        <time>2013-03-24T12:10:42Z</time>
      </trkpt>
      <trkpt lat="47.472034301608801" lon="11.465666620060802">
        <ele>928.77099609375</ele>
        <time>2013-03-24T12:10:52Z</time>
      </trkpt>
      <trkpt lat="47.472104290500283" lon="11.465852446854115">
        <ele>929.25146484375</ele>
        <time>2013-03-24T12:11:01Z</time>
      </trkpt>
      <trkpt lat="47.472114181146026" lon="11.465918831527233">
        <ele>929.25146484375</ele>
        <time>2013-03-24T12:11:09Z</time>
      </trkpt>
      <trkpt lat="47.472106218338013" lon="11.46590986289084">
        <ele>929.25146484375</ele>
        <time>2013-03-24T12:11:24Z</time>
      </trkpt>
      <trkpt lat="47.472103787586093" lon="11.465909108519554">
        <ele>930.693603515625</ele>
        <time>2013-03-24T12:12:04Z</time>
      </trkpt>
      <trkpt lat="47.472104877233505" lon="11.46590206772089">
        <ele>930.693603515625</ele>
        <time>2013-03-24T12:12:23Z</time>
      </trkpt>
      <trkpt lat="47.472105296328664" lon="11.465901313349605">
        <ele>930.212890625</ele>
        <time>2013-03-24T12:12:40Z</time>
      </trkpt>
      <trkpt lat="47.472125748172402" lon="11.465925704687834">
        <ele>930.212890625</ele>
        <time>2013-03-24T12:12:52Z</time>
      </trkpt>
      <trkpt lat="47.472141673788428" lon="11.465918580070138">
        <ele>930.212890625</ele>
        <time>2013-03-24T12:12:59Z</time>
      </trkpt>
      <trkpt lat="47.472153156995773" lon="11.465919418260455">
        <ele>930.212890625</ele>
        <time>2013-03-24T12:13:20Z</time>
      </trkpt>
      <trkpt lat="47.472145948559046" lon="11.465943558141589">
        <ele>930.693603515625</ele>
        <time>2013-03-24T12:13:30Z</time>
      </trkpt>
      <trkpt lat="47.472137147560716" lon="11.465984880924225">
        <ele>930.212890625</ele>
        <time>2013-03-24T12:13:33Z</time>
      </trkpt>
      <trkpt lat="47.472043856978416" lon="11.466259974986315">
        <ele>930.693603515625</ele>
        <time>2013-03-24T12:13:50Z</time>
      </trkpt>
      <trkpt lat="47.47195509262383" lon="11.466592317447066">
        <ele>931.17431640625</ele>
        <time>2013-03-24T12:14:09Z</time>
      </trkpt>
      <trkpt lat="47.471881164237857" lon="11.467054830864072">
        <ele>929.732177734375</ele>
        <time>2013-03-24T12:14:34Z</time>
      </trkpt>
      <trkpt lat="47.471895664930344" lon="11.467326823621988">
        <ele>926.848388671875</ele>
        <time>2013-03-24T12:14:48Z</time>
      </trkpt>
      <trkpt lat="47.472025500610471" lon="11.467370074242353">
        <ele>926.36767578125</ele>
        <time>2013-03-24T12:14:59Z</time>
      </trkpt>
      <trkpt lat="47.472093980759382" lon="11.467397566884756">
        <ele>925.40625</ele>
        <time>2013-03-24T12:15:06Z</time>
      </trkpt>
      <trkpt lat="47.472072103992105" lon="11.467538885772228">
        <ele>925.40625</ele>
        <time>2013-03-24T12:15:14Z</time>
      </trkpt>
      <trkpt lat="47.471918212249875" lon="11.467669140547514">
        <ele>925.40625</ele>
        <time>2013-03-24T12:15:27Z</time>
      </trkpt>
      <trkpt lat="47.471707239747047" lon="11.467850608751178">
        <ele>923.483642578125</ele>
        <time>2013-03-24T12:15:46Z</time>
      </trkpt>
      <trkpt lat="47.471705647185445" lon="11.467889249324799">
        <ele>923.964111328125</ele>
        <time>2013-03-24T12:15:54Z</time>
      </trkpt>
      <trkpt lat="47.471694834530354" lon="11.467884052544832">
        <ele>923.483642578125</ele>
        <time>2013-03-24T12:16:16Z</time>
      </trkpt>
      <trkpt lat="47.471690056845546" lon="11.467888997867703">
        <ele>923.0029296875</ele>
        <time>2013-03-24T12:16:25Z</time>
      </trkpt>
      <trkpt lat="47.471701959148049" lon="11.467890171334147">
        <ele>923.964111328125</ele>
        <time>2013-03-24T12:16:38Z</time>
      </trkpt>
      <trkpt lat="47.471708664670587" lon="11.467877682298422">
        <ele>923.483642578125</ele>
        <time>2013-03-24T12:16:45Z</time>
      </trkpt>
    </trkseg>
  </trk>

</gpx>
